Darstellungsparameter: Aktuell verwendete Einstellungen:
Skalierung der Graphiken ... ?
xyx+y,   Skalierungsfaktor:      Skalierung: Modus: x, Faktor: 1
Darstellungszeitraum ... ?
Vom - - bis: - -   Zeitraum: 08.10.2011 - 28.10.2011
Min/Max/Avg-Anzeige ... ?
Zeige MMA aktuell
Zeige MMA Monat
Zeige MMA alles
Zeige --A aktuell
Zeige --A Monat
Zeige --A alles
Keine MMA-Anzeige
MMA:
Average (ber die Originaldaten)
MMA-Basis: 08.10.2011 - 28.10.2011
Quicknavigation für Darstellung... ?
Tage:      1T, 2T, 3T, 5T -1T -2T -3T -5T +1T +2T +3T +5T
Wochen: 1W, 2W, 3W -1W -2W -3W +1W +2W +3W
Monate: 1M, 3M, 6M -1M -3M -6M +1M +3M +6M
Jahre:    1J, 3J, 5J, 10J -1J -3J -5J -10J +1J +3J +5J +10J
Nutze für die Darstellung ... ?
Originaldaten oder Mittelwerte auf ...
Stundenbasis Tagesbasis Wochenbasis
Monatsbasis Jahresbasis      Datenbasis: Original-Daten
Darstellen als:
Statistik (Auto) Statistik J:M      Darstellung:
Zur Graphik,    zurück zur Übersicht aller Sensoren.
 
Tabellarische Datenbersicht: ?
 
Sensor: Nr:Datum:Temp:Abs-Feuchte:Windchill:Wind:
Aussen-T/F 1 08-10-2011 00:07:01 9.3 C 6.65 g/m*3 9.3 C 0 km/h
2 08-10-2011 00:19:02 9 C 6.79 g/m*3 9 C 0 km/h
3 08-10-2011 00:31:02 8.8 C 6.96 g/m*3 8.8 C 0 km/h
4 08-10-2011 00:43:02 8.8 C 7.14 g/m*3 8.8 C 0 km/h
5 08-10-2011 00:55:02 9.1 C 7.1 g/m*3 9.1 C 0 km/h
6 08-10-2011 01:07:02 9.1 C 7.01 g/m*3 9.1 C 0 km/h
7 08-10-2011 01:19:02 8.9 C 7.1 g/m*3 8.9 C 0 km/h
8 08-10-2011 01:31:02 8.7 C 7.09 g/m*3 8.7 C 0 km/h
9 08-10-2011 01:43:02 8.7 C 7.18 g/m*3 8.7 C 0 km/h
10 08-10-2011 01:55:02 8.9 C 7.27 g/m*3 8.9 C 0 km/h
11 08-10-2011 02:07:02 9.1 C 7.01 g/m*3 9.1 C 0 km/h
12 08-10-2011 02:19:02 8.9 C 6.83 g/m*3 8.9 C 0 km/h
13 08-10-2011 02:31:02 9 C 6.7 g/m*3 9 C 0 km/h
14 08-10-2011 02:43:02 9 C 6.7 g/m*3 9 C 0 km/h
15 08-10-2011 02:55:02 9 C 6.7 g/m*3 9 C 0 km/h
16 08-10-2011 03:07:02 9.1 C 6.74 g/m*3 9.1 C 0 km/h
17 08-10-2011 03:19:02 8.6 C 6.7 g/m*3 8.6 C 0 km/h
18 08-10-2011 03:31:02 8.7 C 6.83 g/m*3 8.7 C 0 km/h
19 08-10-2011 03:43:02 8.9 C 6.75 g/m*3 8.9 C 0 km/h
20 08-10-2011 03:55:02 8.8 C 6.61 g/m*3 8.8 C 0 km/h
21 08-10-2011 04:07:02 9 C 6.44 g/m*3 9 C 0 km/h
22 08-10-2011 04:19:02 8.8 C 6.35 g/m*3 8.8 C 0 km/h
23 08-10-2011 04:31:02 9.2 C 6.43 g/m*3 9.2 C 0 km/h
24 08-10-2011 04:43:02 9 C 6.08 g/m*3 9 C 0 km/h
25 08-10-2011 04:55:03 8.6 C 6.1 g/m*3 8.6 C 0 km/h
Sensor: Nr:Datum:Temp:Abs-Feuchte:Windchill:Wind:
Aussen-T/F 26 08-10-2011 05:07:03 8.1 C 6.24 g/m*3 8.1 C 0 km/h
27 08-10-2011 05:19:03 8.2 C 6.2 g/m*3 8.2 C 0 km/h
28 08-10-2011 05:31:03 8.5 C 6.06 g/m*3 8.5 C 0 km/h
29 08-10-2011 05:43:03 8.3 C 5.98 g/m*3 8.3 C 0 km/h
30 08-10-2011 05:55:03 8.2 C 6.03 g/m*3 8.2 C 0 km/h
31 08-10-2011 06:07:03 7.9 C 6.08 g/m*3 7.9 C 0 km/h
32 08-10-2011 06:19:03 7.8 C 6.12 g/m*3 7.8 C 0 km/h
33 08-10-2011 06:31:03 7.3 C 6.16 g/m*3 7.3 C 0 km/h
34 08-10-2011 06:43:03 7.8 C 6.28 g/m*3 7.8 C 0 km/h
35 08-10-2011 06:55:03 7.6 C 6.28 g/m*3 7.6 C 0 km/h
36 08-10-2011 07:07:03 7.5 C 6.24 g/m*3 7.5 C 0 km/h
37 08-10-2011 07:19:03 7.5 C 6.24 g/m*3 7.5 C 0 km/h
38 08-10-2011 07:31:03 7.2 C 5.89 g/m*3 7.2 C 0 km/h
39 08-10-2011 07:43:03 7.1 C 6.08 g/m*3 7.1 C 0 km/h
40 08-10-2011 07:55:03 7.4 C 6.12 g/m*3 7.4 C 0 km/h
41 08-10-2011 08:07:02 7.2 C 5.97 g/m*3 7.2 C 0 km/h
42 08-10-2011 08:19:01 7.4 C 6.12 g/m*3 7.4 C 0 km/h
43 08-10-2011 08:31:01 7.7 C 6.16 g/m*3 7.7 C 0 km/h
44 08-10-2011 08:43:01 7.7 C 6.08 g/m*3 7.7 C 0 km/h
45 08-10-2011 08:55:01 7.8 C 6.04 g/m*3 7.8 C 0 km/h
46 08-10-2011 09:07:01 8.6 C 6.02 g/m*3 8.6 C 0 km/h
47 08-10-2011 09:19:02 8.9 C 5.96 g/m*3 8.9 C 0 km/h
48 08-10-2011 09:31:01 8.9 C 5.96 g/m*3 8.9 C 0 km/h
49 08-10-2011 09:43:01 8.9 C 6.04 g/m*3 8.9 C 0 km/h
50 08-10-2011 09:55:02 9.6 C 6.14 g/m*3 9.6 C 0 km/h
Sensor: Nr:Datum:Temp:Abs-Feuchte:Windchill:Wind:
Aussen-T/F 51 08-10-2011 10:07:01 9.8 C 6.03 g/m*3 9.8 C 0 km/h
52 08-10-2011 10:19:02 10.2 C 5.8 g/m*3 10.2 C 0 km/h
53 08-10-2011 10:31:01 10.6 C 5.86 g/m*3 10.6 C 0 km/h
54 08-10-2011 10:43:01 10.8 C 5.93 g/m*3 10.8 C 0 km/h
55 08-10-2011 10:55:02 11.1 C 5.94 g/m*3 11.1 C 0 km/h
56 08-10-2011 11:07:02 11.5 C 5.78 g/m*3 11.5 C 0 km/h
57 08-10-2011 11:19:02 12 C 5.75 g/m*3 12 C 0 km/h
58 08-10-2011 11:31:02 11.2 C 5.47 g/m*3 11.2 C 0 km/h
59 08-10-2011 11:43:02 10.3 C 5.55 g/m*3 10.3 C 0 km/h
60 08-10-2011 11:55:01 10.5 C 5.53 g/m*3 10.5 C 0 km/h
61 08-10-2011 12:07:02 9.8 C 5.66 g/m*3 9.8 C 0 km/h
62 08-10-2011 12:19:01 9.2 C 6.16 g/m*3 9.2 C 0 km/h
63 08-10-2011 12:31:02 8.8 C 6.44 g/m*3 8.8 C 0 km/h
64 08-10-2011 12:43:02 8.7 C 6.4 g/m*3 8.7 C 0 km/h
65 08-10-2011 12:55:01 9.3 C 7.1 g/m*3 9.3 C 0 km/h
66 08-10-2011 13:07:02 9.9 C 7.47 g/m*3 9.9 C 0 km/h
67 08-10-2011 13:19:01 10.4 C 7.13 g/m*3 10.4 C 0 km/h
68 08-10-2011 13:31:02 10.2 C 7.04 g/m*3 10.2 C 0 km/h
69 08-10-2011 13:43:02 10.5 C 6.3 g/m*3 10.5 C 0 km/h
70 08-10-2011 13:55:01 10.6 C 6.25 g/m*3 10.6 C 0 km/h
71 08-10-2011 14:07:02 11.1 C 6.04 g/m*3 11.1 C 0 km/h
72 08-10-2011 14:19:02 11.5 C 5.89 g/m*3 11.5 C 0 km/h
73 08-10-2011 14:31:01 11.4 C 5.95 g/m*3 11.4 C 0 km/h
74 08-10-2011 14:43:01 11.1 C 5.84 g/m*3 11.1 C 0 km/h
75 08-10-2011 14:55:02 11.1 C 5.74 g/m*3 11.1 C 0 km/h
Sensor: Nr:Datum:Temp:Abs-Feuchte:Windchill:Wind:
Aussen-T/F 76 08-10-2011 15:07:01 11.6 C 6.13 g/m*3 11.6 C 0 km/h
77 08-10-2011 15:19:02 12.2 C 5.83 g/m*3 12.2 C 0 km/h
78 08-10-2011 15:31:02 12.4 C 5.35 g/m*3 12.4 C 0 km/h
79 08-10-2011 15:43:02 12.6 C 4.98 g/m*3 12.6 C 0 km/h
80 08-10-2011 15:55:02 12.8 C 5.26 g/m*3 12.8 C 0 km/h
81 08-10-2011 16:07:03 12.8 C 5.15 g/m*3 12.8 C 0 km/h
82 08-10-2011 16:19:02 13 C 5.1 g/m*3 13 C 0 km/h
83 08-10-2011 16:31:02 13.1 C 5.14 g/m*3 13.1 C 0 km/h
84 08-10-2011 16:43:02 14.5 C 5.1 g/m*3 14.5 C 0 km/h
85 08-10-2011 16:55:01 13 C 4.88 g/m*3 13 C 0 km/h
86 08-10-2011 17:07:02 11.3 C 5.41 g/m*3 11.3 C 0 km/h
87 08-10-2011 17:19:01 9.7 C 6.18 g/m*3 9.7 C 0 km/h
88 08-10-2011 17:31:01 9 C 6.44 g/m*3 9 C 0 km/h
89 08-10-2011 17:43:01 9 C 6.52 g/m*3 9 C 0 km/h
90 08-10-2011 17:55:01 8.7 C 6.66 g/m*3 8.7 C 0 km/h
91 08-10-2011 18:07:01 8.2 C 6.45 g/m*3 8.2 C 0 km/h
92 08-10-2011 18:19:02 8.1 C 6.74 g/m*3 8.1 C 0 km/h
93 08-10-2011 18:31:01 8.4 C 6.87 g/m*3 8.4 C 0 km/h
94 08-10-2011 18:43:01 7.7 C 6.73 g/m*3 7.7 C 0 km/h
95 08-10-2011 18:55:02 7.3 C 6.64 g/m*3 7.3 C 0 km/h
96 08-10-2011 19:07:01 7.2 C 6.75 g/m*3 7.2 C 0 km/h
97 08-10-2011 19:19:02 7.2 C 6.75 g/m*3 7.2 C 0 km/h
98 08-10-2011 19:31:01 7.4 C 6.92 g/m*3 7.4 C 0 km/h
99 08-10-2011 19:43:01 7.5 C 7.04 g/m*3 7.5 C 0 km/h
100 08-10-2011 19:55:02 7.6 C 7.09 g/m*3 7.6 C 0 km/h
Sensor: Nr:Datum:Temp:Abs-Feuchte:Windchill:Wind:
Aussen-T/F 101 08-10-2011 20:07:02 7.8 C 7.18 g/m*3 7.8 C 0 km/h
102 08-10-2011 20:19:02 7.9 C 7.23 g/m*3 7.9 C 0 km/h
103 08-10-2011 20:31:02 7.6 C 7.09 g/m*3 7.6 C 0 km/h
104 08-10-2011 20:43:02 7.7 C 7.14 g/m*3 7.7 C 0 km/h
105 08-10-2011 20:55:01 7.9 C 7.23 g/m*3 7.9 C 0 km/h
106 08-10-2011 21:07:01 7.9 C 7.31 g/m*3 7.9 C 0 km/h
107 08-10-2011 21:19:01 8 C 7.28 g/m*3 8 C 0 km/h
108 08-10-2011 21:31:02 7.9 C 7.31 g/m*3 7.9 C 0 km/h
109 08-10-2011 21:43:02 7.9 C 7.31 g/m*3 7.9 C 0 km/h
110 08-10-2011 21:55:02 7.8 C 7.26 g/m*3 7.8 C 0 km/h
111 08-10-2011 22:07:02 7.6 C 7.09 g/m*3 7.6 C 0 km/h
112 08-10-2011 22:19:02 7.2 C 6.83 g/m*3 7.2 C 0 km/h
113 08-10-2011 22:32:03 7.1 C 6.86 g/m*3 7.1 C 0 km/h
114 08-10-2011 22:44:03 6.6 C 6.64 g/m*3 6.6 C 0 km/h
115 08-10-2011 22:56:03 6.4 C 6.63 g/m*3 6.4 C 0 km/h
116 08-10-2011 23:08:03 6.2 C 6.55 g/m*3 6.2 C 0 km/h
117 08-10-2011 23:20:03 6.4 C 6.63 g/m*3 6.4 C 0 km/h
118 08-10-2011 23:32:03 6.3 C 6.66 g/m*3 6.3 C 0 km/h
119 08-10-2011 23:44:03 6.5 C 6.75 g/m*3 6.5 C 0 km/h
120 08-10-2011 23:56:03 6.7 C 6.91 g/m*3 6.7 C 0 km/h
121 09-10-2011 00:08:03 6.8 C 6.96 g/m*3 6.8 C 0 km/h
122 09-10-2011 00:20:04 7 C 6.97 g/m*3 7 C 0 km/h
123 09-10-2011 00:32:04 7 C 6.97 g/m*3 7 C 0 km/h
124 09-10-2011 00:44:04 7.1 C 7.02 g/m*3 7.1 C 0 km/h
125 09-10-2011 00:56:04 7 C 6.97 g/m*3 7 C 0 km/h
Sensor: Nr:Datum:Temp:Abs-Feuchte:Windchill:Wind:
Aussen-T/F 126 09-10-2011 01:08:04 6.6 C 6.87 g/m*3 6.6 C 0 km/h
127 09-10-2011 01:20:04 6.6 C 6.87 g/m*3 6.6 C 0 km/h
128 09-10-2011 01:32:04 6.7 C 6.91 g/m*3 6.7 C 0 km/h
129 09-10-2011 01:44:04 6.7 C 6.91 g/m*3 6.7 C 0 km/h
130 09-10-2011 01:56:04 6.6 C 6.87 g/m*3 6.6 C 0 km/h
131 09-10-2011 02:08:04 6.8 C 6.96 g/m*3 6.8 C 0 km/h
132 09-10-2011 02:20:04 6.9 C 7.08 g/m*3 6.9 C 0 km/h
133 09-10-2011 02:32:04 6.9 C 7.08 g/m*3 6.9 C 0 km/h
134 09-10-2011 02:44:04 7 C 7.05 g/m*3 7 C 0 km/h
135 09-10-2011 02:56:04 7.1 C 7.1 g/m*3 7.1 C 0 km/h
136 09-10-2011 03:08:05 7.1 C 7.1 g/m*3 7.1 C 0 km/h
137 09-10-2011 03:20:05 7.1 C 7.1 g/m*3 7.1 C 0 km/h
138 09-10-2011 03:32:05 7.1 C 7.1 g/m*3 7.1 C 0 km/h
139 09-10-2011 03:44:05 6.8 C 7.04 g/m*3 6.8 C 0 km/h
140 09-10-2011 03:56:05 6.4 C 6.85 g/m*3 6.4 C 0 km/h
141 09-10-2011 04:08:05 6.2 C 6.69 g/m*3 6.2 C 0 km/h
142 09-10-2011 04:20:05 6.6 C 6.95 g/m*3 6.6 C 0 km/h
143 09-10-2011 04:32:05 6.5 C 6.9 g/m*3 6.5 C 0 km/h
144 09-10-2011 04:44:05 6.5 C 6.9 g/m*3 6.5 C 0 km/h
145 09-10-2011 04:56:05 6.6 C 6.95 g/m*3 6.6 C 0 km/h
146 09-10-2011 05:08:05 6.9 C 7.08 g/m*3 6.9 C 0 km/h
147 09-10-2011 05:20:05 6.9 C 7.08 g/m*3 6.9 C 0 km/h
148 09-10-2011 05:32:06 6.8 C 7.04 g/m*3 6.8 C 0 km/h
149 09-10-2011 05:44:06 6.9 C 7.08 g/m*3 6.9 C 0 km/h
150 09-10-2011 05:56:06 6.9 C 7.16 g/m*3 6.9 C 0 km/h
Sensor: Nr:Datum:Temp:Abs-Feuchte:Windchill:Wind:
Aussen-T/F 151 09-10-2011 06:08:06 6.9 C 7.16 g/m*3 6.9 C 0 km/h
152 09-10-2011 06:20:06 7 C 7.13 g/m*3 7 C 0 km/h
153 09-10-2011 06:32:06 6.9 C 7.16 g/m*3 6.9 C 0 km/h
154 09-10-2011 06:44:06 6.3 C 6.81 g/m*3 6.3 C 0 km/h
155 09-10-2011 06:56:06 6.1 C 6.72 g/m*3 6.1 C 0 km/h
156 09-10-2011 07:08:06 5.9 C 6.71 g/m*3 5.9 C 0 km/h
157 09-10-2011 07:20:06 6.2 C 6.77 g/m*3 6.2 C 0 km/h
158 09-10-2011 07:32:06 5.8 C 6.66 g/m*3 5.8 C 0 km/h
159 09-10-2011 07:44:06 5.7 C 6.62 g/m*3 5.7 C 0 km/h
160 09-10-2011 07:56:06 5.6 C 6.57 g/m*3 5.6 C 0 km/h
161 09-10-2011 08:08:06 5.6 C 6.57 g/m*3 5.6 C 0 km/h
162 09-10-2011 08:20:03 5.4 C 6.49 g/m*3 5.4 C 0 km/h
163 09-10-2011 08:32:03 6.3 C 6.81 g/m*3 6.3 C 0 km/h
164 09-10-2011 08:44:03 6.3 C 6.81 g/m*3 6.3 C 0 km/h
165 09-10-2011 08:56:02 6.1 C 6.72 g/m*3 6.1 C 0 km/h
166 09-10-2011 09:08:02 6.2 C 6.77 g/m*3 6.2 C 0 km/h
167 09-10-2011 09:20:02 6.4 C 6.85 g/m*3 6.4 C 0 km/h
168 09-10-2011 09:32:02 6.5 C 6.9 g/m*3 6.5 C 0 km/h
169 09-10-2011 09:44:02 6.7 C 6.99 g/m*3 6.7 C 0 km/h
170 09-10-2011 09:56:01 7 C 7.05 g/m*3 7 C 0 km/h
171 09-10-2011 10:08:02 6.6 C 6.87 g/m*3 6.6 C 0 km/h
172 09-10-2011 10:20:01 6.8 C 6.96 g/m*3 6.8 C 0 km/h
173 09-10-2011 10:32:02 6.9 C 6.93 g/m*3 6.9 C 0 km/h
174 09-10-2011 10:44:03 7 C 6.9 g/m*3 7 C 0 km/h
175 09-10-2011 10:56:02 7.1 C 6.94 g/m*3 7.1 C 0 km/h
Sensor: Nr:Datum:Temp:Abs-Feuchte:Windchill:Wind:
Aussen-T/F 176 09-10-2011 11:08:02 7.3 C 7.03 g/m*3 7.3 C 0 km/h
177 09-10-2011 11:20:02 7.9 C 7.31 g/m*3 7.9 C 0 km/h
178 09-10-2011 11:32:02 8.7 C 7.52 g/m*3 8.7 C 0 km/h
179 09-10-2011 11:44:02 9.8 C 7.61 g/m*3 9.8 C 0 km/h
180 09-10-2011 11:56:01 10.4 C 6.55 g/m*3 10.4 C 0 km/h
181 09-10-2011 12:08:02 10.4 C 6.17 g/m*3 10.4 C 0 km/h
182 09-10-2011 12:20:01 10.1 C 5.86 g/m*3 10.1 C 0 km/h
183 09-10-2011 12:32:01 10.5 C 6.01 g/m*3 10.5 C 0 km/h
184 09-10-2011 12:44:01 10.9 C 6.07 g/m*3 10.9 C 0 km/h
185 09-10-2011 12:56:01 11 C 5.81 g/m*3 11 C 0 km/h
186 09-10-2011 13:08:02 11.3 C 5.92 g/m*3 11.3 C 0 km/h
187 09-10-2011 13:20:01 11.8 C 5.68 g/m*3 11.8 C 0 km/h
188 09-10-2011 13:32:02 12.4 C 5.57 g/m*3 12.4 C 0 km/h
189 09-10-2011 13:44:02 13.3 C 5.66 g/m*3 13.3 C 0 km/h
190 09-10-2011 13:56:01 12.8 C 5.6 g/m*3 12.8 C 0 km/h
191 09-10-2011 14:08:02 13 C 5.67 g/m*3 13 C 0 km/h
192 09-10-2011 14:20:02 12.9 C 5.86 g/m*3 12.9 C 0 km/h
193 09-10-2011 14:32:01 13.7 C 5.68 g/m*3 13.7 C 0 km/h
194 09-10-2011 14:44:01 13.5 C 5.38 g/m*3 13.5 C 0 km/h
195 09-10-2011 14:56:02 13.2 C 5.4 g/m*3 13.2 C 0 km/h
196 09-10-2011 15:08:01 13.8 C 5.6 g/m*3 13.8 C 0 km/h
197 09-10-2011 15:20:02 14 C 5.67 g/m*3 14 C 0 km/h
198 09-10-2011 15:32:02 14.2 C 5.49 g/m*3 14.2 C 0 km/h
199 09-10-2011 15:44:02 14.2 C 5.37 g/m*3 14.2 C 0 km/h
200 09-10-2011 15:56:02 14.1 C 4.98 g/m*3 14.1 C 0 km/h
Sensor: Nr:Datum:Temp:Abs-Feuchte:Windchill:Wind:
Aussen-T/F 201 09-10-2011 16:08:02 14.3 C 5.16 g/m*3 14.3 C 0 km/h
202 09-10-2011 16:20:02 14.6 C 5.26 g/m*3 14.6 C 0 km/h
203 09-10-2011 16:32:02 14.6 C 5.26 g/m*3 14.6 C 0 km/h
204 09-10-2011 16:44:02 14.9 C 5.74 g/m*3 14.9 C 0 km/h
205 09-10-2011 16:56:01 14 C 5.67 g/m*3 14 C 0 km/h
206 09-10-2011 17:08:02 14.2 C 5.86 g/m*3 14.2 C 0 km/h
207 09-10-2011 17:20:01 13.9 C 5.75 g/m*3 13.9 C 0 km/h
208 09-10-2011 17:32:01 13.1 C 6.05 g/m*3 13.1 C 0 km/h
209 09-10-2011 17:44:01 12.7 C 6.23 g/m*3 12.7 C 0 km/h
210 09-10-2011 17:56:01 12 C 6.5 g/m*3 12 C 0 km/h
211 09-10-2011 18:08:02 11.4 C 6.77 g/m*3 11.4 C 0 km/h
212 09-10-2011 18:20:01 10.6 C 6.73 g/m*3 10.6 C 0 km/h
213 09-10-2011 18:32:01 10 C 6.86 g/m*3 10 C 0 km/h
214 09-10-2011 18:44:01 9.7 C 7.28 g/m*3 9.7 C 0 km/h
215 09-10-2011 18:56:01 9.5 C 7.28 g/m*3 9.5 C 0 km/h
216 09-10-2011 19:08:02 9.5 C 7.46 g/m*3 9.5 C 0 km/h
217 09-10-2011 19:20:02 9.4 C 7.6 g/m*3 9.4 C 0 km/h
218 09-10-2011 19:32:01 9.4 C 7.69 g/m*3 9.4 C 0 km/h
219 09-10-2011 19:44:01 9.3 C 7.64 g/m*3 9.3 C 0 km/h
220 09-10-2011 19:56:02 9.5 C 7.83 g/m*3 9.5 C 0 km/h
221 09-10-2011 20:08:01 9.4 C 7.78 g/m*3 9.4 C 0 km/h
222 09-10-2011 20:20:01 9.4 C 7.78 g/m*3 9.4 C 0 km/h
223 09-10-2011 20:32:02 9.5 C 7.83 g/m*3 9.5 C 0 km/h
224 09-10-2011 20:44:02 9.5 C 7.83 g/m*3 9.5 C 0 km/h
225 09-10-2011 20:56:02 9.5 C 7.83 g/m*3 9.5 C 0 km/h
Sensor: Nr:Datum:Temp:Abs-Feuchte:Windchill:Wind:
Aussen-T/F 226 09-10-2011 21:08:01 9.5 C 7.92 g/m*3 9.5 C 0 km/h
227 09-10-2011 21:20:02 9.5 C 7.92 g/m*3 9.5 C 0 km/h
228 09-10-2011 21:32:02 9.6 C 7.97 g/m*3 9.6 C 0 km/h
229 09-10-2011 21:44:02 9.7 C 8.02 g/m*3 9.7 C 0 km/h
230 09-10-2011 21:56:01 9.8 C 8.07 g/m*3 9.8 C 0 km/h
231 09-10-2011 22:08:02 9.8 C 8.07 g/m*3 9.8 C 0 km/h
232 09-10-2011 22:20:01 9.9 C 8.22 g/m*3 9.9 C 0 km/h
233 09-10-2011 22:33:03 10 C 8.17 g/m*3 10 C 0 km/h
234 09-10-2011 22:45:03 10.1 C 8.23 g/m*3 10.1 C 0 km/h
235 09-10-2011 22:57:03 10.4 C 8.29 g/m*3 10.4 C 0 km/h
236 09-10-2011 23:09:03 10.5 C 8.24 g/m*3 10.5 C 0 km/h
237 09-10-2011 23:21:03 10.6 C 8.3 g/m*3 10.6 C 0 km/h
238 09-10-2011 23:33:03 10.7 C 8.45 g/m*3 10.7 C 0 km/h
239 09-10-2011 23:45:03 10.7 C 8.45 g/m*3 10.7 C 0 km/h
240 09-10-2011 23:57:03 10.7 C 8.45 g/m*3 10.7 C 0 km/h
241 10-10-2011 00:09:03 10.9 C 8.55 g/m*3 10.9 C 0 km/h
242 10-10-2011 00:21:03 10.8 C 8.5 g/m*3 10.8 C 0 km/h
243 10-10-2011 00:33:03 11.1 C 8.66 g/m*3 11.1 C 0 km/h
244 10-10-2011 00:45:04 11.2 C 8.62 g/m*3 11.2 C 0 km/h
245 10-10-2011 00:57:04 11.4 C 8.62 g/m*3 11.4 C 0 km/h
246 10-10-2011 01:09:04 11.7 C 8.79 g/m*3 11.7 C 0 km/h
247 10-10-2011 01:21:04 11.7 C 8.79 g/m*3 11.7 C 0 km/h
248 10-10-2011 01:33:04 11.7 C 8.79 g/m*3 11.7 C 0 km/h
249 10-10-2011 01:45:04 11.7 C 8.79 g/m*3 11.7 C 0 km/h
250 10-10-2011 01:57:04 11.9 C 9 g/m*3 11.9 C 0 km/h
Sensor: Nr:Datum:Temp:Abs-Feuchte:Windchill:Wind:
Aussen-T/F 251 10-10-2011 02:09:04 11.9 C 8.9 g/m*3 11.9 C 0 km/h
252 10-10-2011 02:21:04 12.1 C 9.01 g/m*3 12.1 C 0 km/h
253 10-10-2011 02:33:04 12.2 C 8.96 g/m*3 12.2 C 0 km/h
254 10-10-2011 02:45:04 12.1 C 8.9 g/m*3 12.1 C 0 km/h
255 10-10-2011 02:57:04 12.2 C 9.06 g/m*3 12.2 C 0 km/h
256 10-10-2011 03:09:04 12.3 C 9.12 g/m*3 12.3 C 0 km/h
257 10-10-2011 03:21:04 12.3 C 9.12 g/m*3 12.3 C 0 km/h
258 10-10-2011 03:33:04 12.5 C 9.24 g/m*3 12.5 C 0 km/h
259 10-10-2011 03:45:04 12.7 C 9.46 g/m*3 12.7 C 0 km/h
260 10-10-2011 03:57:04 12.8 C 9.52 g/m*3 12.8 C 0 km/h
261 10-10-2011 04:09:04 12.8 C 9.41 g/m*3 12.8 C 0 km/h
262 10-10-2011 04:21:04 12.8 C 9.41 g/m*3 12.8 C 0 km/h
263 10-10-2011 04:33:04 12.7 C 9.35 g/m*3 12.7 C 0 km/h
264 10-10-2011 04:45:04 12.7 C 9.46 g/m*3 12.7 C 0 km/h
265 10-10-2011 04:57:04 12.9 C 9.58 g/m*3 12.9 C 0 km/h
266 10-10-2011 05:09:05 12.9 C 9.58 g/m*3 12.9 C 0 km/h
267 10-10-2011 05:21:05 13.1 C 9.59 g/m*3 13.1 C 0 km/h
268 10-10-2011 05:33:05 13.1 C 9.59 g/m*3 13.1 C 0 km/h
269 10-10-2011 05:45:05 13.1 C 9.7 g/m*3 13.1 C 0 km/h
270 10-10-2011 05:57:05 13.2 C 9.76 g/m*3 13.2 C 0 km/h
271 10-10-2011 06:09:05 13.2 C 9.87 g/m*3 13.2 C 0 km/h
272 10-10-2011 06:21:02 13.3 C 9.94 g/m*3 13.3 C 0 km/h
273 10-10-2011 06:33:02 13.3 C 9.94 g/m*3 13.3 C 0 km/h
274 10-10-2011 06:45:02 13.5 C 10.06 g/m*3 13.5 C 0 km/h
275 10-10-2011 06:57:02 13.7 C 10.18 g/m*3 13.7 C 0 km/h
Sensor: Nr:Datum:Temp:Abs-Feuchte:Windchill:Wind:
Aussen-T/F 276 10-10-2011 07:09:02 13.9 C 10.31 g/m*3 13.9 C 0 km/h
277 10-10-2011 07:21:02 13.8 C 10.25 g/m*3 13.8 C 0 km/h
278 10-10-2011 07:33:02 14.1 C 10.32 g/m*3 14.1 C 0 km/h
279 10-10-2011 07:45:01 14.1 C 10.32 g/m*3 14.1 C 0 km/h
280 10-10-2011 07:57:01 14.2 C 10.38 g/m*3 14.2 C 0 km/h
281 10-10-2011 08:09:01 14.1 C 10.44 g/m*3 14.1 C 0 km/h
282 10-10-2011 08:21:01 14.3 C 10.57 g/m*3 14.3 C 0 km/h
283 10-10-2011 08:33:02 14.5 C 10.7 g/m*3 14.5 C 0 km/h
284 10-10-2011 08:45:02 14.6 C 10.76 g/m*3 14.6 C 0 km/h
285 10-10-2011 08:57:02 14.8 C 10.89 g/m*3 14.8 C 0 km/h
286 10-10-2011 09:09:02 14.9 C 10.96 g/m*3 14.9 C 0 km/h
287 10-10-2011 09:21:01 15.3 C 11.23 g/m*3 15.3 C 0 km/h
288 10-10-2011 09:33:02 15.8 C 11.44 g/m*3 15.8 C 0 km/h
289 10-10-2011 09:45:02 16.5 C 11.51 g/m*3 16.5 C 0 km/h
290 10-10-2011 09:57:02 16.9 C 11.08 g/m*3 16.9 C 0 km/h
291 10-10-2011 10:09:02 17.4 C 10.97 g/m*3 17.4 C 0 km/h
292 10-10-2011 10:21:02 17.8 C 10.78 g/m*3 17.8 C 0 km/h
293 10-10-2011 10:33:02 18.1 C 10.35 g/m*3 18.1 C 0 km/h
294 10-10-2011 10:45:02 18 C 10.44 g/m*3 18 C 0 km/h
295 10-10-2011 10:57:02 18.2 C 10.57 g/m*3 18.2 C 0 km/h
296 10-10-2011 11:09:02 18.3 C 10.16 g/m*3 18.3 C 0 km/h
297 10-10-2011 11:21:02 18.5 C 10.28 g/m*3 18.5 C 0 km/h
298 10-10-2011 11:33:02 18.9 C 10.21 g/m*3 18.9 C 0 km/h
299 10-10-2011 11:45:02 18.9 C 10.04 g/m*3 18.9 C 0 km/h
300 10-10-2011 11:57:02 19.1 C 9.84 g/m*3 19.1 C 0 km/h
Sensor: Nr:Datum:Temp:Abs-Feuchte:Windchill:Wind:
Aussen-T/F 301 10-10-2011 12:09:02 19.4 C 9.84 g/m*3 19.4 C 0 km/h
302 10-10-2011 12:21:02 19.4 C 9.68 g/m*3 19.4 C 0 km/h
303 10-10-2011 12:33:02 19.6 C 9.62 g/m*3 19.6 C 0 km/h
304 10-10-2011 12:45:02 19.4 C 9.34 g/m*3 19.4 C 0 km/h
305 10-10-2011 12:57:02 19.6 C 9.45 g/m*3 19.6 C 0 km/h
306 10-10-2011 13:09:02 19.5 C 9.4 g/m*3 19.5 C 0 km/h
307 10-10-2011 13:21:02 19.8 C 9.39 g/m*3 19.8 C 0 km/h
308 10-10-2011 13:33:02 20.1 C 9.04 g/m*3 20.1 C 0 km/h
309 10-10-2011 13:45:02 20.6 C 9.31 g/m*3 20.6 C 0 km/h
310 10-10-2011 13:57:02 20.7 C 9 g/m*3 20.7 C 0 km/h
311 10-10-2011 14:09:01 20.6 C 8.77 g/m*3 20.6 C 0 km/h
312 10-10-2011 14:21:01 20.8 C 9.05 g/m*3 20.8 C 0 km/h
313 10-10-2011 14:33:02 20.9 C 8.74 g/m*3 20.9 C 0 km/h
314 10-10-2011 14:45:02 20.8 C 8.69 g/m*3 20.8 C 0 km/h
315 10-10-2011 14:57:02 20.8 C 8.69 g/m*3 20.8 C 0 km/h
316 10-10-2011 15:09:02 20.8 C 8.69 g/m*3 20.8 C 0 km/h
317 10-10-2011 15:21:01 20.7 C 8.82 g/m*3 20.7 C 0 km/h
318 10-10-2011 15:33:02 20.9 C 8.56 g/m*3 20.9 C 0 km/h
319 10-10-2011 15:45:02 21.1 C 8.29 g/m*3 21.1 C 0 km/h
320 10-10-2011 15:57:02 21.2 C 8.34 g/m*3 21.2 C 0 km/h
321 10-10-2011 16:09:02 20.9 C 8.38 g/m*3 20.9 C 0 km/h
322 10-10-2011 16:21:02 20.7 C 8.46 g/m*3 20.7 C 0 km/h
323 10-10-2011 16:33:02 21.6 C 8.53 g/m*3 21.6 C 0 km/h
324 10-10-2011 16:45:02 21.9 C 8.1 g/m*3 21.9 C 0 km/h
325 10-10-2011 16:57:02 22.4 C 7.94 g/m*3 22.4 C 0 km/h
Sensor: Nr:Datum:Temp:Abs-Feuchte:Windchill:Wind:
Aussen-T/F 326 10-10-2011 17:09:02 21.4 C 8.44 g/m*3 21.4 C 0 km/h
327 10-10-2011 17:21:02 20.9 C 8.38 g/m*3 20.9 C 0 km/h
328 10-10-2011 17:33:01 22 C 8.54 g/m*3 22 C 0 km/h
329 10-10-2011 17:45:02 21.3 C 8.76 g/m*3 21.3 C 0 km/h
330 10-10-2011 17:57:02 21 C 8.24 g/m*3 21 C 0 km/h
331 10-10-2011 18:09:01 20 C 8.3 g/m*3 20 C 0 km/h
332 10-10-2011 18:21:02 19.4 C 8.51 g/m*3 19.4 C 0 km/h
333 10-10-2011 18:33:02 18.8 C 8.7 g/m*3 18.8 C 0 km/h
334 10-10-2011 18:45:02 18.1 C 8.65 g/m*3 18.1 C 0 km/h
335 10-10-2011 18:57:02 18 C 8.75 g/m*3 18 C 0 km/h
336 10-10-2011 19:09:02 18 C 8.75 g/m*3 18 C 0 km/h
337 10-10-2011 19:21:02 17.9 C 8.86 g/m*3 17.9 C 0 km/h
338 10-10-2011 19:33:02 17.6 C 8.85 g/m*3 17.6 C 0 km/h
339 10-10-2011 19:45:02 17.7 C 9.05 g/m*3 17.7 C 0 km/h
340 10-10-2011 19:57:02 17.7 C 9.05 g/m*3 17.7 C 0 km/h
341 10-10-2011 20:09:02 17.7 C 9.05 g/m*3 17.7 C 0 km/h
342 10-10-2011 20:21:02 17.6 C 9.15 g/m*3 17.6 C 0 km/h
343 10-10-2011 20:33:02 17.5 C 9.24 g/m*3 17.5 C 0 km/h
344 10-10-2011 20:45:01 17.4 C 9.34 g/m*3 17.4 C 0 km/h
345 10-10-2011 20:57:01 17.3 C 9.43 g/m*3 17.3 C 0 km/h
346 10-10-2011 21:09:01 17.4 C 9.48 g/m*3 17.4 C 0 km/h
347 10-10-2011 21:21:02 17.3 C 9.58 g/m*3 17.3 C 0 km/h
348 10-10-2011 21:33:01 17.2 C 9.37 g/m*3 17.2 C 0 km/h
349 10-10-2011 21:45:02 17.3 C 9.43 g/m*3 17.3 C 0 km/h
350 10-10-2011 21:57:02 17.2 C 9.23 g/m*3 17.2 C 0 km/h
Sensor: Nr:Datum:Temp:Abs-Feuchte:Windchill:Wind:
Aussen-T/F 351 10-10-2011 22:09:02 17.1 C 9.03 g/m*3 17.1 C 0 km/h
352 10-10-2011 22:21:02 17 C 8.97 g/m*3 17 C 0 km/h
353 10-10-2011 22:33:02 17.1 C 8.88 g/m*3 17.1 C 0 km/h
354 10-10-2011 22:45:02 17.1 C 8.88 g/m*3 17.1 C 0 km/h
355 10-10-2011 22:57:02 16.9 C 9.06 g/m*3 16.9 C 0 km/h
356 10-10-2011 23:09:01 17 C 8.83 g/m*3 17 C 0 km/h
357 10-10-2011 23:21:02 16.9 C 8.92 g/m*3 16.9 C 0 km/h
358 10-10-2011 23:33:02 16.9 C 8.92 g/m*3 16.9 C 0 km/h
359 10-10-2011 23:45:01 16.8 C 9.01 g/m*3 16.8 C 0 km/h
360 10-10-2011 23:57:01 16.5 C 9.13 g/m*3 16.5 C 0 km/h
361 11-10-2011 00:09:02 16.5 C 9.13 g/m*3 16.5 C 0 km/h
362 11-10-2011 00:21:01 16.5 C 9.13 g/m*3 16.5 C 0 km/h
363 11-10-2011 00:33:01 16.9 C 8.92 g/m*3 16.9 C 0 km/h
364 11-10-2011 00:45:02 16.9 C 8.77 g/m*3 16.9 C 0 km/h
365 11-10-2011 00:57:03 16.9 C 8.49 g/m*3 16.9 C 0 km/h
366 11-10-2011 01:09:02 16.5 C 8.57 g/m*3 16.5 C 0 km/h
367 11-10-2011 01:21:02 16.5 C 8.71 g/m*3 16.5 C 0 km/h
368 11-10-2011 01:33:02 16.2 C 8.69 g/m*3 16.2 C 0 km/h
369 11-10-2011 01:45:01 16.3 C 8.74 g/m*3 16.3 C 0 km/h
370 11-10-2011 01:57:01 16.4 C 8.79 g/m*3 16.4 C 0 km/h
371 11-10-2011 02:09:02 16.4 C 8.79 g/m*3 16.4 C 0 km/h
372 11-10-2011 02:21:01 16.6 C 8.76 g/m*3 16.6 C 0 km/h
373 11-10-2011 02:33:01 16.8 C 8.86 g/m*3 16.8 C 0 km/h
374 11-10-2011 02:45:01 16.6 C 8.76 g/m*3 16.6 C 0 km/h
375 11-10-2011 02:57:01 16.5 C 8.71 g/m*3 16.5 C 0 km/h
Sensor: Nr:Datum:Temp:Abs-Feuchte:Windchill:Wind:
Aussen-T/F 376 11-10-2011 03:09:01 16.5 C 8.85 g/m*3 16.5 C 0 km/h
377 11-10-2011 03:21:02 16.4 C 8.79 g/m*3 16.4 C 0 km/h
378 11-10-2011 03:33:01 16.3 C 8.88 g/m*3 16.3 C 0 km/h
379 11-10-2011 03:45:01 16.2 C 8.96 g/m*3 16.2 C 0 km/h
380 11-10-2011 03:57:01 16.1 C 9.05 g/m*3 16.1 C 0 km/h
381 11-10-2011 04:09:02 16.1 C 9.18 g/m*3 16.1 C 0 km/h
382 11-10-2011 04:21:01 16 C 9.26 g/m*3 16 C 0 km/h
383 11-10-2011 04:33:01 15.8 C 9.42 g/m*3 15.8 C 0 km/h
384 11-10-2011 04:45:01 16 C 9.26 g/m*3 16 C 0 km/h
385 11-10-2011 04:57:01 16 C 9.26 g/m*3 16 C 0 km/h
386 11-10-2011 05:09:01 15.8 C 9.29 g/m*3 15.8 C 0 km/h
387 11-10-2011 05:21:02 15.8 C 9.42 g/m*3 15.8 C 0 km/h
388 11-10-2011 05:33:01 15.9 C 9.34 g/m*3 15.9 C 0 km/h
389 11-10-2011 05:45:02 16 C 9.26 g/m*3 16 C 0 km/h
390 11-10-2011 05:57:02 16 C 9.13 g/m*3 16 C 0 km/h
391 11-10-2011 06:09:01 15.8 C 9.02 g/m*3 15.8 C 0 km/h
392 11-10-2011 06:21:02 15.7 C 8.96 g/m*3 15.7 C 0 km/h
393 11-10-2011 06:33:01 15.6 C 8.78 g/m*3 15.6 C 0 km/h
394 11-10-2011 06:45:02 15.5 C 8.72 g/m*3 15.5 C 0 km/h
395 11-10-2011 06:57:02 15.5 C 8.59 g/m*3 15.5 C 0 km/h
396 11-10-2011 07:09:01 15.4 C 8.67 g/m*3 15.4 C 0 km/h
397 11-10-2011 07:21:01 15.4 C 8.54 g/m*3 15.4 C 0 km/h
398 11-10-2011 07:33:02 15.6 C 8.51 g/m*3 15.6 C 0 km/h
399 11-10-2011 07:45:01 15.6 C 8.51 g/m*3 15.6 C 0 km/h
400 11-10-2011 07:57:01 15.6 C 8.51 g/m*3 15.6 C 0 km/h
Sensor: Nr:Datum:Temp:Abs-Feuchte:Windchill:Wind:
Aussen-T/F 401 11-10-2011 08:09:02 15.6 C 8.38 g/m*3 15.6 C 0 km/h
402 11-10-2011 08:21:01 15.7 C 8.43 g/m*3 15.7 C 0 km/h
403 11-10-2011 08:33:01 15.8 C 8.48 g/m*3 15.8 C 0 km/h
404 11-10-2011 08:45:01 15.7 C 8.43 g/m*3 15.7 C 0 km/h
405 11-10-2011 08:57:01 15.8 C 8.48 g/m*3 15.8 C 0 km/h
406 11-10-2011 09:09:01 15.8 C 8.48 g/m*3 15.8 C 0 km/h
407 11-10-2011 09:21:02 15.9 C 8.53 g/m*3 15.9 C 0 km/h
408 11-10-2011 09:33:01 15.8 C 8.48 g/m*3 15.8 C 0 km/h
409 11-10-2011 09:45:02 15.8 C 8.48 g/m*3 15.8 C 0 km/h
410 11-10-2011 09:57:02 15.9 C 8.4 g/m*3 15.9 C 0 km/h
411 11-10-2011 10:09:01 16 C 8.31 g/m*3 16 C 0 km/h
412 11-10-2011 10:21:02 16 C 8.31 g/m*3 16 C 0 km/h
413 11-10-2011 10:33:01 16 C 8.31 g/m*3 16 C 0 km/h
414 11-10-2011 10:45:02 16 C 8.31 g/m*3 16 C 0 km/h
415 11-10-2011 10:57:02 15.8 C 8.48 g/m*3 15.8 C 0 km/h
416 11-10-2011 11:09:01 15.9 C 8.4 g/m*3 15.9 C 0 km/h
417 11-10-2011 11:21:01 15.9 C 8.4 g/m*3 15.9 C 0 km/h
418 11-10-2011 11:33:02 16 C 8.45 g/m*3 16 C 0 km/h
419 11-10-2011 11:45:01 16 C 8.45 g/m*3 16 C 0 km/h
420 11-10-2011 11:57:01 15.9 C 8.53 g/m*3 15.9 C 0 km/h
421 11-10-2011 12:09:02 16 C 8.45 g/m*3 16 C 0 km/h
422 11-10-2011 12:21:01 16 C 8.45 g/m*3 16 C 0 km/h
423 11-10-2011 12:33:01 16.1 C 8.5 g/m*3 16.1 C 0 km/h
424 11-10-2011 12:45:01 16.1 C 8.5 g/m*3 16.1 C 0 km/h
425 11-10-2011 12:57:01 16.1 C 8.5 g/m*3 16.1 C 0 km/h
Sensor: Nr:Datum:Temp:Abs-Feuchte:Windchill:Wind:
Aussen-T/F 426 11-10-2011 13:09:02 16.1 C 8.64 g/m*3 16.1 C 0 km/h
427 11-10-2011 13:21:01 16.1 C 8.64 g/m*3 16.1 C 0 km/h
428 11-10-2011 13:33:01 16 C 8.72 g/m*3 16 C 0 km/h
429 11-10-2011 13:45:01 16.1 C 8.77 g/m*3 16.1 C 0 km/h
430 11-10-2011 13:57:01 16 C 8.86 g/m*3 16 C 0 km/h
431 11-10-2011 14:09:01 16 C 8.86 g/m*3 16 C 0 km/h
432 11-10-2011 14:21:02 16.2 C 8.83 g/m*3 16.2 C 0 km/h
433 11-10-2011 14:33:01 16.4 C 8.79 g/m*3 16.4 C 0 km/h
434 11-10-2011 14:45:02 16.7 C 8.95 g/m*3 16.7 C 0 km/h
435 11-10-2011 14:57:02 16.8 C 8.86 g/m*3 16.8 C 0 km/h
436 11-10-2011 15:09:01 17.2 C 8.79 g/m*3 17.2 C 0 km/h
437 11-10-2011 15:21:01 17.2 C 8.79 g/m*3 17.2 C 0 km/h
438 11-10-2011 15:33:01 17.2 C 8.79 g/m*3 17.2 C 0 km/h
439 11-10-2011 15:45:01 17.2 C 8.93 g/m*3 17.2 C 0 km/h
440 11-10-2011 15:57:01 17.4 C 8.89 g/m*3 17.4 C 0 km/h
441 11-10-2011 16:09:01 17.6 C 8.85 g/m*3 17.6 C 0 km/h
442 11-10-2011 16:21:01 17.8 C 8.8 g/m*3 17.8 C 0 km/h
443 11-10-2011 16:33:02 17.8 C 8.95 g/m*3 17.8 C 0 km/h
444 11-10-2011 16:45:01 17.6 C 8.85 g/m*3 17.6 C 0 km/h
445 11-10-2011 16:57:01 17.4 C 8.89 g/m*3 17.4 C 0 km/h
446 11-10-2011 17:09:02 17.5 C 8.95 g/m*3 17.5 C 0 km/h
447 11-10-2011 17:21:01 17.6 C 8.85 g/m*3 17.6 C 0 km/h
448 11-10-2011 17:33:01 17.6 C 8.7 g/m*3 17.6 C 0 km/h
449 11-10-2011 17:45:01 17.5 C 8.8 g/m*3 17.5 C 0 km/h
450 11-10-2011 17:57:01 17.5 C 8.8 g/m*3 17.5 C 0 km/h
Sensor: Nr:Datum:Temp:Abs-Feuchte:Windchill:Wind:
Aussen-T/F 451 11-10-2011 18:09:01 17.5 C 8.65 g/m*3 17.5 C 0 km/h
452 11-10-2011 18:21:02 17.3 C 8.69 g/m*3 17.3 C 0 km/h
453 11-10-2011 18:33:01 17.3 C 8.69 g/m*3 17.3 C 0 km/h
454 11-10-2011 18:45:02 17.1 C 8.59 g/m*3 17.1 C 0 km/h
455 11-10-2011 18:57:02 17 C 8.68 g/m*3 17 C 0 km/h
456 11-10-2011 19:09:01 16.8 C 8.86 g/m*3 16.8 C 0 km/h
457 11-10-2011 19:21:02 16.8 C 8.86 g/m*3 16.8 C 0 km/h
458 11-10-2011 19:33:01 17 C 8.68 g/m*3 17 C 0 km/h
459 11-10-2011 19:45:02 17 C 8.54 g/m*3 17 C 0 km/h
460 11-10-2011 19:57:02 16.9 C 8.63 g/m*3 16.9 C 0 km/h
461 11-10-2011 20:09:01 16.8 C 8.58 g/m*3 16.8 C 0 km/h
462 11-10-2011 20:21:01 16.7 C 8.81 g/m*3 16.7 C 0 km/h
463 11-10-2011 20:33:02 16.8 C 8.86 g/m*3 16.8 C 0 km/h
464 11-10-2011 20:45:01 16.6 C 8.76 g/m*3 16.6 C 0 km/h
465 11-10-2011 20:57:01 16.6 C 8.62 g/m*3 16.6 C 0 km/h
466 11-10-2011 21:09:02 16.6 C 8.62 g/m*3 16.6 C 0 km/h
467 11-10-2011 21:21:01 16.6 C 8.48 g/m*3 16.6 C 0 km/h
468 11-10-2011 21:33:01 16.5 C 8.43 g/m*3 16.5 C 0 km/h
469 11-10-2011 21:45:01 16.3 C 8.46 g/m*3 16.3 C 0 km/h
470 11-10-2011 21:57:01 16.5 C 8.57 g/m*3 16.5 C 0 km/h
471 11-10-2011 22:09:02 16.5 C 8.43 g/m*3 16.5 C 0 km/h
472 11-10-2011 22:21:01 16.4 C 8.37 g/m*3 16.4 C 0 km/h
473 11-10-2011 22:33:01 16.3 C 8.46 g/m*3 16.3 C 0 km/h
474 11-10-2011 22:45:01 16.2 C 8.55 g/m*3 16.2 C 0 km/h
475 11-10-2011 22:57:01 16.1 C 8.5 g/m*3 16.1 C 0 km/h
Sensor: Nr:Datum:Temp:Abs-Feuchte:Windchill:Wind:
Aussen-T/F 476 11-10-2011 23:09:01 16.1 C 8.5 g/m*3 16.1 C 0 km/h
477 11-10-2011 23:21:02 16 C 8.58 g/m*3 16 C 0 km/h
478 11-10-2011 23:33:01 16 C 8.58 g/m*3 16 C 0 km/h
479 11-10-2011 23:45:02 16 C 8.58 g/m*3 16 C 0 km/h
480 11-10-2011 23:57:02 16 C 8.58 g/m*3 16 C 0 km/h
481 12-10-2011 00:09:01 15.9 C 8.67 g/m*3 15.9 C 0 km/h
482 12-10-2011 00:21:01 15.9 C 8.67 g/m*3 15.9 C 0 km/h
483 12-10-2011 00:33:02 15.8 C 8.75 g/m*3 15.8 C 0 km/h
484 12-10-2011 00:45:01 15.8 C 8.75 g/m*3 15.8 C 0 km/h
485 12-10-2011 00:57:01 15.8 C 8.75 g/m*3 15.8 C 0 km/h
486 12-10-2011 01:09:02 15.8 C 8.75 g/m*3 15.8 C 0 km/h
487 12-10-2011 01:21:01 15.8 C 8.75 g/m*3 15.8 C 0 km/h
488 12-10-2011 01:33:01 15.8 C 8.75 g/m*3 15.8 C 0 km/h
489 12-10-2011 01:45:01 15.8 C 8.75 g/m*3 15.8 C 0 km/h
490 12-10-2011 01:57:01 15.7 C 8.7 g/m*3 15.7 C 0 km/h
491 12-10-2011 02:09:01 15.7 C 8.83 g/m*3 15.7 C 0 km/h
492 12-10-2011 02:21:01 15.7 C 8.83 g/m*3 15.7 C 0 km/h
493 12-10-2011 02:33:01 15.6 C 8.78 g/m*3 15.6 C 0 km/h
494 12-10-2011 02:46:03 15.7 C 8.83 g/m*3 15.7 C 0 km/h
495 12-10-2011 02:58:03 15.6 C 8.91 g/m*3 15.6 C 0 km/h
496 12-10-2011 03:10:03 15.5 C 8.86 g/m*3 15.5 C 0 km/h
497 12-10-2011 03:22:03 15.4 C 8.8 g/m*3 15.4 C 0 km/h
498 12-10-2011 03:34:01 15.4 C 8.8 g/m*3 15.4 C 0 km/h
499 12-10-2011 03:46:01 15.4 C 8.8 g/m*3 15.4 C 0 km/h
500 12-10-2011 03:58:01 15.3 C 8.88 g/m*3 15.3 C 0 km/h
Sensor: Nr:Datum:Temp:Abs-Feuchte:Windchill:Wind:
Aussen-T/F 501 12-10-2011 04:10:02 15.5 C 8.86 g/m*3 15.5 C 0 km/h
502 12-10-2011 04:22:01 15.3 C 8.75 g/m*3 15.3 C 0 km/h
503 12-10-2011 04:34:01 15.2 C 8.83 g/m*3 15.2 C 0 km/h
504 12-10-2011 04:46:01 15.2 C 8.83 g/m*3 15.2 C 0 km/h
505 12-10-2011 04:58:01 15.3 C 8.88 g/m*3 15.3 C 0 km/h
506 12-10-2011 05:10:01 15.2 C 8.83 g/m*3 15.2 C 0 km/h
507 12-10-2011 05:22:02 15.3 C 8.88 g/m*3 15.3 C 0 km/h
508 12-10-2011 05:34:01 15.4 C 8.8 g/m*3 15.4 C 0 km/h
509 12-10-2011 05:46:02 15.3 C 8.88 g/m*3 15.3 C 0 km/h
510 12-10-2011 05:58:02 15.2 C 8.83 g/m*3 15.2 C 0 km/h
511 12-10-2011 06:10:02 15.4 C 8.93 g/m*3 15.4 C 0 km/h
512 12-10-2011 06:22:02 15.2 C 8.96 g/m*3 15.2 C 0 km/h
513 12-10-2011 06:34:03 15.2 C 8.96 g/m*3 15.2 C 0 km/h
514 12-10-2011 06:46:02 15.1 C 8.9 g/m*3 15.1 C 0 km/h
515 12-10-2011 06:58:02 15.1 C 8.9 g/m*3 15.1 C 0 km/h
516 12-10-2011 07:10:01 15 C 8.98 g/m*3 15 C 0 km/h
517 12-10-2011 07:22:01 15.1 C 9.03 g/m*3 15.1 C 0 km/h
518 12-10-2011 07:34:02 15 C 8.98 g/m*3 15 C 0 km/h
519 12-10-2011 07:46:02 14.9 C 9.18 g/m*3 14.9 C 0 km/h
520 12-10-2011 07:58:02 14.8 C 9.25 g/m*3 14.8 C 0 km/h
521 12-10-2011 08:10:02 15 C 9.1 g/m*3 15 C 0 km/h
522 12-10-2011 08:22:02 15 C 9.1 g/m*3 15 C 0 km/h
523 12-10-2011 08:34:02 15.1 C 9.16 g/m*3 15.1 C 0 km/h
524 12-10-2011 08:46:02 15.1 C 9.16 g/m*3 15.1 C 0 km/h
525 12-10-2011 08:58:02 15.1 C 9.16 g/m*3 15.1 C 0 km/h
Sensor: Nr:Datum:Temp:Abs-Feuchte:Windchill:Wind:
Aussen-T/F 526 12-10-2011 09:10:02 15.2 C 9.22 g/m*3 15.2 C 0 km/h
527 12-10-2011 09:22:02 15.5 C 9.25 g/m*3 15.5 C 0 km/h
528 12-10-2011 09:34:02 15.5 C 9.12 g/m*3 15.5 C 0 km/h
529 12-10-2011 09:46:02 15.6 C 9.18 g/m*3 15.6 C 0 km/h
530 12-10-2011 09:58:02 15.8 C 9.15 g/m*3 15.8 C 0 km/h
531 12-10-2011 10:10:02 15.9 C 9.21 g/m*3 15.9 C 0 km/h
532 12-10-2011 10:22:02 16.4 C 9.07 g/m*3 16.4 C 0 km/h
533 12-10-2011 10:34:01 16.6 C 9.04 g/m*3 16.6 C 0 km/h
534 12-10-2011 10:46:02 16.8 C 9.15 g/m*3 16.8 C 0 km/h
535 12-10-2011 10:58:02 16.9 C 9.06 g/m*3 16.9 C 0 km/h
536 12-10-2011 11:10:01 16.7 C 9.1 g/m*3 16.7 C 0 km/h
537 12-10-2011 11:22:02 17 C 8.97 g/m*3 17 C 0 km/h
538 12-10-2011 11:34:02 17.6 C 9 g/m*3 17.6 C 0 km/h
539 12-10-2011 11:46:02 17.8 C 9.11 g/m*3 17.8 C 0 km/h
540 12-10-2011 11:58:02 17.8 C 8.95 g/m*3 17.8 C 0 km/h
541 12-10-2011 12:10:02 17.2 C 8.93 g/m*3 17.2 C 0 km/h
542 12-10-2011 12:22:02 17.1 C 8.88 g/m*3 17.1 C 0 km/h
543 12-10-2011 12:34:02 17.2 C 8.93 g/m*3 17.2 C 0 km/h
544 12-10-2011 12:46:02 17.2 C 8.79 g/m*3 17.2 C 0 km/h
545 12-10-2011 12:58:02 17 C 8.97 g/m*3 17 C 0 km/h
546 12-10-2011 13:10:02 17.2 C 8.93 g/m*3 17.2 C 0 km/h
547 12-10-2011 13:22:02 17.1 C 8.88 g/m*3 17.1 C 0 km/h
548 12-10-2011 13:34:02 17.3 C 8.99 g/m*3 17.3 C 0 km/h
549 12-10-2011 13:46:02 16.9 C 9.06 g/m*3 16.9 C 0 km/h
550 12-10-2011 13:58:02 17 C 8.97 g/m*3 17 C 0 km/h
Sensor: Nr:Datum:Temp:Abs-Feuchte:Windchill:Wind:
Aussen-T/F 551 12-10-2011 14:10:02 17.1 C 9.03 g/m*3 17.1 C 0 km/h
552 12-10-2011 14:22:03 17 C 8.83 g/m*3 17 C 0 km/h
553 12-10-2011 14:34:02 17.1 C 8.88 g/m*3 17.1 C 0 km/h
554 12-10-2011 14:46:02 17.1 C 8.88 g/m*3 17.1 C 0 km/h
555 12-10-2011 14:58:02 17.1 C 8.73 g/m*3 17.1 C 0 km/h
556 12-10-2011 15:10:02 17.2 C 8.79 g/m*3 17.2 C 0 km/h
557 12-10-2011 15:22:02 17 C 8.68 g/m*3 17 C 0 km/h
558 12-10-2011 15:34:01 16.9 C 8.92 g/m*3 16.9 C 0 km/h
559 12-10-2011 15:46:02 16.9 C 8.92 g/m*3 16.9 C 0 km/h
560 12-10-2011 15:58:03 17 C 8.83 g/m*3 17 C 0 km/h
561 12-10-2011 16:10:01 16.9 C 8.77 g/m*3 16.9 C 0 km/h
562 12-10-2011 16:22:01 17 C 8.83 g/m*3 17 C 0 km/h
563 12-10-2011 16:34:02 16.9 C 8.77 g/m*3 16.9 C 0 km/h
564 12-10-2011 16:46:02 16.8 C 8.72 g/m*3 16.8 C 0 km/h
565 12-10-2011 16:58:02 16.8 C 8.86 g/m*3 16.8 C 0 km/h
566 12-10-2011 17:10:02 16.8 C 8.72 g/m*3 16.8 C 0 km/h
567 12-10-2011 17:22:02 16.7 C 8.67 g/m*3 16.7 C 0 km/h
568 12-10-2011 17:34:02 16.8 C 8.72 g/m*3 16.8 C 0 km/h
569 12-10-2011 17:46:02 16.5 C 8.57 g/m*3 16.5 C 0 km/h
570 12-10-2011 17:58:02 16.5 C 8.57 g/m*3 16.5 C 0 km/h
571 12-10-2011 18:10:02 16.5 C 8.57 g/m*3 16.5 C 0 km/h
572 12-10-2011 18:22:02 16.5 C 8.43 g/m*3 16.5 C 0 km/h
573 12-10-2011 18:34:02 16.5 C 8.43 g/m*3 16.5 C 0 km/h
574 12-10-2011 18:46:02 16.3 C 8.32 g/m*3 16.3 C 0 km/h
575 12-10-2011 18:58:02 16.2 C 8.27 g/m*3 16.2 C 0 km/h
Sensor: Nr:Datum:Temp:Abs-Feuchte:Windchill:Wind:
Aussen-T/F 576 12-10-2011 19:10:02 16.2 C 8.14 g/m*3 16.2 C 0 km/h
577 12-10-2011 19:22:02 16.1 C 8.09 g/m*3 16.1 C 0 km/h
578 12-10-2011 19:34:02 16 C 8.17 g/m*3 16 C 0 km/h
579 12-10-2011 19:46:02 15.9 C 8.26 g/m*3 15.9 C 0 km/h
580 12-10-2011 19:58:02 15.7 C 8.3 g/m*3 15.7 C 0 km/h
581 12-10-2011 20:10:02 15.7 C 8.43 g/m*3 15.7 C 0 km/h
582 12-10-2011 20:22:02 15.8 C 8.21 g/m*3 15.8 C 0 km/h
583 12-10-2011 20:34:02 15.8 C 8.35 g/m*3 15.8 C 0 km/h
584 12-10-2011 20:46:01 15.7 C 8.3 g/m*3 15.7 C 0 km/h
585 12-10-2011 20:58:01 15.2 C 8.18 g/m*3 15.2 C 0 km/h
586 12-10-2011 21:10:02 14.1 C 8.86 g/m*3 14.1 C 0 km/h
587 12-10-2011 21:22:01 13.6 C 9.18 g/m*3 13.6 C 0 km/h
588 12-10-2011 21:34:02 13.3 C 9.24 g/m*3 13.3 C 0 km/h
589 12-10-2011 21:46:02 13.4 C 9.53 g/m*3 13.4 C 0 km/h
590 12-10-2011 21:58:02 13.1 C 9.47 g/m*3 13.1 C 0 km/h
591 12-10-2011 22:11:02 13.3 C 9.59 g/m*3 13.3 C 0 km/h
592 12-10-2011 22:23:02 13.3 C 9.59 g/m*3 13.3 C 0 km/h
593 12-10-2011 22:35:02 13.2 C 9.64 g/m*3 13.2 C 0 km/h
594 12-10-2011 22:47:02 13.4 C 9.76 g/m*3 13.4 C 0 km/h
595 12-10-2011 22:59:02 13.3 C 9.82 g/m*3 13.3 C 0 km/h
596 12-10-2011 23:11:03 13.3 C 9.94 g/m*3 13.3 C 0 km/h
597 12-10-2011 23:23:03 13.3 C 9.94 g/m*3 13.3 C 0 km/h
598 12-10-2011 23:35:03 13.3 C 9.94 g/m*3 13.3 C 0 km/h
599 12-10-2011 23:47:03 13.2 C 9.99 g/m*3 13.2 C 0 km/h
600 12-10-2011 23:59:03 13.2 C 9.99 g/m*3 13.2 C 0 km/h
Sensor: Nr:Datum:Temp:Abs-Feuchte:Windchill:Wind:
Aussen-T/F 601 13-10-2011 00:11:03 12.9 C 9.81 g/m*3 12.9 C 0 km/h
602 13-10-2011 00:23:03 12.5 C 9.57 g/m*3 12.5 C 0 km/h
603 13-10-2011 00:35:03 11.8 C 9.16 g/m*3 11.8 C 0 km/h
604 13-10-2011 00:47:03 11.1 C 8.66 g/m*3 11.1 C 0 km/h
605 13-10-2011 00:59:03 10.7 C 8.45 g/m*3 10.7 C 0 km/h
606 13-10-2011 01:11:03 10.8 C 8.5 g/m*3 10.8 C 0 km/h
607 13-10-2011 01:23:03 10.7 C 8.55 g/m*3 10.7 C 0 km/h
608 13-10-2011 01:35:03 10.5 C 8.34 g/m*3 10.5 C 0 km/h
609 13-10-2011 01:47:03 10.2 C 8.18 g/m*3 10.2 C 0 km/h
610 13-10-2011 01:59:03 10 C 8.08 g/m*3 10 C 0 km/h
611 13-10-2011 02:11:03 9.9 C 8.12 g/m*3 9.9 C 0 km/h
612 13-10-2011 02:23:03 9.6 C 7.97 g/m*3 9.6 C 0 km/h
613 13-10-2011 02:35:03 9.5 C 7.92 g/m*3 9.5 C 0 km/h
614 13-10-2011 02:47:03 9.4 C 7.87 g/m*3 9.4 C 0 km/h
615 13-10-2011 02:59:03 9.5 C 7.92 g/m*3 9.5 C 0 km/h
616 13-10-2011 03:11:03 9.5 C 7.92 g/m*3 9.5 C 0 km/h
617 13-10-2011 03:23:04 9.5 C 7.92 g/m*3 9.5 C 0 km/h
618 13-10-2011 03:35:04 9.4 C 7.96 g/m*3 9.4 C 0 km/h
619 13-10-2011 03:47:04 9.2 C 7.77 g/m*3 9.2 C 0 km/h
620 13-10-2011 03:59:04 8.9 C 7.71 g/m*3 8.9 C 0 km/h
621 13-10-2011 04:11:04 8.6 C 7.56 g/m*3 8.6 C 0 km/h
622 13-10-2011 04:23:04 8.5 C 7.51 g/m*3 8.5 C 0 km/h
623 13-10-2011 04:35:04 8.4 C 7.47 g/m*3 8.4 C 0 km/h
624 13-10-2011 04:47:04 8.5 C 7.6 g/m*3 8.5 C 0 km/h
625 13-10-2011 04:59:04 8.5 C 7.6 g/m*3 8.5 C 0 km/h
Sensor: Nr:Datum:Temp:Abs-Feuchte:Windchill:Wind:
Aussen-T/F 626 13-10-2011 05:11:04 8.5 C 7.6 g/m*3 8.5 C 0 km/h
627 13-10-2011 05:23:04 8.4 C 7.55 g/m*3 8.4 C 0 km/h
628 13-10-2011 05:35:04 8.1 C 7.41 g/m*3 8.1 C 0 km/h
629 13-10-2011 05:47:04 8 C 7.36 g/m*3 8 C 0 km/h
630 13-10-2011 05:59:04 8.1 C 7.41 g/m*3 8.1 C 0 km/h
631 13-10-2011 06:11:04 8.2 C 7.45 g/m*3 8.2 C 0 km/h
632 13-10-2011 06:23:04 8.2 C 7.54 g/m*3 8.2 C 0 km/h
633 13-10-2011 06:35:04 8.2 C 7.54 g/m*3 8.2 C 0 km/h
634 13-10-2011 06:47:04 8.3 C 7.59 g/m*3 8.3 C 0 km/h
635 13-10-2011 06:59:04 8.4 C 7.63 g/m*3 8.4 C 0 km/h
636 13-10-2011 07:11:02 8.4 C 7.63 g/m*3 8.4 C 0 km/h
637 13-10-2011 07:23:02 8.4 C 7.63 g/m*3 8.4 C 0 km/h
638 13-10-2011 07:35:03 8.4 C 7.63 g/m*3 8.4 C 0 km/h
639 13-10-2011 07:47:02 8.3 C 7.59 g/m*3 8.3 C 0 km/h
640 13-10-2011 07:59:02 8.2 C 7.54 g/m*3 8.2 C 0 km/h
641 13-10-2011 08:11:02 8.2 C 7.54 g/m*3 8.2 C 0 km/h
642 13-10-2011 08:23:02 8.4 C 7.63 g/m*3 8.4 C 0 km/h
643 13-10-2011 08:35:02 8.6 C 7.73 g/m*3 8.6 C 0 km/h
644 13-10-2011 08:47:02 8.7 C 7.78 g/m*3 8.7 C 0 km/h
645 13-10-2011 08:59:02 9 C 7.85 g/m*3 9 C 0 km/h
646 13-10-2011 09:11:02 9.3 C 8.09 g/m*3 9.3 C 0 km/h
647 13-10-2011 09:23:02 9 C 7.85 g/m*3 9 C 0 km/h
648 13-10-2011 09:35:03 9.2 C 7.86 g/m*3 9.2 C 0 km/h
649 13-10-2011 09:47:02 9.3 C 7.82 g/m*3 9.3 C 0 km/h
650 13-10-2011 09:59:02 9.5 C 7.74 g/m*3 9.5 C 0 km/h
Sensor: Nr:Datum:Temp:Abs-Feuchte:Windchill:Wind:
Aussen-T/F 651 13-10-2011 10:11:01 9.7 C 7.65 g/m*3 9.7 C 0 km/h
652 13-10-2011 10:23:02 9.9 C 7.56 g/m*3 9.9 C 0 km/h
653 13-10-2011 10:35:02 10.4 C 7.42 g/m*3 10.4 C 0 km/h
654 13-10-2011 10:47:01 10.6 C 7.22 g/m*3 10.6 C 0 km/h
655 13-10-2011 10:59:01 10.3 C 6.99 g/m*3 10.3 C 0 km/h
656 13-10-2011 11:11:01 10.3 C 6.99 g/m*3 10.3 C 0 km/h
657 13-10-2011 11:23:01 10 C 7.05 g/m*3 10 C 0 km/h
658 13-10-2011 11:35:02 10.5 C 7.08 g/m*3 10.5 C 0 km/h
659 13-10-2011 11:47:01 11 C 7.01 g/m*3 11 C 0 km/h
660 13-10-2011 11:59:01 11.1 C 6.95 g/m*3 11.1 C 0 km/h
661 13-10-2011 12:11:02 11.1 C 6.85 g/m*3 11.1 C 0 km/h
662 13-10-2011 12:23:01 11.2 C 6.79 g/m*3 11.2 C 0 km/h
663 13-10-2011 12:35:02 12 C 6.61 g/m*3 12 C 0 km/h
664 13-10-2011 12:47:01 13.1 C 6.39 g/m*3 13.1 C 0 km/h
665 13-10-2011 12:59:01 13.8 C 6.31 g/m*3 13.8 C 0 km/h
666 13-10-2011 13:11:02 14.2 C 6.23 g/m*3 14.2 C 0 km/h
667 13-10-2011 13:23:02 13.5 C 6.32 g/m*3 13.5 C 0 km/h
668 13-10-2011 13:35:01 14.4 C 6.3 g/m*3 14.4 C 0 km/h
669 13-10-2011 13:47:02 13.4 C 6.28 g/m*3 13.4 C 0 km/h
670 13-10-2011 13:59:02 13.1 C 5.93 g/m*3 13.1 C 0 km/h
671 13-10-2011 14:11:01 13.1 C 6.16 g/m*3 13.1 C 0 km/h
672 13-10-2011 14:23:02 13.5 C 5.85 g/m*3 13.5 C 0 km/h
673 13-10-2011 14:35:01 13.4 C 5.23 g/m*3 13.4 C 0 km/h
674 13-10-2011 14:47:02 14 C 4.95 g/m*3 14 C 0 km/h
675 13-10-2011 14:59:02 14.2 C 5.13 g/m*3 14.2 C 0 km/h
Sensor: Nr:Datum:Temp:Abs-Feuchte:Windchill:Wind:
Aussen-T/F 676 13-10-2011 15:11:02 14.3 C 5.28 g/m*3 14.3 C 0 km/h
677 13-10-2011 15:23:02 14.4 C 5.56 g/m*3 14.4 C 0 km/h
678 13-10-2011 15:35:03 13.9 C 5.04 g/m*3 13.9 C 0 km/h
679 13-10-2011 15:47:02 14.5 C 4.97 g/m*3 14.5 C 0 km/h
680 13-10-2011 15:59:02 14.8 C 4.81 g/m*3 14.8 C 0 km/h
681 13-10-2011 16:11:02 14.1 C 4.98 g/m*3 14.1 C 0 km/h
682 13-10-2011 16:23:01 13.2 C 5.4 g/m*3 13.2 C 0 km/h
683 13-10-2011 16:35:02 12.8 C 6.16 g/m*3 12.8 C 0 km/h
684 13-10-2011 16:47:02 16.5 C 5.76 g/m*3 16.5 C 0 km/h
685 13-10-2011 16:59:02 18.6 C 6.05 g/m*3 18.6 C 0 km/h
686 13-10-2011 17:11:02 20.1 C 5.56 g/m*3 20.1 C 0 km/h
687 13-10-2011 17:23:01 18.7 C 4.8 g/m*3 18.7 C 0 km/h
688 13-10-2011 17:35:02 20.3 C 4.92 g/m*3 20.3 C 0 km/h
689 13-10-2011 17:47:02 18 C 5.53 g/m*3 18 C 0 km/h
690 13-10-2011 17:59:02 13.8 C 5.48 g/m*3 13.8 C 0 km/h
691 13-10-2011 18:11:02 11.7 C 5.65 g/m*3 11.7 C 0 km/h
692 13-10-2011 18:23:02 10.5 C 5.82 g/m*3 10.5 C 0 km/h
693 13-10-2011 18:35:02 9.5 C 5.83 g/m*3 9.5 C 0 km/h
694 13-10-2011 18:47:02 8.9 C 5.78 g/m*3 8.9 C 0 km/h
695 13-10-2011 18:59:02 8.6 C 5.76 g/m*3 8.6 C 0 km/h
696 13-10-2011 19:11:02 7.7 C 5.59 g/m*3 7.7 C 0 km/h
697 13-10-2011 19:23:02 7.8 C 5.88 g/m*3 7.8 C 0 km/h
698 13-10-2011 19:35:01 8.2 C 5.69 g/m*3 8.2 C 0 km/h
699 13-10-2011 19:47:01 7.6 C 5.8 g/m*3 7.6 C 0 km/h
700 13-10-2011 19:59:01 7.5 C 5.84 g/m*3 7.5 C 0 km/h
Sensor: Nr:Datum:Temp:Abs-Feuchte:Windchill:Wind:
Aussen-T/F 701 13-10-2011 20:11:01 7.9 C 6.08 g/m*3 7.9 C 0 km/h
702 13-10-2011 20:23:01 8.2 C 6.11 g/m*3 8.2 C 0 km/h
703 13-10-2011 20:35:02 8.4 C 6.28 g/m*3 8.4 C 0 km/h
704 13-10-2011 20:47:02 8.2 C 6.11 g/m*3 8.2 C 0 km/h
705 13-10-2011 20:59:02 8.3 C 6.24 g/m*3 8.3 C 0 km/h
706 13-10-2011 21:11:02 7.8 C 6.12 g/m*3 7.8 C 0 km/h
707 13-10-2011 21:23:01 8.1 C 6.07 g/m*3 8.1 C 0 km/h
708 13-10-2011 21:35:02 6.7 C 5.55 g/m*3 6.7 C 0 km/h
709 13-10-2011 21:47:02 6.5 C 5.7 g/m*3 6.5 C 0 km/h
710 13-10-2011 21:59:02 6.3 C 5.77 g/m*3 6.3 C 0 km/h
711 13-10-2011 22:11:02 6.5 C 5.92 g/m*3 6.5 C 0 km/h
712 13-10-2011 22:23:02 6.1 C 5.84 g/m*3 6.1 C 0 km/h
713 13-10-2011 22:35:02 5.7 C 5.76 g/m*3 5.7 C 0 km/h
714 13-10-2011 22:47:02 5.3 C 5.68 g/m*3 5.3 C 0 km/h
715 13-10-2011 22:59:02 4.8 C 5.57 g/m*3 4.8 C 0 km/h
716 13-10-2011 23:11:02 5.2 C 5.78 g/m*3 5.2 C 0 km/h
717 13-10-2011 23:23:02 4.8 C 5.77 g/m*3 4.8 C 0 km/h
718 13-10-2011 23:35:02 4.6 C 5.76 g/m*3 4.6 C 0 km/h
719 13-10-2011 23:47:02 4.6 C 5.76 g/m*3 4.6 C 0 km/h
720 13-10-2011 23:59:02 4.2 C 5.61 g/m*3 4.2 C 0 km/h
721 14-10-2011 00:11:02 3.8 C 5.52 g/m*3 3.8 C 0 km/h
722 14-10-2011 00:23:02 3.7 C 5.48 g/m*3 3.7 C 0 km/h
723 14-10-2011 00:35:02 4.1 C 5.63 g/m*3 4.1 C 0 km/h
724 14-10-2011 00:47:02 3.6 C 5.51 g/m*3 3.6 C 0 km/h
725 14-10-2011 00:59:02 3.8 C 5.58 g/m*3 3.8 C 0 km/h
Sensor: Nr:Datum:Temp:Abs-Feuchte:Windchill:Wind:
Aussen-T/F 726 14-10-2011 01:11:02 3.4 C 5.44 g/m*3 3.4 C 0 km/h
727 14-10-2011 01:23:02 3.3 C 5.4 g/m*3 3.3 C 0 km/h
728 14-10-2011 01:35:01 3.4 C 5.44 g/m*3 3.4 C 0 km/h
729 14-10-2011 01:47:02 3.3 C 5.4 g/m*3 3.3 C 0 km/h
730 14-10-2011 01:59:03 3.4 C 5.5 g/m*3 3.4 C 0 km/h
731 14-10-2011 02:11:01 3.9 C 5.68 g/m*3 3.9 C 0 km/h
732 14-10-2011 02:23:02 3.4 C 5.5 g/m*3 3.4 C 0 km/h
733 14-10-2011 02:35:02 3.3 C 5.46 g/m*3 3.3 C 0 km/h
734 14-10-2011 02:48:04 3 C 5.35 g/m*3 3 C 0 km/h
735 14-10-2011 03:00:04 2.9 C 5.37 g/m*3 2.9 C 0 km/h
736 14-10-2011 03:12:04 2.6 C 5.27 g/m*3 2.6 C 0 km/h
737 14-10-2011 03:24:04 2.6 C 5.32 g/m*3 2.6 C 0 km/h
738 14-10-2011 03:36:02 2.5 C 5.23 g/m*3 2.5 C 0 km/h
739 14-10-2011 03:48:02 2.5 C 5.23 g/m*3 2.5 C 0 km/h
740 14-10-2011 04:00:02 2.2 C 5.13 g/m*3 2.2 C 0 km/h
741 14-10-2011 04:12:02 2.3 C 5.16 g/m*3 2.3 C 0 km/h
742 14-10-2011 04:24:02 2.2 C 5.13 g/m*3 2.2 C 0 km/h
743 14-10-2011 04:36:02 2.3 C 5.16 g/m*3 2.3 C 0 km/h
744 14-10-2011 04:48:01 2.3 C 5.16 g/m*3 2.3 C 0 km/h
745 14-10-2011 05:00:01 2 C 5.06 g/m*3 2 C 0 km/h
746 14-10-2011 05:12:02 2.2 C 5.13 g/m*3 2.2 C 0 km/h
747 14-10-2011 05:24:01 1.9 C 5.08 g/m*3 1.9 C 0 km/h
748 14-10-2011 05:36:02 1.9 C 5.08 g/m*3 1.9 C 0 km/h
749 14-10-2011 05:48:01 1.9 C 5.08 g/m*3 1.9 C 0 km/h
750 14-10-2011 06:00:01 1.5 C 4.94 g/m*3 1.5 C 0 km/h
Sensor: Nr:Datum:Temp:Abs-Feuchte:Windchill:Wind:
Aussen-T/F 751 14-10-2011 06:12:02 1.2 C 4.79 g/m*3 1.2 C 0 km/h
752 14-10-2011 06:24:02 1.7 C 5.01 g/m*3 1.7 C 0 km/h
753 14-10-2011 06:36:01 2.4 C 5.25 g/m*3 2.4 C 0 km/h
754 14-10-2011 06:48:02 2.5 C 5.29 g/m*3 2.5 C 0 km/h
755 14-10-2011 07:00:02 2.6 C 5.32 g/m*3 2.6 C 0 km/h
756 14-10-2011 07:12:01 2.5 C 5.29 g/m*3 2.5 C 0 km/h
757 14-10-2011 07:24:02 2.3 C 5.22 g/m*3 2.3 C 0 km/h
758 14-10-2011 07:36:01 3 C 5.47 g/m*3 3 C 0 km/h
759 14-10-2011 07:48:02 3.3 C 5.58 g/m*3 3.3 C 0 km/h
760 14-10-2011 08:00:02 3.6 C 5.76 g/m*3 3.6 C 0 km/h
761 14-10-2011 08:12:02 3.8 C 5.83 g/m*3 3.8 C 0 km/h
762 14-10-2011 08:24:02 3.7 C 5.8 g/m*3 3.7 C 0 km/h
763 14-10-2011 08:36:02 4 C 5.85 g/m*3 4 C 0 km/h
764 14-10-2011 08:48:02 4.2 C 5.99 g/m*3 4.2 C 0 km/h
765 14-10-2011 09:00:02 4.4 C 6.07 g/m*3 4.4 C 0 km/h
766 14-10-2011 09:12:03 4.2 C 5.99 g/m*3 4.2 C 0 km/h
767 14-10-2011 09:24:02 4.3 C 6.03 g/m*3 4.3 C 0 km/h
768 14-10-2011 09:36:02 4.3 C 6.03 g/m*3 4.3 C 0 km/h
769 14-10-2011 09:48:02 4.4 C 6.07 g/m*3 4.4 C 0 km/h
770 14-10-2011 10:00:02 4.5 C 6.11 g/m*3 4.5 C 0 km/h
771 14-10-2011 10:12:02 4.8 C 6.24 g/m*3 4.8 C 0 km/h
772 14-10-2011 10:24:02 5.4 C 6.49 g/m*3 5.4 C 0 km/h
773 14-10-2011 10:36:02 5.4 C 6.42 g/m*3 5.4 C 0 km/h
774 14-10-2011 10:48:02 5.1 C 6.29 g/m*3 5.1 C 0 km/h
775 14-10-2011 11:00:02 5.1 C 6.22 g/m*3 5.1 C 0 km/h
Sensor: Nr:Datum:Temp:Abs-Feuchte:Windchill:Wind:
Aussen-T/F 776 14-10-2011 11:12:02 4.9 C 6.21 g/m*3 4.9 C 0 km/h
777 14-10-2011 11:24:02 5.4 C 6.35 g/m*3 5.4 C 0 km/h
778 14-10-2011 11:36:02 5.9 C 6.63 g/m*3 5.9 C 0 km/h
779 14-10-2011 11:48:02 6.2 C 6.69 g/m*3 6.2 C 0 km/h
780 14-10-2011 12:00:02 6.7 C 6.91 g/m*3 6.7 C 0 km/h
781 14-10-2011 12:12:02 7 C 7.05 g/m*3 7 C 0 km/h
782 14-10-2011 12:24:02 7.4 C 7.24 g/m*3 7.4 C 0 km/h
783 14-10-2011 12:36:01 8.4 C 7.63 g/m*3 8.4 C 0 km/h
784 14-10-2011 12:48:02 9.3 C 7.73 g/m*3 9.3 C 0 km/h
785 14-10-2011 13:00:02 9 C 7.14 g/m*3 9 C 0 km/h
786 14-10-2011 13:12:01 10.2 C 6.38 g/m*3 10.2 C 0 km/h
787 14-10-2011 13:24:01 10.9 C 6.07 g/m*3 10.9 C 0 km/h
788 14-10-2011 13:36:02 12.7 C 6.23 g/m*3 12.7 C 0 km/h
789 14-10-2011 13:48:02 11.7 C 5.65 g/m*3 11.7 C 0 km/h
790 14-10-2011 14:00:02 11.6 C 5.4 g/m*3 11.6 C 0 km/h
791 14-10-2011 14:12:02 10.9 C 5.47 g/m*3 10.9 C 0 km/h
792 14-10-2011 14:24:01 11 C 4.8 g/m*3 11 C 0 km/h
793 14-10-2011 14:36:02 11 C 5 g/m*3 11 C 0 km/h
794 14-10-2011 14:48:02 11.2 C 4.97 g/m*3 11.2 C 0 km/h
795 14-10-2011 15:00:02 11.8 C 4.74 g/m*3 11.8 C 0 km/h
796 14-10-2011 15:12:02 11.8 C 4.74 g/m*3 11.8 C 0 km/h
797 14-10-2011 15:24:01 12.7 C 4.9 g/m*3 12.7 C 0 km/h
798 14-10-2011 15:36:02 13 C 4.42 g/m*3 13 C 0 km/h
799 14-10-2011 15:48:01 13.1 C 4.56 g/m*3 13.1 C 0 km/h
800 14-10-2011 16:00:01 13 C 4.54 g/m*3 13 C 0 km/h
Sensor: Nr:Datum:Temp:Abs-Feuchte:Windchill:Wind:
Aussen-T/F 801 14-10-2011 16:12:02 13.1 C 4.56 g/m*3 13.1 C 0 km/h
802 14-10-2011 16:24:02 13.1 C 4.68 g/m*3 13.1 C 0 km/h
803 14-10-2011 16:36:01 13.2 C 4.94 g/m*3 13.2 C 0 km/h
804 14-10-2011 16:48:02 14.3 C 5.04 g/m*3 14.3 C 0 km/h
805 14-10-2011 17:00:02 14 C 5.43 g/m*3 14 C 0 km/h
806 14-10-2011 17:12:01 13.7 C 4.86 g/m*3 13.7 C 0 km/h
807 14-10-2011 17:24:02 15 C 5.13 g/m*3 15 C 0 km/h
808 14-10-2011 17:36:02 13.7 C 4.97 g/m*3 13.7 C 0 km/h
809 14-10-2011 17:48:02 14.5 C 5.35 g/m*3 14.5 C 0 km/h
810 14-10-2011 18:00:02 14.3 C 5.04 g/m*3 14.3 C 0 km/h
811 14-10-2011 18:12:03 11.3 C 5.3 g/m*3 11.3 C 0 km/h
812 14-10-2011 18:24:02 9.6 C 5.4 g/m*3 9.6 C 0 km/h
813 14-10-2011 18:36:02 8.5 C 5.38 g/m*3 8.5 C 0 km/h
814 14-10-2011 18:48:01 7.9 C 5.5 g/m*3 7.9 C 0 km/h
815 14-10-2011 19:00:01 7.5 C 5.6 g/m*3 7.5 C 0 km/h
816 14-10-2011 19:12:02 7 C 5.66 g/m*3 7 C 0 km/h
817 14-10-2011 19:24:01 6.5 C 5.62 g/m*3 6.5 C 0 km/h
818 14-10-2011 19:36:01 6.4 C 5.59 g/m*3 6.4 C 0 km/h
819 14-10-2011 19:48:01 6.2 C 5.59 g/m*3 6.2 C 0 km/h
820 14-10-2011 20:00:01 5.9 C 5.55 g/m*3 5.9 C 0 km/h
821 14-10-2011 20:12:01 5.6 C 5.59 g/m*3 5.6 C 0 km/h
822 14-10-2011 20:24:02 5.3 C 5.54 g/m*3 5.3 C 0 km/h
823 14-10-2011 20:36:01 5.4 C 5.72 g/m*3 5.4 C 0 km/h
824 14-10-2011 20:48:03 5.5 C 5.76 g/m*3 5.5 C 0 km/h
825 14-10-2011 21:00:03 5.2 C 5.71 g/m*3 5.2 C 0 km/h
Sensor: Nr:Datum:Temp:Abs-Feuchte:Windchill:Wind:
Aussen-T/F 826 14-10-2011 21:12:02 5.4 C 5.86 g/m*3 5.4 C 0 km/h
827 14-10-2011 21:24:02 5.1 C 5.68 g/m*3 5.1 C 0 km/h
828 14-10-2011 21:36:02 5 C 5.71 g/m*3 5 C 0 km/h
829 14-10-2011 21:48:02 4.8 C 5.7 g/m*3 4.8 C 0 km/h
830 14-10-2011 22:00:02 4.7 C 5.73 g/m*3 4.7 C 0 km/h
831 14-10-2011 22:13:02 4.6 C 5.69 g/m*3 4.6 C 0 km/h
832 14-10-2011 22:25:02 4.8 C 5.83 g/m*3 4.8 C 0 km/h
833 14-10-2011 22:37:02 4.3 C 5.64 g/m*3 4.3 C 0 km/h
834 14-10-2011 22:49:02 4.4 C 5.68 g/m*3 4.4 C 0 km/h
835 14-10-2011 23:01:03 4.3 C 5.64 g/m*3 4.3 C 0 km/h
836 14-10-2011 23:13:03 4.3 C 5.71 g/m*3 4.3 C 0 km/h
837 14-10-2011 23:25:03 4.1 C 5.63 g/m*3 4.1 C 0 km/h
838 14-10-2011 23:37:03 4 C 5.59 g/m*3 4 C 0 km/h
839 14-10-2011 23:49:03 3.8 C 5.58 g/m*3 3.8 C 0 km/h
840 15-10-2011 00:01:03 3.8 C 5.58 g/m*3 3.8 C 0 km/h
841 15-10-2011 00:13:03 3.5 C 5.53 g/m*3 3.5 C 0 km/h
842 15-10-2011 00:25:03 3.5 C 5.53 g/m*3 3.5 C 0 km/h
843 15-10-2011 00:37:03 3.2 C 5.42 g/m*3 3.2 C 0 km/h
844 15-10-2011 00:49:03 3.2 C 5.42 g/m*3 3.2 C 0 km/h
845 15-10-2011 01:01:03 3.1 C 5.39 g/m*3 3.1 C 0 km/h
846 15-10-2011 01:13:03 2.9 C 5.37 g/m*3 2.9 C 0 km/h
847 15-10-2011 01:25:03 2.9 C 5.37 g/m*3 2.9 C 0 km/h
848 15-10-2011 01:37:03 2.7 C 5.3 g/m*3 2.7 C 0 km/h
849 15-10-2011 01:49:03 2.7 C 5.3 g/m*3 2.7 C 0 km/h
850 15-10-2011 02:01:03 2.7 C 5.3 g/m*3 2.7 C 0 km/h
Sensor: Nr:Datum:Temp:Abs-Feuchte:Windchill:Wind:
Aussen-T/F 851 15-10-2011 02:13:03 2.6 C 5.27 g/m*3 2.6 C 0 km/h
852 15-10-2011 02:25:03 2.3 C 5.16 g/m*3 2.3 C 0 km/h
853 15-10-2011 02:37:03 2.5 C 5.29 g/m*3 2.5 C 0 km/h
854 15-10-2011 02:49:03 2.5 C 5.29 g/m*3 2.5 C 0 km/h
855 15-10-2011 03:01:03 2.5 C 5.29 g/m*3 2.5 C 0 km/h
856 15-10-2011 03:13:04 2.3 C 5.22 g/m*3 2.3 C 0 km/h
857 15-10-2011 03:25:04 1.7 C 5.01 g/m*3 1.7 C 0 km/h
858 15-10-2011 03:37:04 1.5 C 4.94 g/m*3 1.5 C 0 km/h
859 15-10-2011 03:49:04 1.6 C 4.97 g/m*3 1.6 C 0 km/h
860 15-10-2011 04:01:04 1.4 C 4.91 g/m*3 1.4 C 0 km/h
861 15-10-2011 04:13:04 1.5 C 4.94 g/m*3 1.5 C 0 km/h
862 15-10-2011 04:25:04 1.7 C 5.06 g/m*3 1.7 C 0 km/h
863 15-10-2011 04:37:04 1.4 C 4.91 g/m*3 1.4 C 0 km/h
864 15-10-2011 04:49:04 0.9 C 4.79 g/m*3 0.9 C 0 km/h
865 15-10-2011 05:01:04 0.8 C 4.76 g/m*3 0.8 C 0 km/h
866 15-10-2011 05:13:04 0.9 C 4.79 g/m*3 0.9 C 0 km/h
867 15-10-2011 05:25:04 0.8 C 4.76 g/m*3 0.8 C 0 km/h
868 15-10-2011 05:37:04 1.1 C 4.81 g/m*3 1.1 C 0 km/h
869 15-10-2011 05:49:04 0.6 C 4.7 g/m*3 0.6 C 0 km/h
870 15-10-2011 06:01:04 1.2 C 4.89 g/m*3 1.2 C 0 km/h
871 15-10-2011 06:13:04 0.9 C 4.79 g/m*3 0.9 C 0 km/h
872 15-10-2011 06:25:04 1 C 4.83 g/m*3 1 C 0 km/h
873 15-10-2011 06:37:04 0.6 C 4.7 g/m*3 0.6 C 0 km/h
874 15-10-2011 06:49:04 0.7 C 4.73 g/m*3 0.7 C 0 km/h
875 15-10-2011 07:01:04 0.2 C 4.57 g/m*3 0.2 C 0 km/h
Sensor: Nr:Datum:Temp:Abs-Feuchte:Windchill:Wind:
Aussen-T/F 876 15-10-2011 07:13:04 0.2 C 4.57 g/m*3 0.2 C 0 km/h
877 15-10-2011 07:25:02 0.2 C 4.57 g/m*3 0.2 C 0 km/h
878 15-10-2011 07:37:02 0.3 C 4.6 g/m*3 0.3 C 0 km/h
879 15-10-2011 07:49:02 0.3 C 4.6 g/m*3 0.3 C 0 km/h
880 15-10-2011 08:01:02 0.5 C 4.66 g/m*3 0.5 C 0 km/h
881 15-10-2011 08:13:02 0.7 C 4.73 g/m*3 0.7 C 0 km/h
882 15-10-2011 08:25:01 0.3 C 4.6 g/m*3 0.3 C 0 km/h
883 15-10-2011 08:37:02 0.3 C 4.6 g/m*3 0.3 C 0 km/h
884 15-10-2011 08:49:02 0 C 4.51 g/m*3 0 C 0 km/h
885 15-10-2011 09:01:02 0.3 C 4.6 g/m*3 0.3 C 0 km/h
886 15-10-2011 09:13:02 0.6 C 4.7 g/m*3 0.6 C 0 km/h
887 15-10-2011 09:25:01 1.4 C 4.96 g/m*3 1.4 C 0 km/h
888 15-10-2011 09:37:02 1.3 C 4.93 g/m*3 1.3 C 0 km/h
889 15-10-2011 09:49:01 1.5 C 4.99 g/m*3 1.5 C 0 km/h
890 15-10-2011 10:01:02 1.6 C 5.03 g/m*3 1.6 C 0 km/h
891 15-10-2011 10:13:02 1.7 C 5.12 g/m*3 1.7 C 0 km/h
892 15-10-2011 10:25:02 2 C 5.17 g/m*3 2 C 0 km/h
893 15-10-2011 10:37:02 2.1 C 5.2 g/m*3 2.1 C 0 km/h
894 15-10-2011 10:49:02 2.6 C 5.38 g/m*3 2.6 C 0 km/h
895 15-10-2011 11:01:01 2.8 C 5.51 g/m*3 2.8 C 0 km/h
896 15-10-2011 11:13:01 3.3 C 5.64 g/m*3 3.3 C 0 km/h
897 15-10-2011 11:25:02 3.7 C 5.8 g/m*3 3.7 C 0 km/h
898 15-10-2011 11:37:01 4.1 C 5.95 g/m*3 4.1 C 0 km/h
899 15-10-2011 11:49:02 4.4 C 6.07 g/m*3 4.4 C 0 km/h
900 15-10-2011 12:01:01 4.9 C 6.28 g/m*3 4.9 C 0 km/h
Sensor: Nr:Datum:Temp:Abs-Feuchte:Windchill:Wind:
Aussen-T/F 901 15-10-2011 12:13:01 5.2 C 6.33 g/m*3 5.2 C 0 km/h
902 15-10-2011 12:25:01 5.7 C 6.55 g/m*3 5.7 C 0 km/h
903 15-10-2011 12:37:02 6.3 C 6.74 g/m*3 6.3 C 0 km/h
904 15-10-2011 12:49:02 7 C 6.9 g/m*3 7 C 0 km/h
905 15-10-2011 13:01:02 7.4 C 6.84 g/m*3 7.4 C 0 km/h
906 15-10-2011 13:13:02 7.5 C 6.56 g/m*3 7.5 C 0 km/h
907 15-10-2011 13:25:01 9.7 C 6.64 g/m*3 9.7 C 0 km/h
908 15-10-2011 13:37:02 10.2 C 6.28 g/m*3 10.2 C 0 km/h
909 15-10-2011 13:49:02 9.9 C 5.88 g/m*3 9.9 C 0 km/h
910 15-10-2011 14:01:02 9.3 C 4.76 g/m*3 9.3 C 0 km/h
911 15-10-2011 14:13:02 9.6 C 5.22 g/m*3 9.6 C 0 km/h
912 15-10-2011 14:25:01 9.4 C 4.97 g/m*3 9.4 C 0 km/h
913 15-10-2011 14:37:02 10 C 4.6 g/m*3 10 C 0 km/h
914 15-10-2011 14:49:01 9.7 C 4.98 g/m*3 9.7 C 0 km/h
915 15-10-2011 15:01:02 9.8 C 5.01 g/m*3 9.8 C 0 km/h
916 15-10-2011 15:13:02 9.9 C 5.32 g/m*3 9.9 C 0 km/h
917 15-10-2011 15:25:02 10.8 C 4.55 g/m*3 10.8 C 0 km/h
918 15-10-2011 15:37:02 11.1 C 4.43 g/m*3 11.1 C 0 km/h
919 15-10-2011 15:49:02 11.3 C 4.28 g/m*3 11.3 C 0 km/h
920 15-10-2011 16:01:01 11.4 C 4.62 g/m*3 11.4 C 0 km/h
921 15-10-2011 16:13:01 11.7 C 4.29 g/m*3 11.7 C 0 km/h
922 15-10-2011 16:25:02 12.2 C 4.32 g/m*3 12.2 C 0 km/h
923 15-10-2011 16:37:02 12.6 C 4.65 g/m*3 12.6 C 0 km/h
924 15-10-2011 16:49:02 15.2 C 4.93 g/m*3 15.2 C 0 km/h
925 15-10-2011 17:01:03 18.1 C 4.94 g/m*3 18.1 C 0 km/h
Sensor: Nr:Datum:Temp:Abs-Feuchte:Windchill:Wind:
Aussen-T/F 926 15-10-2011 17:13:03 18.2 C 4.2 g/m*3 18.2 C 0 km/h
927 15-10-2011 17:25:02 18.5 C 5.06 g/m*3 18.5 C 0 km/h
928 15-10-2011 17:37:02 17.8 C 4.86 g/m*3 17.8 C 0 km/h
929 15-10-2011 17:49:01 15.8 C 4.98 g/m*3 15.8 C 0 km/h
930 15-10-2011 18:01:02 13.1 C 4.34 g/m*3 13.1 C 0 km/h
931 15-10-2011 18:13:02 9.3 C 4.58 g/m*3 9.3 C 0 km/h
932 15-10-2011 18:25:01 8.1 C 4.66 g/m*3 8.1 C 0 km/h
933 15-10-2011 18:37:02 7.4 C 4.61 g/m*3 7.4 C 0 km/h
934 15-10-2011 18:49:01 6.8 C 4.59 g/m*3 6.8 C 0 km/h
935 15-10-2011 19:01:02 6 C 4.5 g/m*3 6 C 0 km/h
936 15-10-2011 19:13:02 5.7 C 4.7 g/m*3 5.7 C 0 km/h
937 15-10-2011 19:25:02 5.6 C 4.67 g/m*3 5.6 C 0 km/h
938 15-10-2011 19:37:02 5.4 C 4.74 g/m*3 5.4 C 0 km/h
939 15-10-2011 19:49:02 5.2 C 4.68 g/m*3 5.2 C 0 km/h
940 15-10-2011 20:01:01 4.9 C 4.79 g/m*3 4.9 C 0 km/h
941 15-10-2011 20:13:01 5.1 C 4.86 g/m*3 5.1 C 0 km/h
942 15-10-2011 20:25:02 4.9 C 4.86 g/m*3 4.9 C 0 km/h
943 15-10-2011 20:37:01 4.4 C 4.77 g/m*3 4.4 C 0 km/h
944 15-10-2011 20:49:02 4.5 C 4.93 g/m*3 4.5 C 0 km/h
945 15-10-2011 21:01:01 3.8 C 4.89 g/m*3 3.8 C 0 km/h
946 15-10-2011 21:13:01 3.3 C 4.73 g/m*3 3.3 C 0 km/h
947 15-10-2011 21:25:01 3 C 4.76 g/m*3 3 C 0 km/h
948 15-10-2011 21:37:02 2.6 C 4.75 g/m*3 2.6 C 0 km/h
949 15-10-2011 21:49:02 2.5 C 4.77 g/m*3 2.5 C 0 km/h
950 15-10-2011 22:01:01 2.6 C 4.86 g/m*3 2.6 C 0 km/h
Sensor: Nr:Datum:Temp:Abs-Feuchte:Windchill:Wind:
Aussen-T/F 951 15-10-2011 22:13:01 2.1 C 4.7 g/m*3 2.1 C 0 km/h
952 15-10-2011 22:25:02 1.8 C 4.66 g/m*3 1.8 C 0 km/h
953 15-10-2011 22:37:02 1.6 C 4.65 g/m*3 1.6 C 0 km/h
954 15-10-2011 22:49:02 1.6 C 4.65 g/m*3 1.6 C 0 km/h
955 15-10-2011 23:01:02 1.3 C 4.56 g/m*3 1.3 C 0 km/h
956 15-10-2011 23:13:02 1.1 C 4.55 g/m*3 1.1 C 0 km/h
957 15-10-2011 23:25:02 1 C 4.52 g/m*3 1 C 0 km/h
958 15-10-2011 23:37:02 0.9 C 4.48 g/m*3 0.9 C 0 km/h
959 15-10-2011 23:49:01 1.1 C 4.55 g/m*3 1.1 C 0 km/h
960 16-10-2011 00:01:01 1.3 C 4.66 g/m*3 1.3 C 0 km/h
961 16-10-2011 00:13:01 0.9 C 4.54 g/m*3 0.9 C 0 km/h
962 16-10-2011 00:25:01 0.8 C 4.56 g/m*3 0.8 C 0 km/h
963 16-10-2011 00:37:02 0.5 C 4.41 g/m*3 0.5 C 0 km/h
964 16-10-2011 00:49:02 0.2 C 4.32 g/m*3 0.2 C 0 km/h
965 16-10-2011 01:01:02 0.4 C 4.38 g/m*3 0.4 C 0 km/h
966 16-10-2011 01:13:02 0.4 C 4.43 g/m*3 0.4 C 0 km/h
967 16-10-2011 01:25:01 0.1 C 4.34 g/m*3 0.1 C 0 km/h
968 16-10-2011 01:37:02 0.2 C 4.37 g/m*3 0.2 C 0 km/h
969 16-10-2011 01:49:01 0.1 C 4.34 g/m*3 0.1 C 0 km/h
970 16-10-2011 02:01:02 0 C 4.31 g/m*3 0 C 0 km/h
971 16-10-2011 02:13:02 -0.2 C 4.25 g/m*3 -0.2 C 0 km/h
972 16-10-2011 02:25:02 -0.1 C 4.28 g/m*3 -0.1 C 0 km/h
973 16-10-2011 02:37:02 -0.4 C 4.19 g/m*3 -0.4 C 0 km/h
974 16-10-2011 02:50:03 -0.3 C 4.22 g/m*3 -0.3 C 0 km/h
975 16-10-2011 03:02:03 -0.1 C 4.28 g/m*3 -0.1 C 0 km/h
Sensor: Nr:Datum:Temp:Abs-Feuchte:Windchill:Wind:
Aussen-T/F 976 16-10-2011 03:14:03 -0.3 C 4.27 g/m*3 -0.3 C 0 km/h
977 16-10-2011 03:26:03 -0.1 C 4.33 g/m*3 -0.1 C 0 km/h
978 16-10-2011 03:38:01 -0.3 C 4.27 g/m*3 -0.3 C 0 km/h
979 16-10-2011 03:50:01 -0.6 C 4.18 g/m*3 -0.6 C 0 km/h
980 16-10-2011 04:02:02 -0.4 C 4.24 g/m*3 -0.4 C 0 km/h
981 16-10-2011 04:14:02 -0.5 C 4.21 g/m*3 -0.5 C 0 km/h
982 16-10-2011 04:26:02 -0.8 C 4.13 g/m*3 -0.8 C 0 km/h
983 16-10-2011 04:38:02 -0.7 C 4.2 g/m*3 -0.7 C 0 km/h
984 16-10-2011 04:50:02 -0.9 C 4.14 g/m*3 -0.9 C 0 km/h
985 16-10-2011 05:02:01 -0.9 C 4.14 g/m*3 -0.9 C 0 km/h
986 16-10-2011 05:14:01 -1 C 4.11 g/m*3 -1 C 0 km/h
987 16-10-2011 05:26:02 -1.2 C 4.06 g/m*3 -1.2 C 0 km/h
988 16-10-2011 05:38:01 -1.3 C 4.03 g/m*3 -1.3 C 0 km/h
989 16-10-2011 05:50:02 -1.7 C 3.92 g/m*3 -1.7 C 0 km/h
990 16-10-2011 06:02:01 -1.6 C 3.94 g/m*3 -1.6 C 0 km/h
991 16-10-2011 06:14:01 -1.6 C 3.94 g/m*3 -1.6 C 0 km/h
992 16-10-2011 06:26:01 -1.6 C 3.94 g/m*3 -1.6 C 0 km/h
993 16-10-2011 06:38:02 -1.2 C 4.06 g/m*3 -1.2 C 0 km/h
994 16-10-2011 06:50:02 -1.5 C 3.97 g/m*3 -1.5 C 0 km/h
995 16-10-2011 07:02:02 -1.1 C 4.13 g/m*3 -1.1 C 0 km/h
996 16-10-2011 07:14:02 -1.4 C 4.04 g/m*3 -1.4 C 0 km/h
997 16-10-2011 07:26:01 -1.5 C 4.02 g/m*3 -1.5 C 0 km/h
998 16-10-2011 07:38:02 -1.7 C 3.92 g/m*3 -1.7 C 0 km/h
999 16-10-2011 07:50:02 -1 C 4.16 g/m*3 -1 C 0 km/h
1000 16-10-2011 08:02:02 -0.5 C 4.31 g/m*3 -0.5 C 0 km/h
Sensor: Nr:Datum:Temp:Abs-Feuchte:Windchill:Wind:
Aussen-T/F 1001 16-10-2011 08:14:02 -0.5 C 4.35 g/m*3 -0.5 C 0 km/h
1002 16-10-2011 08:26:01 -0.7 C 4.25 g/m*3 -0.7 C 0 km/h
1003 16-10-2011 08:38:02 -0.2 C 4.44 g/m*3 -0.2 C 0 km/h
1004 16-10-2011 08:50:01 -0.4 C 4.38 g/m*3 -0.4 C 0 km/h
1005 16-10-2011 09:02:02 -0.4 C 4.38 g/m*3 -0.4 C 0 km/h
1006 16-10-2011 09:14:02 -0.2 C 4.44 g/m*3 -0.2 C 0 km/h
1007 16-10-2011 09:26:02 -0.2 C 4.44 g/m*3 -0.2 C 0 km/h
1008 16-10-2011 09:38:01 -0.6 C 4.32 g/m*3 -0.6 C 0 km/h
1009 16-10-2011 09:50:02 -0.3 C 4.41 g/m*3 -0.3 C 0 km/h
1010 16-10-2011 10:02:01 -0.1 C 4.47 g/m*3 -0.1 C 0 km/h
1011 16-10-2011 10:14:01 0 C 4.51 g/m*3 0 C 0 km/h
1012 16-10-2011 10:26:02 0.1 C 4.54 g/m*3 0.1 C 0 km/h
1013 16-10-2011 10:38:02 0.1 C 4.54 g/m*3 0.1 C 0 km/h
1014 16-10-2011 10:50:02 0.5 C 4.71 g/m*3 0.5 C 0 km/h
1015 16-10-2011 11:02:03 1.4 C 4.96 g/m*3 1.4 C 0 km/h
1016 16-10-2011 11:14:03 2.4 C 5.31 g/m*3 2.4 C 0 km/h
1017 16-10-2011 11:26:02 3.5 C 5.72 g/m*3 3.5 C 0 km/h
1018 16-10-2011 11:38:02 4 C 5.91 g/m*3 4 C 0 km/h
1019 16-10-2011 11:50:01 4.5 C 6.11 g/m*3 4.5 C 0 km/h
1020 16-10-2011 12:02:02 5 C 6.32 g/m*3 5 C 0 km/h
1021 16-10-2011 12:14:02 5.6 C 6.57 g/m*3 5.6 C 0 km/h
1022 16-10-2011 12:26:01 6 C 6.68 g/m*3 6 C 0 km/h
1023 16-10-2011 12:38:01 6.7 C 6.99 g/m*3 6.7 C 0 km/h
1024 16-10-2011 12:50:01 7.7 C 7.22 g/m*3 7.7 C 0 km/h
1025 16-10-2011 13:02:01 8.5 C 6.74 g/m*3 8.5 C 0 km/h
Sensor: Nr:Datum:Temp:Abs-Feuchte:Windchill:Wind:
Aussen-T/F 1026 16-10-2011 13:14:01 9.1 C 6.12 g/m*3 9.1 C 0 km/h
1027 16-10-2011 13:26:02 10.6 C 6.54 g/m*3 10.6 C 0 km/h
1028 16-10-2011 13:38:01 10.9 C 6.27 g/m*3 10.9 C 0 km/h
1029 16-10-2011 13:50:02 11.2 C 5.37 g/m*3 11.2 C 0 km/h
1030 16-10-2011 14:02:01 10.8 C 5.14 g/m*3 10.8 C 0 km/h
1031 16-10-2011 14:14:01 10.4 C 5.3 g/m*3 10.4 C 0 km/h
1032 16-10-2011 14:26:01 11 C 5.31 g/m*3 11 C 0 km/h
1033 16-10-2011 14:38:01 11.1 C 5.04 g/m*3 11.1 C 0 km/h
1034 16-10-2011 14:50:02 10.8 C 5.44 g/m*3 10.8 C 0 km/h
1035 16-10-2011 15:02:02 10.9 C 5.27 g/m*3 10.9 C 0 km/h
1036 16-10-2011 15:14:02 11.2 C 5.47 g/m*3 11.2 C 0 km/h
1037 16-10-2011 15:26:02 11.4 C 5.44 g/m*3 11.4 C 0 km/h
1038 16-10-2011 15:38:02 11 C 5.71 g/m*3 11 C 0 km/h
1039 16-10-2011 15:50:01 11.3 C 5.41 g/m*3 11.3 C 0 km/h
1040 16-10-2011 16:02:02 11.4 C 5.65 g/m*3 11.4 C 0 km/h
1041 16-10-2011 16:14:02 11.9 C 5.3 g/m*3 11.9 C 0 km/h
1042 16-10-2011 16:26:01 12.4 C 5.24 g/m*3 12.4 C 0 km/h
1043 16-10-2011 16:38:01 12.7 C 5.68 g/m*3 12.7 C 0 km/h
1044 16-10-2011 16:50:01 13.8 C 5.48 g/m*3 13.8 C 0 km/h
1045 16-10-2011 17:02:02 16.1 C 5.48 g/m*3 16.1 C 0 km/h
1046 16-10-2011 17:14:02 17.2 C 5.86 g/m*3 17.2 C 0 km/h
1047 16-10-2011 17:26:01 17.4 C 5.63 g/m*3 17.4 C 0 km/h
1048 16-10-2011 17:38:01 14.9 C 5.48 g/m*3 14.9 C 0 km/h
1049 16-10-2011 17:50:01 14.7 C 5.79 g/m*3 14.7 C 0 km/h
1050 16-10-2011 18:02:01 12.5 C 5.61 g/m*3 12.5 C 0 km/h
Sensor: Nr:Datum:Temp:Abs-Feuchte:Windchill:Wind:
Aussen-T/F 1051 16-10-2011 18:14:02 9.6 C 5.77 g/m*3 9.6 C 0 km/h
1052 16-10-2011 18:26:01 9 C 5.91 g/m*3 9 C 0 km/h
1053 16-10-2011 18:38:02 9.1 C 5.86 g/m*3 9.1 C 0 km/h
1054 16-10-2011 18:50:01 9.3 C 5.75 g/m*3 9.3 C 0 km/h
1055 16-10-2011 19:02:02 9.2 C 5.63 g/m*3 9.2 C 0 km/h
1056 16-10-2011 19:14:02 9.5 C 5.55 g/m*3 9.5 C 0 km/h
1057 16-10-2011 19:26:02 9.1 C 5.68 g/m*3 9.1 C 0 km/h
1058 16-10-2011 19:38:01 9.3 C 5.66 g/m*3 9.3 C 0 km/h
1059 16-10-2011 19:50:02 8.9 C 5.69 g/m*3 8.9 C 0 km/h
1060 16-10-2011 20:02:01 7.9 C 5.67 g/m*3 7.9 C 0 km/h
1061 16-10-2011 20:14:01 7 C 5.66 g/m*3 7 C 0 km/h
1062 16-10-2011 20:26:02 6.2 C 5.74 g/m*3 6.2 C 0 km/h
1063 16-10-2011 20:38:01 5.9 C 5.91 g/m*3 5.9 C 0 km/h
1064 16-10-2011 20:50:02 5.7 C 5.91 g/m*3 5.7 C 0 km/h
1065 16-10-2011 21:02:02 5.3 C 5.82 g/m*3 5.3 C 0 km/h
1066 16-10-2011 21:14:02 5.1 C 5.75 g/m*3 5.1 C 0 km/h
1067 16-10-2011 21:26:02 4.8 C 5.7 g/m*3 4.8 C 0 km/h
1068 16-10-2011 21:38:02 5 C 5.78 g/m*3 5 C 0 km/h
1069 16-10-2011 21:50:01 4.5 C 5.72 g/m*3 4.5 C 0 km/h
1070 16-10-2011 22:03:03 4.4 C 5.68 g/m*3 4.4 C 0 km/h
1071 16-10-2011 22:15:03 4.3 C 5.64 g/m*3 4.3 C 0 km/h
1072 16-10-2011 22:27:03 4.2 C 5.67 g/m*3 4.2 C 0 km/h
1073 16-10-2011 22:39:03 4.2 C 5.73 g/m*3 4.2 C 0 km/h
1074 16-10-2011 22:51:03 3.9 C 5.68 g/m*3 3.9 C 0 km/h
1075 16-10-2011 23:03:03 3.6 C 5.57 g/m*3 3.6 C 0 km/h
Sensor: Nr:Datum:Temp:Abs-Feuchte:Windchill:Wind:
Aussen-T/F 1076 16-10-2011 23:15:03 3.6 C 5.57 g/m*3 3.6 C 0 km/h
1077 16-10-2011 23:27:03 3.4 C 5.56 g/m*3 3.4 C 0 km/h
1078 16-10-2011 23:39:03 3.2 C 5.48 g/m*3 3.2 C 0 km/h
1079 16-10-2011 23:51:03 3.1 C 5.39 g/m*3 3.1 C 0 km/h
1080 17-10-2011 00:03:04 3 C 5.35 g/m*3 3 C 0 km/h
1081 17-10-2011 00:15:04 3 C 5.35 g/m*3 3 C 0 km/h
1082 17-10-2011 00:27:04 3.1 C 5.45 g/m*3 3.1 C 0 km/h
1083 17-10-2011 00:39:04 2.9 C 5.37 g/m*3 2.9 C 0 km/h
1084 17-10-2011 00:51:04 2.8 C 5.34 g/m*3 2.8 C 0 km/h
1085 17-10-2011 01:03:04 2.6 C 5.27 g/m*3 2.6 C 0 km/h
1086 17-10-2011 01:15:04 2.3 C 5.1 g/m*3 2.3 C 0 km/h
1087 17-10-2011 01:27:04 2.2 C 5.07 g/m*3 2.2 C 0 km/h
1088 17-10-2011 01:39:04 2.2 C 5.13 g/m*3 2.2 C 0 km/h
1089 17-10-2011 01:51:04 2.7 C 5.36 g/m*3 2.7 C 0 km/h
1090 17-10-2011 02:03:04 2.2 C 5.18 g/m*3 2.2 C 0 km/h
1091 17-10-2011 02:15:04 2.3 C 5.22 g/m*3 2.3 C 0 km/h
1092 17-10-2011 02:27:04 2.3 C 5.22 g/m*3 2.3 C 0 km/h
1093 17-10-2011 02:39:04 2.7 C 5.36 g/m*3 2.7 C 0 km/h
1094 17-10-2011 02:51:04 3.5 C 5.66 g/m*3 3.5 C 0 km/h
1095 17-10-2011 03:03:04 3.8 C 5.83 g/m*3 3.8 C 0 km/h
1096 17-10-2011 03:15:04 4.2 C 5.93 g/m*3 4.2 C 0 km/h
1097 17-10-2011 03:27:04 4.1 C 5.89 g/m*3 4.1 C 0 km/h
1098 17-10-2011 03:39:04 3.4 C 5.68 g/m*3 3.4 C 0 km/h
1099 17-10-2011 03:51:04 2.7 C 5.42 g/m*3 2.7 C 0 km/h
1100 17-10-2011 04:03:04 2.2 C 5.18 g/m*3 2.2 C 0 km/h
Sensor: Nr:Datum:Temp:Abs-Feuchte:Windchill:Wind:
Aussen-T/F 1101 17-10-2011 04:15:05 2 C 5.11 g/m*3 2 C 0 km/h
1102 17-10-2011 04:27:05 1.6 C 5.03 g/m*3 1.6 C 0 km/h
1103 17-10-2011 04:39:05 1.5 C 4.99 g/m*3 1.5 C 0 km/h
1104 17-10-2011 04:51:05 1.3 C 4.87 g/m*3 1.3 C 0 km/h
1105 17-10-2011 05:03:05 1.4 C 4.96 g/m*3 1.4 C 0 km/h
1106 17-10-2011 05:15:05 1.4 C 4.96 g/m*3 1.4 C 0 km/h
1107 17-10-2011 05:27:05 1.3 C 4.93 g/m*3 1.3 C 0 km/h
1108 17-10-2011 05:39:05 2.1 C 5.2 g/m*3 2.1 C 0 km/h
1109 17-10-2011 05:51:05 2.5 C 5.35 g/m*3 2.5 C 0 km/h
1110 17-10-2011 06:03:05 2.3 C 5.27 g/m*3 2.3 C 0 km/h
1111 17-10-2011 06:15:05 2.1 C 5.2 g/m*3 2.1 C 0 km/h
1112 17-10-2011 06:27:05 1.8 C 5.1 g/m*3 1.8 C 0 km/h
1113 17-10-2011 06:39:05 2.2 C 5.24 g/m*3 2.2 C 0 km/h
1114 17-10-2011 06:51:05 2.3 C 5.27 g/m*3 2.3 C 0 km/h
1115 17-10-2011 07:03:05 2.5 C 5.35 g/m*3 2.5 C 0 km/h
1116 17-10-2011 07:15:05 2.8 C 5.51 g/m*3 2.8 C 0 km/h
1117 17-10-2011 07:27:05 3 C 5.53 g/m*3 3 C 0 km/h
1118 17-10-2011 07:39:03 3.1 C 5.57 g/m*3 3.1 C 0 km/h
1119 17-10-2011 07:51:01 3.3 C 5.64 g/m*3 3.3 C 0 km/h
1120 17-10-2011 08:03:02 3.3 C 5.64 g/m*3 3.3 C 0 km/h
1121 17-10-2011 08:15:01 3.4 C 5.74 g/m*3 3.4 C 0 km/h
1122 17-10-2011 08:27:01 3.5 C 5.78 g/m*3 3.5 C 0 km/h
1123 17-10-2011 08:39:02 3.6 C 5.82 g/m*3 3.6 C 0 km/h
1124 17-10-2011 08:51:02 3.5 C 5.78 g/m*3 3.5 C 0 km/h
1125 17-10-2011 09:03:02 3.3 C 5.64 g/m*3 3.3 C 0 km/h
Sensor: Nr:Datum:Temp:Abs-Feuchte:Windchill:Wind:
Aussen-T/F 1126 17-10-2011 09:15:01 3.4 C 5.74 g/m*3 3.4 C 0 km/h
1127 17-10-2011 09:27:01 3.5 C 5.78 g/m*3 3.5 C 0 km/h
1128 17-10-2011 09:39:02 3.5 C 5.78 g/m*3 3.5 C 0 km/h
1129 17-10-2011 09:51:01 3.6 C 5.82 g/m*3 3.6 C 0 km/h
1130 17-10-2011 10:03:02 4.2 C 5.99 g/m*3 4.2 C 0 km/h
1131 17-10-2011 10:15:02 4.3 C 6.03 g/m*3 4.3 C 0 km/h
1132 17-10-2011 10:27:02 4.6 C 6.15 g/m*3 4.6 C 0 km/h
1133 17-10-2011 10:39:02 4.8 C 6.17 g/m*3 4.8 C 0 km/h
1134 17-10-2011 10:51:02 5.2 C 6.27 g/m*3 5.2 C 0 km/h
1135 17-10-2011 11:03:01 5.9 C 6.56 g/m*3 5.9 C 0 km/h
1136 17-10-2011 11:15:02 6.7 C 6.69 g/m*3 6.7 C 0 km/h
1137 17-10-2011 11:27:02 7 C 6.59 g/m*3 7 C 0 km/h
1138 17-10-2011 11:39:01 7.6 C 6.61 g/m*3 7.6 C 0 km/h
1139 17-10-2011 11:51:02 8 C 6.37 g/m*3 8 C 0 km/h
1140 17-10-2011 12:03:01 8.4 C 6.19 g/m*3 8.4 C 0 km/h
1141 17-10-2011 12:15:01 9.2 C 6.16 g/m*3 9.2 C 0 km/h
1142 17-10-2011 12:27:01 9.6 C 6.23 g/m*3 9.6 C 0 km/h
1143 17-10-2011 12:39:02 10.1 C 6.15 g/m*3 10.1 C 0 km/h
1144 17-10-2011 12:51:02 10.3 C 6.22 g/m*3 10.3 C 0 km/h
1145 17-10-2011 13:03:02 11.1 C 6.35 g/m*3 11.1 C 0 km/h
1146 17-10-2011 13:15:01 11.7 C 6.38 g/m*3 11.7 C 0 km/h
1147 17-10-2011 13:27:01 11.6 C 6.24 g/m*3 11.6 C 0 km/h
1148 17-10-2011 13:39:01 11.6 C 6.24 g/m*3 11.6 C 0 km/h
1149 17-10-2011 13:51:02 12.3 C 6.52 g/m*3 12.3 C 0 km/h
1150 17-10-2011 14:03:02 12.5 C 6.6 g/m*3 12.5 C 0 km/h
Sensor: Nr:Datum:Temp:Abs-Feuchte:Windchill:Wind:
Aussen-T/F 1151 17-10-2011 14:15:02 11.8 C 6.53 g/m*3 11.8 C 0 km/h
1152 17-10-2011 14:27:02 12.7 C 6.35 g/m*3 12.7 C 0 km/h
1153 17-10-2011 14:39:03 12.9 C 6.09 g/m*3 12.9 C 0 km/h
1154 17-10-2011 14:51:02 13.1 C 5.93 g/m*3 13.1 C 0 km/h
1155 17-10-2011 15:03:02 13.2 C 5.86 g/m*3 13.2 C 0 km/h
1156 17-10-2011 15:15:01 13.3 C 5.78 g/m*3 13.3 C 0 km/h
1157 17-10-2011 15:27:01 13.3 C 6.35 g/m*3 13.3 C 0 km/h
1158 17-10-2011 15:39:02 13.1 C 6.28 g/m*3 13.1 C 0 km/h
1159 17-10-2011 15:51:02 13.6 C 6.59 g/m*3 13.6 C 0 km/h
1160 17-10-2011 16:03:02 13.3 C 6.7 g/m*3 13.3 C 0 km/h
1161 17-10-2011 16:15:01 13.4 C 6.74 g/m*3 13.4 C 0 km/h
1162 17-10-2011 16:27:01 13.1 C 6.39 g/m*3 13.1 C 0 km/h
1163 17-10-2011 16:39:02 13.4 C 6.63 g/m*3 13.4 C 0 km/h
1164 17-10-2011 16:51:02 13.7 C 6.99 g/m*3 13.7 C 0 km/h
1165 17-10-2011 17:03:02 14.5 C 6.96 g/m*3 14.5 C 0 km/h
1166 17-10-2011 17:15:02 14.4 C 6.55 g/m*3 14.4 C 0 km/h
1167 17-10-2011 17:27:02 13.8 C 6.67 g/m*3 13.8 C 0 km/h
1168 17-10-2011 17:39:02 12.7 C 6.68 g/m*3 12.7 C 0 km/h
1169 17-10-2011 17:51:02 11.1 C 6.75 g/m*3 11.1 C 0 km/h
1170 17-10-2011 18:03:02 10.4 C 6.94 g/m*3 10.4 C 0 km/h
1171 17-10-2011 18:15:02 10 C 6.95 g/m*3 10 C 0 km/h
1172 17-10-2011 18:27:02 9.7 C 7.01 g/m*3 9.7 C 0 km/h
1173 17-10-2011 18:39:01 9.2 C 6.97 g/m*3 9.2 C 0 km/h
1174 17-10-2011 18:51:01 8.8 C 7.05 g/m*3 8.8 C 0 km/h
1175 17-10-2011 19:03:02 8.9 C 7.18 g/m*3 8.9 C 0 km/h
Sensor: Nr:Datum:Temp:Abs-Feuchte:Windchill:Wind:
Aussen-T/F 1176 17-10-2011 19:15:02 8.6 C 7.13 g/m*3 8.6 C 0 km/h
1177 17-10-2011 19:27:02 8.6 C 7.13 g/m*3 8.6 C 0 km/h
1178 17-10-2011 19:39:02 8.4 C 7.04 g/m*3 8.4 C 0 km/h
1179 17-10-2011 19:51:02 8.3 C 7.08 g/m*3 8.3 C 0 km/h
1180 17-10-2011 20:03:02 8 C 6.94 g/m*3 8 C 0 km/h
1181 17-10-2011 20:15:02 7.9 C 7.06 g/m*3 7.9 C 0 km/h
1182 17-10-2011 20:27:02 7.9 C 7.15 g/m*3 7.9 C 0 km/h
1183 17-10-2011 20:39:02 7 C 6.74 g/m*3 7 C 0 km/h
1184 17-10-2011 20:51:02 7.3 C 6.87 g/m*3 7.3 C 0 km/h
1185 17-10-2011 21:03:02 6.7 C 6.69 g/m*3 6.7 C 0 km/h
1186 17-10-2011 21:15:02 6.4 C 6.63 g/m*3 6.4 C 0 km/h
1187 17-10-2011 21:27:02 6.1 C 6.43 g/m*3 6.1 C 0 km/h
1188 17-10-2011 21:39:02 6.4 C 6.56 g/m*3 6.4 C 0 km/h
1189 17-10-2011 21:51:01 6 C 6.46 g/m*3 6 C 0 km/h
1190 17-10-2011 22:03:01 5.3 C 6.24 g/m*3 5.3 C 0 km/h
1191 17-10-2011 22:15:01 5.3 C 6.24 g/m*3 5.3 C 0 km/h
1192 17-10-2011 22:27:01 5 C 6.12 g/m*3 5 C 0 km/h
1193 17-10-2011 22:40:02 4.8 C 6.1 g/m*3 4.8 C 0 km/h
1194 17-10-2011 22:52:02 4.7 C 6.06 g/m*3 4.7 C 0 km/h
1195 17-10-2011 23:04:02 4.9 C 6.14 g/m*3 4.9 C 0 km/h
1196 17-10-2011 23:16:02 5.1 C 6.16 g/m*3 5.1 C 0 km/h
1197 17-10-2011 23:28:02 4.7 C 6.06 g/m*3 4.7 C 0 km/h
1198 17-10-2011 23:40:02 4.4 C 5.94 g/m*3 4.4 C 0 km/h
1199 17-10-2011 23:52:02 4.3 C 5.9 g/m*3 4.3 C 0 km/h
1200 18-10-2011 00:04:02 4.3 C 5.9 g/m*3 4.3 C 0 km/h
Sensor: Nr:Datum:Temp:Abs-Feuchte:Windchill:Wind:
Aussen-T/F 1201 18-10-2011 00:16:02 4.3 C 5.9 g/m*3 4.3 C 0 km/h
1202 18-10-2011 00:28:02 4 C 5.79 g/m*3 4 C 0 km/h
1203 18-10-2011 00:40:02 4.1 C 5.82 g/m*3 4.1 C 0 km/h
1204 18-10-2011 00:52:02 3.9 C 5.81 g/m*3 3.9 C 0 km/h
1205 18-10-2011 01:04:02 3.8 C 5.77 g/m*3 3.8 C 0 km/h
1206 18-10-2011 01:16:03 5 C 6.18 g/m*3 5 C 0 km/h
1207 18-10-2011 01:28:03 5.4 C 6.42 g/m*3 5.4 C 0 km/h
1208 18-10-2011 01:40:03 5.8 C 6.59 g/m*3 5.8 C 0 km/h
1209 18-10-2011 01:52:03 5.6 C 6.5 g/m*3 5.6 C 0 km/h
1210 18-10-2011 02:04:03 4.8 C 6.17 g/m*3 4.8 C 0 km/h
1211 18-10-2011 02:16:03 4.9 C 6.21 g/m*3 4.9 C 0 km/h
1212 18-10-2011 02:28:03 4.6 C 6.09 g/m*3 4.6 C 0 km/h
1213 18-10-2011 02:40:03 5 C 6.25 g/m*3 5 C 0 km/h
1214 18-10-2011 02:52:03 4.8 C 6.24 g/m*3 4.8 C 0 km/h
1215 18-10-2011 03:04:03 4.2 C 5.93 g/m*3 4.2 C 0 km/h
1216 18-10-2011 03:16:03 3.9 C 5.87 g/m*3 3.9 C 0 km/h
1217 18-10-2011 03:28:03 4.5 C 6.05 g/m*3 4.5 C 0 km/h
1218 18-10-2011 03:40:03 4.6 C 6.15 g/m*3 4.6 C 0 km/h
1219 18-10-2011 03:52:03 4.8 C 6.24 g/m*3 4.8 C 0 km/h
1220 18-10-2011 04:04:03 4.5 C 6.11 g/m*3 4.5 C 0 km/h
1221 18-10-2011 04:16:03 4.4 C 6.07 g/m*3 4.4 C 0 km/h
1222 18-10-2011 04:28:03 4.8 C 6.24 g/m*3 4.8 C 0 km/h
1223 18-10-2011 04:40:03 5 C 6.25 g/m*3 5 C 0 km/h
1224 18-10-2011 04:52:03 4.8 C 6.3 g/m*3 4.8 C 0 km/h
1225 18-10-2011 05:04:03 4.7 C 6.19 g/m*3 4.7 C 0 km/h
Sensor: Nr:Datum:Temp:Abs-Feuchte:Windchill:Wind:
Aussen-T/F 1226 18-10-2011 05:16:03 5.6 C 6.57 g/m*3 5.6 C 0 km/h
1227 18-10-2011 05:28:03 8.8 C 7.92 g/m*3 8.8 C 0 km/h
1228 18-10-2011 05:40:03 9.2 C 8.13 g/m*3 9.2 C 0 km/h
1229 18-10-2011 05:52:04 9.6 C 8.34 g/m*3 9.6 C 0 km/h
1230 18-10-2011 06:04:04 9.8 C 8.44 g/m*3 9.8 C 0 km/h
1231 18-10-2011 06:16:04 9.7 C 8.39 g/m*3 9.7 C 0 km/h
1232 18-10-2011 06:28:04 9.7 C 8.3 g/m*3 9.7 C 0 km/h
1233 18-10-2011 06:40:04 9.7 C 8.3 g/m*3 9.7 C 0 km/h
1234 18-10-2011 06:52:04 9 C 7.93 g/m*3 9 C 0 km/h
1235 18-10-2011 07:04:04 9 C 7.85 g/m*3 9 C 0 km/h
1236 18-10-2011 07:16:01 8.3 C 7.59 g/m*3 8.3 C 0 km/h
1237 18-10-2011 07:28:01 8.2 C 7.54 g/m*3 8.2 C 0 km/h
1238 18-10-2011 07:40:01 7.8 C 7.43 g/m*3 7.8 C 0 km/h
1239 18-10-2011 07:52:01 7.6 C 7.33 g/m*3 7.6 C 0 km/h
1240 18-10-2011 08:04:02 8 C 7.44 g/m*3 8 C 0 km/h
1241 18-10-2011 08:16:02 8.7 C 7.87 g/m*3 8.7 C 0 km/h
1242 18-10-2011 08:28:02 9.8 C 8.35 g/m*3 9.8 C 0 km/h
1243 18-10-2011 08:40:01 9.7 C 8.3 g/m*3 9.7 C 0 km/h
1244 18-10-2011 08:52:02 10.1 C 8.42 g/m*3 10.1 C 0 km/h
1245 18-10-2011 09:04:01 10.7 C 8.64 g/m*3 10.7 C 0 km/h
1246 18-10-2011 09:16:02 11.7 C 8.68 g/m*3 11.7 C 0 km/h
1247 18-10-2011 09:28:02 12.1 C 8.26 g/m*3 12.1 C 0 km/h
1248 18-10-2011 09:40:01 12.4 C 8.19 g/m*3 12.4 C 0 km/h
1249 18-10-2011 09:52:02 12.7 C 8.13 g/m*3 12.7 C 0 km/h
1250 18-10-2011 10:04:03 13 C 7.83 g/m*3 13 C 0 km/h
Sensor: Nr:Datum:Temp:Abs-Feuchte:Windchill:Wind:
Aussen-T/F 1251 18-10-2011 10:16:02 13.5 C 7.72 g/m*3 13.5 C 0 km/h
1252 18-10-2011 10:28:03 13.6 C 7.53 g/m*3 13.6 C 0 km/h
1253 18-10-2011 10:40:02 13.9 C 7.31 g/m*3 13.9 C 0 km/h
1254 18-10-2011 10:52:02 14.1 C 7.16 g/m*3 14.1 C 0 km/h
1255 18-10-2011 11:04:01 14.7 C 6.8 g/m*3 14.7 C 0 km/h
1256 18-10-2011 11:16:02 15.1 C 6.58 g/m*3 15.1 C 0 km/h
1257 18-10-2011 11:28:02 15.2 C 6.49 g/m*3 15.2 C 0 km/h
1258 18-10-2011 11:40:02 15.6 C 6.65 g/m*3 15.6 C 0 km/h
1259 18-10-2011 11:52:01 16.2 C 6.76 g/m*3 16.2 C 0 km/h
1260 18-10-2011 12:04:02 16.6 C 6.92 g/m*3 16.6 C 0 km/h
1261 18-10-2011 12:16:01 16.6 C 6.92 g/m*3 16.6 C 0 km/h
1262 18-10-2011 12:28:01 16.7 C 7.25 g/m*3 16.7 C 0 km/h
1263 18-10-2011 12:40:01 16.4 C 6.84 g/m*3 16.4 C 0 km/h
1264 18-10-2011 12:52:01 16.6 C 6.78 g/m*3 16.6 C 0 km/h
1265 18-10-2011 13:04:02 17.2 C 7.03 g/m*3 17.2 C 0 km/h
1266 18-10-2011 13:16:01 17.2 C 6.88 g/m*3 17.2 C 0 km/h
1267 18-10-2011 13:28:01 17.2 C 6.88 g/m*3 17.2 C 0 km/h
1268 18-10-2011 13:40:01 16.8 C 6.86 g/m*3 16.8 C 0 km/h
1269 18-10-2011 13:52:01 16.7 C 6.82 g/m*3 16.7 C 0 km/h
1270 18-10-2011 14:04:02 16.4 C 6.7 g/m*3 16.4 C 0 km/h
1271 18-10-2011 14:16:02 15.9 C 6.91 g/m*3 15.9 C 0 km/h
1272 18-10-2011 14:28:02 11.2 C 6.39 g/m*3 11.2 C 0 km/h
1273 18-10-2011 14:40:01 10.5 C 6.69 g/m*3 10.5 C 0 km/h
1274 18-10-2011 14:52:02 9.9 C 6.72 g/m*3 9.9 C 0 km/h
1275 18-10-2011 15:04:01 9.6 C 6.78 g/m*3 9.6 C 0 km/h
Sensor: Nr:Datum:Temp:Abs-Feuchte:Windchill:Wind:
Aussen-T/F 1276 18-10-2011 15:16:02 9 C 6.88 g/m*3 9 C 0 km/h
1277 18-10-2011 15:28:02 8.8 C 7.14 g/m*3 8.8 C 0 km/h
1278 18-10-2011 15:40:01 8.6 C 7.13 g/m*3 8.6 C 0 km/h
1279 18-10-2011 15:52:02 8.5 C 7.17 g/m*3 8.5 C 0 km/h
1280 18-10-2011 16:04:02 8.5 C 7.26 g/m*3 8.5 C 0 km/h
1281 18-10-2011 16:16:02 8.4 C 7.21 g/m*3 8.4 C 0 km/h
1282 18-10-2011 16:28:02 8.4 C 7.3 g/m*3 8.4 C 0 km/h
1283 18-10-2011 16:40:02 8.2 C 7.2 g/m*3 8.2 C 0 km/h
1284 18-10-2011 16:52:01 8.2 C 7.29 g/m*3 8.2 C 0 km/h
1285 18-10-2011 17:04:02 8.2 C 7.29 g/m*3 8.2 C 0 km/h
1286 18-10-2011 17:16:01 8.3 C 7.33 g/m*3 8.3 C 0 km/h
1287 18-10-2011 17:28:01 8.3 C 7.33 g/m*3 8.3 C 0 km/h
1288 18-10-2011 17:40:01 8.2 C 7.37 g/m*3 8.2 C 0 km/h
1289 18-10-2011 17:52:01 8.2 C 7.37 g/m*3 8.2 C 0 km/h
1290 18-10-2011 18:04:02 8.1 C 7.41 g/m*3 8.1 C 0 km/h
1291 18-10-2011 18:16:02 7.9 C 7.31 g/m*3 7.9 C 0 km/h
1292 18-10-2011 18:28:02 7.8 C 7.26 g/m*3 7.8 C 0 km/h
1293 18-10-2011 18:40:01 7.6 C 7.17 g/m*3 7.6 C 0 km/h
1294 18-10-2011 18:52:02 7.6 C 7.17 g/m*3 7.6 C 0 km/h
1295 18-10-2011 19:04:01 7.5 C 7.12 g/m*3 7.5 C 0 km/h
1296 18-10-2011 19:16:02 7.5 C 7.12 g/m*3 7.5 C 0 km/h
1297 18-10-2011 19:28:03 7.5 C 7.12 g/m*3 7.5 C 0 km/h
1298 18-10-2011 19:40:01 7.7 C 7.14 g/m*3 7.7 C 0 km/h
1299 18-10-2011 19:52:02 7.7 C 7.14 g/m*3 7.7 C 0 km/h
1300 18-10-2011 20:04:02 7.6 C 7.09 g/m*3 7.6 C 0 km/h
Sensor: Nr:Datum:Temp:Abs-Feuchte:Windchill:Wind:
Aussen-T/F 1301 18-10-2011 20:16:02 7.6 C 7.01 g/m*3 7.6 C 0 km/h
1302 18-10-2011 20:28:02 7.6 C 6.93 g/m*3 7.6 C 0 km/h
1303 18-10-2011 20:40:02 7.5 C 6.8 g/m*3 7.5 C 0 km/h
1304 18-10-2011 20:52:02 7.4 C 6.84 g/m*3 7.4 C 0 km/h
1305 18-10-2011 21:04:02 7.5 C 6.88 g/m*3 7.5 C 0 km/h
1306 18-10-2011 21:16:01 7.5 C 6.88 g/m*3 7.5 C 0 km/h
1307 18-10-2011 21:28:01 7.4 C 6.92 g/m*3 7.4 C 0 km/h
1308 18-10-2011 21:40:02 7.3 C 6.87 g/m*3 7.3 C 0 km/h
1309 18-10-2011 21:52:02 7.3 C 6.87 g/m*3 7.3 C 0 km/h
1310 18-10-2011 22:05:03 7.4 C 6.92 g/m*3 7.4 C 0 km/h
1311 18-10-2011 22:17:03 7.4 C 6.84 g/m*3 7.4 C 0 km/h
1312 18-10-2011 22:29:03 7.3 C 6.72 g/m*3 7.3 C 0 km/h
1313 18-10-2011 22:41:03 7.4 C 6.68 g/m*3 7.4 C 0 km/h
1314 18-10-2011 22:53:03 7.7 C 6.73 g/m*3 7.7 C 0 km/h
1315 18-10-2011 23:05:03 7.6 C 6.61 g/m*3 7.6 C 0 km/h
1316 18-10-2011 23:17:03 7.7 C 6.57 g/m*3 7.7 C 0 km/h
1317 18-10-2011 23:29:03 7.6 C 6.53 g/m*3 7.6 C 0 km/h
1318 18-10-2011 23:41:03 7.7 C 6.57 g/m*3 7.7 C 0 km/h
1319 18-10-2011 23:53:03 7.8 C 6.53 g/m*3 7.8 C 0 km/h
1320 19-10-2011 00:05:03 7.9 C 6.49 g/m*3 7.9 C 0 km/h
1321 19-10-2011 00:17:03 7.8 C 6.45 g/m*3 7.8 C 0 km/h
1322 19-10-2011 00:29:03 7.6 C 6.53 g/m*3 7.6 C 0 km/h
1323 19-10-2011 00:41:03 7.9 C 6.49 g/m*3 7.9 C 0 km/h
1324 19-10-2011 00:53:03 7.8 C 6.45 g/m*3 7.8 C 0 km/h
1325 19-10-2011 01:05:04 7.8 C 6.53 g/m*3 7.8 C 0 km/h
Sensor: Nr:Datum:Temp:Abs-Feuchte:Windchill:Wind:
Aussen-T/F 1326 19-10-2011 01:17:04 7.7 C 6.49 g/m*3 7.7 C 0 km/h
1327 19-10-2011 01:29:04 8.1 C 6.49 g/m*3 8.1 C 0 km/h
1328 19-10-2011 01:41:04 8 C 6.37 g/m*3 8 C 0 km/h
1329 19-10-2011 01:53:04 7.7 C 6.49 g/m*3 7.7 C 0 km/h
1330 19-10-2011 02:05:04 7.7 C 6.57 g/m*3 7.7 C 0 km/h
1331 19-10-2011 02:17:04 7.8 C 6.53 g/m*3 7.8 C 0 km/h
1332 19-10-2011 02:29:04 7.7 C 6.57 g/m*3 7.7 C 0 km/h
1333 19-10-2011 02:41:04 7.6 C 6.61 g/m*3 7.6 C 0 km/h
1334 19-10-2011 02:53:04 7.7 C 6.65 g/m*3 7.7 C 0 km/h
1335 19-10-2011 03:05:04 7.8 C 6.69 g/m*3 7.8 C 0 km/h
1336 19-10-2011 03:17:04 7.8 C 6.53 g/m*3 7.8 C 0 km/h
1337 19-10-2011 03:29:04 7.8 C 6.37 g/m*3 7.8 C 0 km/h
1338 19-10-2011 03:41:04 7.9 C 6.32 g/m*3 7.9 C 0 km/h
1339 19-10-2011 03:53:04 7.7 C 6.16 g/m*3 7.7 C 0 km/h
1340 19-10-2011 04:05:04 7.4 C 6.28 g/m*3 7.4 C 0 km/h
1341 19-10-2011 04:17:04 7.3 C 6.32 g/m*3 7.3 C 0 km/h
1342 19-10-2011 04:29:04 7.3 C 6.24 g/m*3 7.3 C 0 km/h
1343 19-10-2011 04:41:04 7.8 C 6.12 g/m*3 7.8 C 0 km/h
1344 19-10-2011 04:53:04 7.8 C 5.88 g/m*3 7.8 C 0 km/h
1345 19-10-2011 05:05:04 7.8 C 5.88 g/m*3 7.8 C 0 km/h
1346 19-10-2011 05:17:04 7.9 C 5.91 g/m*3 7.9 C 0 km/h
1347 19-10-2011 05:29:04 7.8 C 5.88 g/m*3 7.8 C 0 km/h
1348 19-10-2011 05:41:05 7.7 C 5.84 g/m*3 7.7 C 0 km/h
1349 19-10-2011 05:53:05 7.3 C 5.93 g/m*3 7.3 C 0 km/h
1350 19-10-2011 06:05:05 7.5 C 5.92 g/m*3 7.5 C 0 km/h
Sensor: Nr:Datum:Temp:Abs-Feuchte:Windchill:Wind:
Aussen-T/F 1351 19-10-2011 06:17:05 7.5 C 5.84 g/m*3 7.5 C 0 km/h
1352 19-10-2011 06:29:05 7.3 C 5.77 g/m*3 7.3 C 0 km/h
1353 19-10-2011 06:41:05 7.4 C 5.81 g/m*3 7.4 C 0 km/h
1354 19-10-2011 06:53:05 7.4 C 5.81 g/m*3 7.4 C 0 km/h
1355 19-10-2011 07:05:05 7.3 C 5.85 g/m*3 7.3 C 0 km/h
1356 19-10-2011 07:17:02 7.3 C 5.77 g/m*3 7.3 C 0 km/h
1357 19-10-2011 07:29:02 7.3 C 5.77 g/m*3 7.3 C 0 km/h
1358 19-10-2011 07:41:02 7.2 C 5.73 g/m*3 7.2 C 0 km/h
1359 19-10-2011 07:53:02 7.2 C 5.73 g/m*3 7.2 C 0 km/h
1360 19-10-2011 08:05:02 7.4 C 5.73 g/m*3 7.4 C 0 km/h
1361 19-10-2011 08:17:01 7.5 C 5.68 g/m*3 7.5 C 0 km/h
1362 19-10-2011 08:29:01 7.7 C 5.68 g/m*3 7.7 C 0 km/h
1363 19-10-2011 08:41:02 7.7 C 5.76 g/m*3 7.7 C 0 km/h
1364 19-10-2011 08:53:02 7.8 C 5.79 g/m*3 7.8 C 0 km/h
1365 19-10-2011 09:05:02 7.7 C 5.76 g/m*3 7.7 C 0 km/h
1366 19-10-2011 09:17:01 7.7 C 5.76 g/m*3 7.7 C 0 km/h
1367 19-10-2011 09:29:01 7.9 C 5.75 g/m*3 7.9 C 0 km/h
1368 19-10-2011 09:41:02 8.1 C 5.74 g/m*3 8.1 C 0 km/h
1369 19-10-2011 09:53:01 8.1 C 5.66 g/m*3 8.1 C 0 km/h
1370 19-10-2011 10:05:02 8.2 C 5.69 g/m*3 8.2 C 0 km/h
1371 19-10-2011 10:17:02 8.5 C 5.81 g/m*3 8.5 C 0 km/h
1372 19-10-2011 10:29:02 8.8 C 5.74 g/m*3 8.8 C 0 km/h
1373 19-10-2011 10:41:02 8.8 C 5.66 g/m*3 8.8 C 0 km/h
1374 19-10-2011 10:53:02 8.9 C 5.78 g/m*3 8.9 C 0 km/h
1375 19-10-2011 11:05:01 9 C 5.82 g/m*3 9 C 0 km/h
Sensor: Nr:Datum:Temp:Abs-Feuchte:Windchill:Wind:
Aussen-T/F 1376 19-10-2011 11:17:02 9.1 C 5.68 g/m*3 9.1 C 0 km/h
1377 19-10-2011 11:29:02 9.1 C 5.59 g/m*3 9.1 C 0 km/h
1378 19-10-2011 11:41:01 9.4 C 5.61 g/m*3 9.4 C 0 km/h
1379 19-10-2011 11:53:01 9.6 C 5.59 g/m*3 9.6 C 0 km/h
1380 19-10-2011 12:05:01 10.3 C 5.55 g/m*3 10.3 C 0 km/h
1381 19-10-2011 12:17:01 10 C 5.45 g/m*3 10 C 0 km/h
1382 19-10-2011 12:29:01 10.3 C 5.46 g/m*3 10.3 C 0 km/h
1383 19-10-2011 12:41:02 10.7 C 5.5 g/m*3 10.7 C 0 km/h
1384 19-10-2011 12:53:02 11 C 5.51 g/m*3 11 C 0 km/h
1385 19-10-2011 13:05:02 10.6 C 5.56 g/m*3 10.6 C 0 km/h
1386 19-10-2011 13:17:01 11.4 C 5.44 g/m*3 11.4 C 0 km/h
1387 19-10-2011 13:29:01 11.4 C 5.34 g/m*3 11.4 C 0 km/h
1388 19-10-2011 13:41:02 10.6 C 6.15 g/m*3 10.6 C 0 km/h
1389 19-10-2011 13:53:02 10.7 C 5.7 g/m*3 10.7 C 0 km/h
1390 19-10-2011 14:05:03 10.7 C 5.7 g/m*3 10.7 C 0 km/h
1391 19-10-2011 14:17:02 11 C 5.71 g/m*3 11 C 0 km/h
1392 19-10-2011 14:29:02 11.6 C 5.72 g/m*3 11.6 C 0 km/h
1393 19-10-2011 14:41:02 11.4 C 5.34 g/m*3 11.4 C 0 km/h
1394 19-10-2011 14:53:01 11.4 C 5.54 g/m*3 11.4 C 0 km/h
1395 19-10-2011 15:05:02 12 C 5.54 g/m*3 12 C 0 km/h
1396 19-10-2011 15:17:01 12.7 C 5.23 g/m*3 12.7 C 0 km/h
1397 19-10-2011 15:29:01 12 C 5.01 g/m*3 12 C 0 km/h
1398 19-10-2011 15:41:02 12.5 C 5.17 g/m*3 12.5 C 0 km/h
1399 19-10-2011 15:53:01 13.1 C 5.14 g/m*3 13.1 C 0 km/h
1400 19-10-2011 16:05:02 12.5 C 5.28 g/m*3 12.5 C 0 km/h
Sensor: Nr:Datum:Temp:Abs-Feuchte:Windchill:Wind:
Aussen-T/F 1401 19-10-2011 16:17:02 12 C 5.12 g/m*3 12 C 0 km/h
1402 19-10-2011 16:29:02 11.9 C 5.19 g/m*3 11.9 C 0 km/h
1403 19-10-2011 16:41:01 11.2 C 5.27 g/m*3 11.2 C 0 km/h
1404 19-10-2011 16:53:02 9.8 C 5.66 g/m*3 9.8 C 0 km/h
1405 19-10-2011 17:05:01 9 C 6.17 g/m*3 9 C 0 km/h
1406 19-10-2011 17:17:02 9.2 C 6.25 g/m*3 9.2 C 0 km/h
1407 19-10-2011 17:29:02 9.8 C 6.12 g/m*3 9.8 C 0 km/h
1408 19-10-2011 17:41:01 10.4 C 5.3 g/m*3 10.4 C 0 km/h
1409 19-10-2011 17:53:02 9.8 C 5.1 g/m*3 9.8 C 0 km/h
1410 19-10-2011 18:05:02 8.1 C 5.41 g/m*3 8.1 C 0 km/h
1411 19-10-2011 18:17:02 7.7 C 5.51 g/m*3 7.7 C 0 km/h
1412 19-10-2011 18:29:02 7 C 5.42 g/m*3 7 C 0 km/h
1413 19-10-2011 18:41:02 6.7 C 5.7 g/m*3 6.7 C 0 km/h
1414 19-10-2011 18:53:01 6.5 C 5.7 g/m*3 6.5 C 0 km/h
1415 19-10-2011 19:05:02 6.5 C 5.7 g/m*3 6.5 C 0 km/h
1416 19-10-2011 19:17:01 7 C 5.81 g/m*3 7 C 0 km/h
1417 19-10-2011 19:29:01 7.5 C 5.76 g/m*3 7.5 C 0 km/h
1418 19-10-2011 19:41:02 7.1 C 5.69 g/m*3 7.1 C 0 km/h
1419 19-10-2011 19:53:01 6.7 C 5.93 g/m*3 6.7 C 0 km/h
1420 19-10-2011 20:05:02 6.2 C 5.88 g/m*3 6.2 C 0 km/h
1421 19-10-2011 20:17:02 6.1 C 5.92 g/m*3 6.1 C 0 km/h
1422 19-10-2011 20:29:02 6.2 C 6.03 g/m*3 6.2 C 0 km/h
1423 19-10-2011 20:41:02 6.3 C 6.07 g/m*3 6.3 C 0 km/h
1424 19-10-2011 20:53:02 6.3 C 6.14 g/m*3 6.3 C 0 km/h
1425 19-10-2011 21:05:01 6.5 C 6.3 g/m*3 6.5 C 0 km/h
Sensor: Nr:Datum:Temp:Abs-Feuchte:Windchill:Wind:
Aussen-T/F 1426 19-10-2011 21:17:02 6 C 6.02 g/m*3 6 C 0 km/h
1427 19-10-2011 21:29:02 5.6 C 5.87 g/m*3 5.6 C 0 km/h
1428 19-10-2011 21:41:01 5 C 5.71 g/m*3 5 C 0 km/h
1429 19-10-2011 21:53:02 5 C 5.78 g/m*3 5 C 0 km/h
1430 19-10-2011 22:05:01 5.3 C 5.96 g/m*3 5.3 C 0 km/h
1431 19-10-2011 22:17:02 4.8 C 5.77 g/m*3 4.8 C 0 km/h
1432 19-10-2011 22:29:02 5.3 C 5.96 g/m*3 5.3 C 0 km/h
1433 19-10-2011 22:41:01 5 C 5.84 g/m*3 5 C 0 km/h
1434 19-10-2011 22:53:01 5 C 5.78 g/m*3 5 C 0 km/h
1435 19-10-2011 23:05:01 5.1 C 5.88 g/m*3 5.1 C 0 km/h
1436 19-10-2011 23:17:02 5.3 C 5.89 g/m*3 5.3 C 0 km/h
1437 19-10-2011 23:29:02 5.2 C 5.78 g/m*3 5.2 C 0 km/h
1438 19-10-2011 23:41:01 4.8 C 5.7 g/m*3 4.8 C 0 km/h
1439 19-10-2011 23:53:02 5.2 C 5.85 g/m*3 5.2 C 0 km/h
1440 20-10-2011 00:05:02 5.4 C 5.86 g/m*3 5.4 C 0 km/h
1441 20-10-2011 00:17:02 5.7 C 5.91 g/m*3 5.7 C 0 km/h
1442 20-10-2011 00:29:02 5.9 C 5.91 g/m*3 5.9 C 0 km/h
1443 20-10-2011 00:41:02 6.1 C 5.84 g/m*3 6.1 C 0 km/h
1444 20-10-2011 00:53:02 6 C 5.66 g/m*3 6 C 0 km/h
1445 20-10-2011 01:05:02 6 C 5.73 g/m*3 6 C 0 km/h
1446 20-10-2011 01:17:02 6.2 C 5.66 g/m*3 6.2 C 0 km/h
1447 20-10-2011 01:29:03 5.8 C 5.66 g/m*3 5.8 C 0 km/h
1448 20-10-2011 01:41:02 5.7 C 5.55 g/m*3 5.7 C 0 km/h
1449 20-10-2011 01:53:02 5.7 C 5.48 g/m*3 5.7 C 0 km/h
1450 20-10-2011 02:05:01 5.7 C 5.41 g/m*3 5.7 C 0 km/h
Sensor: Nr:Datum:Temp:Abs-Feuchte:Windchill:Wind:
Aussen-T/F 1451 20-10-2011 02:17:02 5.4 C 5.3 g/m*3 5.4 C 0 km/h
1452 20-10-2011 02:29:02 5.1 C 5.34 g/m*3 5.1 C 0 km/h
1453 20-10-2011 02:41:02 4.3 C 5.32 g/m*3 4.3 C 0 km/h
1454 20-10-2011 02:54:04 3.5 C 5.16 g/m*3 3.5 C 0 km/h
1455 20-10-2011 03:06:04 3.3 C 5.16 g/m*3 3.3 C 0 km/h
1456 20-10-2011 03:18:04 2.8 C 5.1 g/m*3 2.8 C 0 km/h
1457 20-10-2011 03:30:04 2.5 C 5.06 g/m*3 2.5 C 0 km/h
1458 20-10-2011 03:42:01 2.6 C 5.15 g/m*3 2.6 C 0 km/h
1459 20-10-2011 03:54:02 3.8 C 5.58 g/m*3 3.8 C 0 km/h
1460 20-10-2011 04:06:01 4.2 C 5.61 g/m*3 4.2 C 0 km/h
1461 20-10-2011 04:18:01 4.1 C 5.44 g/m*3 4.1 C 0 km/h
1462 20-10-2011 04:30:01 4.3 C 5.45 g/m*3 4.3 C 0 km/h
1463 20-10-2011 04:42:02 3.9 C 5.31 g/m*3 3.9 C 0 km/h
1464 20-10-2011 04:54:02 3.3 C 5.16 g/m*3 3.3 C 0 km/h
1465 20-10-2011 05:06:02 3.1 C 5.15 g/m*3 3.1 C 0 km/h
1466 20-10-2011 05:18:02 3.9 C 5.56 g/m*3 3.9 C 0 km/h
1467 20-10-2011 05:30:02 4.2 C 5.61 g/m*3 4.2 C 0 km/h
1468 20-10-2011 05:42:02 4.3 C 5.58 g/m*3 4.3 C 0 km/h
1469 20-10-2011 05:54:02 4.3 C 5.58 g/m*3 4.3 C 0 km/h
1470 20-10-2011 06:06:02 4.5 C 5.59 g/m*3 4.5 C 0 km/h
1471 20-10-2011 06:18:02 4.6 C 5.56 g/m*3 4.6 C 0 km/h
1472 20-10-2011 06:30:02 4.8 C 5.63 g/m*3 4.8 C 0 km/h
1473 20-10-2011 06:42:02 4.8 C 5.57 g/m*3 4.8 C 0 km/h
1474 20-10-2011 06:54:02 4.8 C 5.57 g/m*3 4.8 C 0 km/h
1475 20-10-2011 07:06:02 4.8 C 5.57 g/m*3 4.8 C 0 km/h
Sensor: Nr:Datum:Temp:Abs-Feuchte:Windchill:Wind:
Aussen-T/F 1476 20-10-2011 07:18:02 4.8 C 5.57 g/m*3 4.8 C 0 km/h
1477 20-10-2011 07:30:02 4.6 C 5.49 g/m*3 4.6 C 0 km/h
1478 20-10-2011 07:42:02 4.6 C 5.56 g/m*3 4.6 C 0 km/h
1479 20-10-2011 07:54:02 4.7 C 5.6 g/m*3 4.7 C 0 km/h
1480 20-10-2011 08:06:02 4.5 C 5.52 g/m*3 4.5 C 0 km/h
1481 20-10-2011 08:18:02 4.4 C 5.55 g/m*3 4.4 C 0 km/h
1482 20-10-2011 08:30:03 4.8 C 5.7 g/m*3 4.8 C 0 km/h
1483 20-10-2011 08:42:01 5.1 C 5.61 g/m*3 5.1 C 0 km/h
1484 20-10-2011 08:54:02 5 C 5.44 g/m*3 5 C 0 km/h
1485 20-10-2011 09:06:01 4.4 C 5.29 g/m*3 4.4 C 0 km/h
1486 20-10-2011 09:18:01 3.8 C 5.27 g/m*3 3.8 C 0 km/h
1487 20-10-2011 09:30:01 3.8 C 5.4 g/m*3 3.8 C 0 km/h
1488 20-10-2011 09:42:02 4.1 C 5.5 g/m*3 4.1 C 0 km/h
1489 20-10-2011 09:54:02 4.1 C 5.57 g/m*3 4.1 C 0 km/h
1490 20-10-2011 10:06:02 4.2 C 5.61 g/m*3 4.2 C 0 km/h
1491 20-10-2011 10:18:01 4.4 C 5.75 g/m*3 4.4 C 0 km/h
1492 20-10-2011 10:30:01 5.4 C 5.93 g/m*3 5.4 C 0 km/h
1493 20-10-2011 10:42:02 5.9 C 5.84 g/m*3 5.9 C 0 km/h
1494 20-10-2011 10:54:02 7 C 5.58 g/m*3 7 C 0 km/h
1495 20-10-2011 11:06:02 7.5 C 5.36 g/m*3 7.5 C 0 km/h
1496 20-10-2011 11:18:01 7.1 C 5.3 g/m*3 7.1 C 0 km/h
1497 20-10-2011 11:30:01 8 C 5.37 g/m*3 8 C 0 km/h
1498 20-10-2011 11:42:02 8.6 C 5.16 g/m*3 8.6 C 0 km/h
1499 20-10-2011 11:54:01 8.7 C 5.1 g/m*3 8.7 C 0 km/h
1500 20-10-2011 12:06:02 9.2 C 5 g/m*3 9.2 C 0 km/h
Sensor: Nr:Datum:Temp:Abs-Feuchte:Windchill:Wind:
Aussen-T/F 1501 20-10-2011 12:18:02 9.1 C 5.15 g/m*3 9.1 C 0 km/h
1502 20-10-2011 12:30:02 8.4 C 5.17 g/m*3 8.4 C 0 km/h
1503 20-10-2011 12:42:02 9.4 C 5.25 g/m*3 9.4 C 0 km/h
1504 20-10-2011 12:54:02 9.1 C 5.06 g/m*3 9.1 C 0 km/h
1505 20-10-2011 13:06:01 9.1 C 5.06 g/m*3 9.1 C 0 km/h
1506 20-10-2011 13:18:02 10 C 4.98 g/m*3 10 C 0 km/h
1507 20-10-2011 13:30:02 13.1 C 5.14 g/m*3 13.1 C 0 km/h
1508 20-10-2011 13:42:01 11 C 4.8 g/m*3 11 C 0 km/h
1509 20-10-2011 13:54:02 8.9 C 5.17 g/m*3 8.9 C 0 km/h
1510 20-10-2011 14:06:02 7.6 C 5.64 g/m*3 7.6 C 0 km/h
1511 20-10-2011 14:18:02 7.2 C 5.89 g/m*3 7.2 C 0 km/h
1512 20-10-2011 14:30:02 7.1 C 6.32 g/m*3 7.1 C 0 km/h
1513 20-10-2011 14:42:02 7.3 C 6.64 g/m*3 7.3 C 0 km/h
1514 20-10-2011 14:54:02 7.7 C 6.89 g/m*3 7.7 C 0 km/h
1515 20-10-2011 15:06:02 8.4 C 7.13 g/m*3 8.4 C 0 km/h
1516 20-10-2011 15:18:01 9 C 6.17 g/m*3 9 C 0 km/h
1517 20-10-2011 15:30:01 8.7 C 5.88 g/m*3 8.7 C 0 km/h
1518 20-10-2011 15:42:02 7.9 C 6.32 g/m*3 7.9 C 0 km/h
1519 20-10-2011 15:54:01 7.5 C 6.4 g/m*3 7.5 C 0 km/h
1520 20-10-2011 16:06:02 7.4 C 6.52 g/m*3 7.4 C 0 km/h
1521 20-10-2011 16:18:02 9 C 6.88 g/m*3 9 C 0 km/h
1522 20-10-2011 16:30:02 9.8 C 6.12 g/m*3 9.8 C 0 km/h
1523 20-10-2011 16:42:02 10.4 C 5.98 g/m*3 10.4 C 0 km/h
1524 20-10-2011 16:54:01 10.1 C 5.67 g/m*3 10.1 C 0 km/h
1525 20-10-2011 17:06:02 9.6 C 5.59 g/m*3 9.6 C 0 km/h
Sensor: Nr:Datum:Temp:Abs-Feuchte:Windchill:Wind:
Aussen-T/F 1526 20-10-2011 17:18:02 8.5 C 5.72 g/m*3 8.5 C 0 km/h
1527 20-10-2011 17:30:02 8.1 C 6.16 g/m*3 8.1 C 0 km/h
1528 20-10-2011 17:42:01 7.7 C 6.32 g/m*3 7.7 C 0 km/h
1529 20-10-2011 17:54:02 6.9 C 6.16 g/m*3 6.9 C 0 km/h
1530 20-10-2011 18:06:01 6.6 C 6.04 g/m*3 6.6 C 0 km/h
1531 20-10-2011 18:18:02 6.3 C 6 g/m*3 6.3 C 0 km/h
1532 20-10-2011 18:30:02 6.1 C 5.92 g/m*3 6.1 C 0 km/h
1533 20-10-2011 18:42:02 5.5 C 5.83 g/m*3 5.5 C 0 km/h
1534 20-10-2011 18:54:02 5.2 C 5.85 g/m*3 5.2 C 0 km/h
1535 20-10-2011 19:06:02 5.1 C 5.88 g/m*3 5.1 C 0 km/h
1536 20-10-2011 19:18:02 5 C 5.84 g/m*3 5 C 0 km/h
1537 20-10-2011 19:30:02 5 C 5.91 g/m*3 5 C 0 km/h
1538 20-10-2011 19:42:02 4.5 C 5.78 g/m*3 4.5 C 0 km/h
1539 20-10-2011 19:54:01 3.8 C 5.58 g/m*3 3.8 C 0 km/h
1540 20-10-2011 20:06:02 3.4 C 5.37 g/m*3 3.4 C 0 km/h
1541 20-10-2011 20:18:01 3.4 C 5.37 g/m*3 3.4 C 0 km/h
1542 20-10-2011 20:30:01 3.1 C 5.33 g/m*3 3.1 C 0 km/h
1543 20-10-2011 20:42:01 3.7 C 5.55 g/m*3 3.7 C 0 km/h
1544 20-10-2011 20:54:01 3.4 C 5.5 g/m*3 3.4 C 0 km/h
1545 20-10-2011 21:06:02 2.4 C 5.14 g/m*3 2.4 C 0 km/h
1546 20-10-2011 21:18:02 2.1 C 5.04 g/m*3 2.1 C 0 km/h
1547 20-10-2011 21:30:02 2.2 C 5.07 g/m*3 2.2 C 0 km/h
1548 20-10-2011 21:42:01 2.2 C 5.07 g/m*3 2.2 C 0 km/h
1549 20-10-2011 21:54:02 2 C 5 g/m*3 2 C 0 km/h
1550 20-10-2011 22:06:01 2 C 5 g/m*3 2 C 0 km/h
Sensor: Nr:Datum:Temp:Abs-Feuchte:Windchill:Wind:
Aussen-T/F 1551 20-10-2011 22:18:02 1.7 C 4.95 g/m*3 1.7 C 0 km/h
1552 20-10-2011 22:30:02 1.5 C 4.89 g/m*3 1.5 C 0 km/h
1553 20-10-2011 22:43:02 1.4 C 4.85 g/m*3 1.4 C 0 km/h
1554 20-10-2011 22:55:02 1.3 C 4.82 g/m*3 1.3 C 0 km/h
1555 20-10-2011 23:07:02 1.1 C 4.76 g/m*3 1.1 C 0 km/h
1556 20-10-2011 23:19:02 1 C 4.72 g/m*3 1 C 0 km/h
1557 20-10-2011 23:31:02 0.7 C 4.63 g/m*3 0.7 C 0 km/h
1558 20-10-2011 23:43:03 0.9 C 4.69 g/m*3 0.9 C 0 km/h
1559 20-10-2011 23:55:03 0.6 C 4.6 g/m*3 0.6 C 0 km/h
1560 21-10-2011 00:07:03 0.5 C 4.56 g/m*3 0.5 C 0 km/h
1561 21-10-2011 00:19:03 0.5 C 4.56 g/m*3 0.5 C 0 km/h
1562 21-10-2011 00:31:03 0.3 C 4.5 g/m*3 0.3 C 0 km/h
1563 21-10-2011 00:43:03 0.4 C 4.53 g/m*3 0.4 C 0 km/h
1564 21-10-2011 00:55:03 0.5 C 4.61 g/m*3 0.5 C 0 km/h
1565 21-10-2011 01:07:03 0.1 C 4.49 g/m*3 0.1 C 0 km/h
1566 21-10-2011 01:19:03 -0.1 C 4.38 g/m*3 -0.1 C 0 km/h
1567 21-10-2011 01:31:03 -0.2 C 4.35 g/m*3 -0.2 C 0 km/h
1568 21-10-2011 01:43:03 0.7 C 4.68 g/m*3 0.7 C 0 km/h
1569 21-10-2011 01:55:03 0.8 C 4.71 g/m*3 0.8 C 0 km/h
1570 21-10-2011 02:07:03 1.7 C 5.01 g/m*3 1.7 C 0 km/h
1571 21-10-2011 02:19:03 2.4 C 5.25 g/m*3 2.4 C 0 km/h
1572 21-10-2011 02:31:03 2.6 C 5.38 g/m*3 2.6 C 0 km/h
1573 21-10-2011 02:43:03 2.7 C 5.42 g/m*3 2.7 C 0 km/h
1574 21-10-2011 02:55:03 2.6 C 5.38 g/m*3 2.6 C 0 km/h
1575 21-10-2011 03:07:03 2.6 C 5.38 g/m*3 2.6 C 0 km/h
Sensor: Nr:Datum:Temp:Abs-Feuchte:Windchill:Wind:
Aussen-T/F 1576 21-10-2011 03:19:03 2.6 C 5.38 g/m*3 2.6 C 0 km/h
1577 21-10-2011 03:31:03 2.5 C 5.35 g/m*3 2.5 C 0 km/h
1578 21-10-2011 03:43:03 2.5 C 5.35 g/m*3 2.5 C 0 km/h
1579 21-10-2011 03:55:04 2.5 C 5.35 g/m*3 2.5 C 0 km/h
1580 21-10-2011 04:07:04 2.3 C 5.27 g/m*3 2.3 C 0 km/h
1581 21-10-2011 04:19:04 2.2 C 5.24 g/m*3 2.2 C 0 km/h
1582 21-10-2011 04:31:04 2.2 C 5.24 g/m*3 2.2 C 0 km/h
1583 21-10-2011 04:43:04 2.2 C 5.24 g/m*3 2.2 C 0 km/h
1584 21-10-2011 04:55:04 2 C 5.22 g/m*3 2 C 0 km/h
1585 21-10-2011 05:07:04 2.1 C 5.26 g/m*3 2.1 C 0 km/h
1586 21-10-2011 05:19:04 2.2 C 5.29 g/m*3 2.2 C 0 km/h
1587 21-10-2011 05:31:04 2.2 C 5.29 g/m*3 2.2 C 0 km/h
1588 21-10-2011 05:43:04 2.3 C 5.33 g/m*3 2.3 C 0 km/h
1589 21-10-2011 05:55:04 2.2 C 5.29 g/m*3 2.2 C 0 km/h
1590 21-10-2011 06:07:04 2.1 C 5.26 g/m*3 2.1 C 0 km/h
1591 21-10-2011 06:19:04 2.2 C 5.29 g/m*3 2.2 C 0 km/h
1592 21-10-2011 06:31:04 2.1 C 5.26 g/m*3 2.1 C 0 km/h
1593 21-10-2011 06:43:04 2 C 5.22 g/m*3 2 C 0 km/h
1594 21-10-2011 06:55:04 2 C 5.22 g/m*3 2 C 0 km/h
1595 21-10-2011 07:07:04 2 C 5.22 g/m*3 2 C 0 km/h
1596 21-10-2011 07:19:04 2 C 5.22 g/m*3 2 C 0 km/h
1597 21-10-2011 07:31:04 1.9 C 5.19 g/m*3 1.9 C 0 km/h
1598 21-10-2011 07:43:04 1.9 C 5.19 g/m*3 1.9 C 0 km/h
1599 21-10-2011 07:55:02 1.7 C 5.12 g/m*3 1.7 C 0 km/h
1600 21-10-2011 08:07:02 1.7 C 5.12 g/m*3 1.7 C 0 km/h
Sensor: Nr:Datum:Temp:Abs-Feuchte:Windchill:Wind:
Aussen-T/F 1601 21-10-2011 08:19:01 1.8 C 5.21 g/m*3 1.8 C 0 km/h
1602 21-10-2011 08:31:02 2 C 5.22 g/m*3 2 C 0 km/h
1603 21-10-2011 08:43:02 1.9 C 5.24 g/m*3 1.9 C 0 km/h
1604 21-10-2011 08:55:02 1.9 C 5.24 g/m*3 1.9 C 0 km/h
1605 21-10-2011 09:07:02 2 C 5.22 g/m*3 2 C 0 km/h
1606 21-10-2011 09:19:02 2.1 C 5.26 g/m*3 2.1 C 0 km/h
1607 21-10-2011 09:31:02 1.9 C 5.24 g/m*3 1.9 C 0 km/h
1608 21-10-2011 09:43:02 1.9 C 5.24 g/m*3 1.9 C 0 km/h
1609 21-10-2011 09:55:02 2 C 5.22 g/m*3 2 C 0 km/h
1610 21-10-2011 10:07:02 2.1 C 5.26 g/m*3 2.1 C 0 km/h
1611 21-10-2011 10:19:02 2.1 C 5.26 g/m*3 2.1 C 0 km/h
1612 21-10-2011 10:31:01 2.2 C 5.29 g/m*3 2.2 C 0 km/h
1613 21-10-2011 10:43:01 2.4 C 5.37 g/m*3 2.4 C 0 km/h
1614 21-10-2011 10:55:02 2.5 C 5.4 g/m*3 2.5 C 0 km/h
1615 21-10-2011 11:07:01 2.9 C 5.55 g/m*3 2.9 C 0 km/h
1616 21-10-2011 11:19:02 3.1 C 5.57 g/m*3 3.1 C 0 km/h
1617 21-10-2011 11:31:02 3.5 C 5.72 g/m*3 3.5 C 0 km/h
1618 21-10-2011 11:43:02 3.4 C 5.68 g/m*3 3.4 C 0 km/h
1619 21-10-2011 11:55:02 4.1 C 5.89 g/m*3 4.1 C 0 km/h
1620 21-10-2011 12:07:03 4.3 C 5.9 g/m*3 4.3 C 0 km/h
1621 21-10-2011 12:19:02 4.4 C 5.81 g/m*3 4.4 C 0 km/h
1622 21-10-2011 12:31:02 4.6 C 5.82 g/m*3 4.6 C 0 km/h
1623 21-10-2011 12:43:03 4.8 C 5.83 g/m*3 4.8 C 0 km/h
1624 21-10-2011 12:55:01 4.6 C 5.62 g/m*3 4.6 C 0 km/h
1625 21-10-2011 13:07:02 4.8 C 5.57 g/m*3 4.8 C 0 km/h
Sensor: Nr:Datum:Temp:Abs-Feuchte:Windchill:Wind:
Aussen-T/F 1626 21-10-2011 13:19:01 5.7 C 5.69 g/m*3 5.7 C 0 km/h
1627 21-10-2011 13:31:01 5.7 C 5.62 g/m*3 5.7 C 0 km/h
1628 21-10-2011 13:43:01 6.8 C 5.66 g/m*3 6.8 C 0 km/h
1629 21-10-2011 13:55:01 7 C 5.58 g/m*3 7 C 0 km/h
1630 21-10-2011 14:07:01 6.8 C 5.58 g/m*3 6.8 C 0 km/h
1631 21-10-2011 14:19:02 6.1 C 5.48 g/m*3 6.1 C 0 km/h
1632 21-10-2011 14:31:01 5.9 C 5.7 g/m*3 5.9 C 0 km/h
1633 21-10-2011 14:43:01 6.5 C 6.07 g/m*3 6.5 C 0 km/h
1634 21-10-2011 14:55:02 6.3 C 5.92 g/m*3 6.3 C 0 km/h
1635 21-10-2011 15:07:01 6.3 C 5.92 g/m*3 6.3 C 0 km/h
1636 21-10-2011 15:19:01 6.5 C 6.07 g/m*3 6.5 C 0 km/h
1637 21-10-2011 15:31:02 6.8 C 6.19 g/m*3 6.8 C 0 km/h
1638 21-10-2011 15:43:02 6.7 C 6.15 g/m*3 6.7 C 0 km/h
1639 21-10-2011 15:55:02 6.8 C 6.27 g/m*3 6.8 C 0 km/h
1640 21-10-2011 16:07:02 7 C 6.28 g/m*3 7 C 0 km/h
1641 21-10-2011 16:19:02 7 C 6.28 g/m*3 7 C 0 km/h
1642 21-10-2011 16:31:02 7.1 C 6.32 g/m*3 7.1 C 0 km/h
1643 21-10-2011 16:43:02 7.4 C 6.52 g/m*3 7.4 C 0 km/h
1644 21-10-2011 16:55:02 9.8 C 6.77 g/m*3 9.8 C 0 km/h
1645 21-10-2011 17:07:02 10.5 C 5.92 g/m*3 10.5 C 0 km/h
1646 21-10-2011 17:19:02 10.4 C 5.78 g/m*3 10.4 C 0 km/h
1647 21-10-2011 17:31:02 10.3 C 5.84 g/m*3 10.3 C 0 km/h
1648 21-10-2011 17:43:02 10.2 C 5.9 g/m*3 10.2 C 0 km/h
1649 21-10-2011 17:55:01 8.1 C 5.41 g/m*3 8.1 C 0 km/h
1650 21-10-2011 18:07:01 5.9 C 5.34 g/m*3 5.9 C 0 km/h
Sensor: Nr:Datum:Temp:Abs-Feuchte:Windchill:Wind:
Aussen-T/F 1651 21-10-2011 18:19:02 5.1 C 5.4 g/m*3 5.1 C 0 km/h
1652 21-10-2011 18:31:01 4.3 C 5.25 g/m*3 4.3 C 0 km/h
1653 21-10-2011 18:43:01 4 C 5.09 g/m*3 4 C 0 km/h
1654 21-10-2011 18:55:02 3.7 C 5.11 g/m*3 3.7 C 0 km/h
1655 21-10-2011 19:07:01 3.5 C 5.04 g/m*3 3.5 C 0 km/h
1656 21-10-2011 19:19:01 3.4 C 5.07 g/m*3 3.4 C 0 km/h
1657 21-10-2011 19:31:01 3.2 C 4.94 g/m*3 3.2 C 0 km/h
1658 21-10-2011 19:43:01 2.8 C 4.87 g/m*3 2.8 C 0 km/h
1659 21-10-2011 19:55:02 2.4 C 4.8 g/m*3 2.4 C 0 km/h
1660 21-10-2011 20:07:02 2 C 4.72 g/m*3 2 C 0 km/h
1661 21-10-2011 20:19:02 1.7 C 4.68 g/m*3 1.7 C 0 km/h
1662 21-10-2011 20:31:02 1.4 C 4.59 g/m*3 1.4 C 0 km/h
1663 21-10-2011 20:43:02 1.5 C 4.67 g/m*3 1.5 C 0 km/h
1664 21-10-2011 20:55:01 1.8 C 4.82 g/m*3 1.8 C 0 km/h
1665 21-10-2011 21:07:02 1.8 C 4.88 g/m*3 1.8 C 0 km/h
1666 21-10-2011 21:19:01 1.3 C 4.72 g/m*3 1.3 C 0 km/h
1667 21-10-2011 21:31:01 1.1 C 4.65 g/m*3 1.1 C 0 km/h
1668 21-10-2011 21:43:01 0.8 C 4.61 g/m*3 0.8 C 0 km/h
1669 21-10-2011 21:55:01 0.6 C 4.54 g/m*3 0.6 C 0 km/h
1670 21-10-2011 22:07:02 1.1 C 4.7 g/m*3 1.1 C 0 km/h
1671 21-10-2011 22:20:02 0.4 C 4.48 g/m*3 0.4 C 0 km/h
1672 21-10-2011 22:32:02 0.6 C 4.6 g/m*3 0.6 C 0 km/h
1673 21-10-2011 22:44:02 0.2 C 4.42 g/m*3 0.2 C 0 km/h
1674 21-10-2011 22:56:02 0.5 C 4.56 g/m*3 0.5 C 0 km/h
1675 21-10-2011 23:08:02 0.6 C 4.6 g/m*3 0.6 C 0 km/h
Sensor: Nr:Datum:Temp:Abs-Feuchte:Windchill:Wind:
Aussen-T/F 1676 21-10-2011 23:20:02 0.4 C 4.53 g/m*3 0.4 C 0 km/h
1677 21-10-2011 23:32:02 0.6 C 4.65 g/m*3 0.6 C 0 km/h
1678 21-10-2011 23:44:03 0.1 C 4.44 g/m*3 0.1 C 0 km/h
1679 21-10-2011 23:56:03 0.1 C 4.44 g/m*3 0.1 C 0 km/h
1680 22-10-2011 00:08:03 -0.3 C 4.32 g/m*3 -0.3 C 0 km/h
1681 22-10-2011 00:20:03 -0.2 C 4.35 g/m*3 -0.2 C 0 km/h
1682 22-10-2011 00:32:03 0.1 C 4.49 g/m*3 0.1 C 0 km/h
1683 22-10-2011 00:44:03 -0.3 C 4.37 g/m*3 -0.3 C 0 km/h
1684 22-10-2011 00:56:03 0.1 C 4.49 g/m*3 0.1 C 0 km/h
1685 22-10-2011 01:08:03 -0.2 C 4.4 g/m*3 -0.2 C 0 km/h
1686 22-10-2011 01:20:03 0.3 C 4.55 g/m*3 0.3 C 0 km/h
1687 22-10-2011 01:32:03 0.6 C 4.65 g/m*3 0.6 C 0 km/h
1688 22-10-2011 01:44:03 0.8 C 4.76 g/m*3 0.8 C 0 km/h
1689 22-10-2011 01:56:03 0.6 C 4.7 g/m*3 0.6 C 0 km/h
1690 22-10-2011 02:08:03 1 C 4.83 g/m*3 1 C 0 km/h
1691 22-10-2011 02:20:03 1.5 C 4.99 g/m*3 1.5 C 0 km/h
1692 22-10-2011 02:32:03 1.5 C 4.99 g/m*3 1.5 C 0 km/h
1693 22-10-2011 02:44:03 1.4 C 4.96 g/m*3 1.4 C 0 km/h
1694 22-10-2011 02:56:03 1.4 C 4.96 g/m*3 1.4 C 0 km/h
1695 22-10-2011 03:08:03 1.3 C 4.93 g/m*3 1.3 C 0 km/h
1696 22-10-2011 03:20:03 1.3 C 4.93 g/m*3 1.3 C 0 km/h
1697 22-10-2011 03:32:03 1.4 C 5.01 g/m*3 1.4 C 0 km/h
1698 22-10-2011 03:44:04 1.3 C 4.98 g/m*3 1.3 C 0 km/h
1699 22-10-2011 03:56:04 1.3 C 4.98 g/m*3 1.3 C 0 km/h
1700 22-10-2011 04:08:04 1.3 C 4.98 g/m*3 1.3 C 0 km/h
Sensor: Nr:Datum:Temp:Abs-Feuchte:Windchill:Wind:
Aussen-T/F 1701 22-10-2011 04:20:04 1.2 C 4.95 g/m*3 1.2 C 0 km/h
1702 22-10-2011 04:32:04 1.4 C 5.01 g/m*3 1.4 C 0 km/h
1703 22-10-2011 04:44:04 1.6 C 5.08 g/m*3 1.6 C 0 km/h
1704 22-10-2011 04:56:04 1.7 C 5.12 g/m*3 1.7 C 0 km/h
1705 22-10-2011 05:08:04 1.6 C 5.08 g/m*3 1.6 C 0 km/h
1706 22-10-2011 05:20:04 1.5 C 5.05 g/m*3 1.5 C 0 km/h
1707 22-10-2011 05:32:04 1.5 C 5.05 g/m*3 1.5 C 0 km/h
1708 22-10-2011 05:44:04 1.5 C 5.05 g/m*3 1.5 C 0 km/h
1709 22-10-2011 05:56:04 1.2 C 4.89 g/m*3 1.2 C 0 km/h
1710 22-10-2011 06:08:04 1.1 C 4.86 g/m*3 1.1 C 0 km/h
1711 22-10-2011 06:20:04 1.3 C 4.93 g/m*3 1.3 C 0 km/h
1712 22-10-2011 06:32:04 1.4 C 4.96 g/m*3 1.4 C 0 km/h
1713 22-10-2011 06:44:04 1.4 C 4.96 g/m*3 1.4 C 0 km/h
1714 22-10-2011 06:56:04 1.4 C 4.96 g/m*3 1.4 C 0 km/h
1715 22-10-2011 07:08:04 1.5 C 4.99 g/m*3 1.5 C 0 km/h
1716 22-10-2011 07:20:04 1.6 C 5.03 g/m*3 1.6 C 0 km/h
1717 22-10-2011 07:32:04 1.8 C 5.1 g/m*3 1.8 C 0 km/h
1718 22-10-2011 07:44:04 1.8 C 5.1 g/m*3 1.8 C 0 km/h
1719 22-10-2011 07:56:05 1.7 C 5.06 g/m*3 1.7 C 0 km/h
1720 22-10-2011 08:08:05 1.7 C 5.06 g/m*3 1.7 C 0 km/h
1721 22-10-2011 08:20:02 1.7 C 5.06 g/m*3 1.7 C 0 km/h
1722 22-10-2011 08:32:02 1.8 C 5.1 g/m*3 1.8 C 0 km/h
1723 22-10-2011 08:44:02 1.9 C 5.13 g/m*3 1.9 C 0 km/h
1724 22-10-2011 08:56:01 2 C 5.11 g/m*3 2 C 0 km/h
1725 22-10-2011 09:08:01 2 C 5.06 g/m*3 2 C 0 km/h
Sensor: Nr:Datum:Temp:Abs-Feuchte:Windchill:Wind:
Aussen-T/F 1726 22-10-2011 09:20:02 1.9 C 5.02 g/m*3 1.9 C 0 km/h
1727 22-10-2011 09:32:01 1.7 C 4.9 g/m*3 1.7 C 0 km/h
1728 22-10-2011 09:44:01 2.1 C 4.98 g/m*3 2.1 C 0 km/h
1729 22-10-2011 09:56:01 2.3 C 5.05 g/m*3 2.3 C 0 km/h
1730 22-10-2011 10:08:01 2.5 C 5 g/m*3 2.5 C 0 km/h
1731 22-10-2011 10:20:02 2.7 C 5.01 g/m*3 2.7 C 0 km/h
1732 22-10-2011 10:32:01 2.7 C 4.89 g/m*3 2.7 C 0 km/h
1733 22-10-2011 10:44:01 2.8 C 4.87 g/m*3 2.8 C 0 km/h
1734 22-10-2011 10:56:02 3.1 C 4.91 g/m*3 3.1 C 0 km/h
1735 22-10-2011 11:08:02 3.2 C 4.94 g/m*3 3.2 C 0 km/h
1736 22-10-2011 11:20:02 3.2 C 4.94 g/m*3 3.2 C 0 km/h
1737 22-10-2011 11:32:02 3.1 C 4.97 g/m*3 3.1 C 0 km/h
1738 22-10-2011 11:44:02 3.3 C 5.1 g/m*3 3.3 C 0 km/h
1739 22-10-2011 11:56:02 3.4 C 5.19 g/m*3 3.4 C 0 km/h
1740 22-10-2011 12:08:02 3.8 C 5.4 g/m*3 3.8 C 0 km/h
1741 22-10-2011 12:20:01 4.3 C 5.51 g/m*3 4.3 C 0 km/h
1742 22-10-2011 12:32:02 4.9 C 5.6 g/m*3 4.9 C 0 km/h
1743 22-10-2011 12:44:02 5.4 C 5.65 g/m*3 5.4 C 0 km/h
1744 22-10-2011 12:56:02 5.3 C 5.54 g/m*3 5.3 C 0 km/h
1745 22-10-2011 13:08:02 5.9 C 5.84 g/m*3 5.9 C 0 km/h
1746 22-10-2011 13:20:01 7.7 C 6.32 g/m*3 7.7 C 0 km/h
1747 22-10-2011 13:32:02 10.3 C 6.13 g/m*3 10.3 C 0 km/h
1748 22-10-2011 13:44:02 8.9 C 5.34 g/m*3 8.9 C 0 km/h
1749 22-10-2011 13:56:02 8.4 C 4.67 g/m*3 8.4 C 0 km/h
1750 22-10-2011 14:08:02 7.4 C 4.93 g/m*3 7.4 C 0 km/h
Sensor: Nr:Datum:Temp:Abs-Feuchte:Windchill:Wind:
Aussen-T/F 1751 22-10-2011 14:20:02 7.5 C 4.96 g/m*3 7.5 C 0 km/h
1752 22-10-2011 14:32:02 7.7 C 4.95 g/m*3 7.7 C 0 km/h
1753 22-10-2011 14:44:02 8.4 C 5.01 g/m*3 8.4 C 0 km/h
1754 22-10-2011 14:56:02 8.3 C 4.8 g/m*3 8.3 C 0 km/h
1755 22-10-2011 15:08:02 8.3 C 4.64 g/m*3 8.3 C 0 km/h
1756 22-10-2011 15:20:02 8.8 C 4.96 g/m*3 8.8 C 0 km/h
1757 22-10-2011 15:32:01 8.2 C 5.02 g/m*3 8.2 C 0 km/h
1758 22-10-2011 15:44:01 8.5 C 4.7 g/m*3 8.5 C 0 km/h
1759 22-10-2011 15:56:02 8.4 C 4.75 g/m*3 8.4 C 0 km/h
1760 22-10-2011 16:08:01 8.5 C 4.61 g/m*3 8.5 C 0 km/h
1761 22-10-2011 16:20:02 8.2 C 5.02 g/m*3 8.2 C 0 km/h
1762 22-10-2011 16:32:02 8.6 C 5.24 g/m*3 8.6 C 0 km/h
1763 22-10-2011 16:44:02 10.3 C 5.08 g/m*3 10.3 C 0 km/h
1764 22-10-2011 16:56:02 13.2 C 5.28 g/m*3 13.2 C 0 km/h
1765 22-10-2011 17:08:02 14.5 C 5.22 g/m*3 14.5 C 0 km/h
1766 22-10-2011 17:20:02 12.9 C 4.85 g/m*3 12.9 C 0 km/h
1767 22-10-2011 17:32:02 11.5 C 4.75 g/m*3 11.5 C 0 km/h
1768 22-10-2011 17:44:02 10.3 C 4.79 g/m*3 10.3 C 0 km/h
1769 22-10-2011 17:56:02 8.2 C 4.69 g/m*3 8.2 C 0 km/h
1770 22-10-2011 18:08:02 6.4 C 5.07 g/m*3 6.4 C 0 km/h
1771 22-10-2011 18:20:02 5.7 C 5.27 g/m*3 5.7 C 0 km/h
1772 22-10-2011 18:32:02 5.2 C 5.16 g/m*3 5.2 C 0 km/h
1773 22-10-2011 18:44:02 5 C 5.1 g/m*3 5 C 0 km/h
1774 22-10-2011 18:56:01 5 C 5.03 g/m*3 5 C 0 km/h
1775 22-10-2011 19:08:01 4.3 C 4.99 g/m*3 4.3 C 0 km/h
Sensor: Nr:Datum:Temp:Abs-Feuchte:Windchill:Wind:
Aussen-T/F 1776 22-10-2011 19:20:00 4.1 C 5.06 g/m*3 4.1 C 0 km/h
1777 22-10-2011 19:32:01 3.6 C 4.95 g/m*3 3.6 C 0 km/h
1778 22-10-2011 19:44:01 3.1 C 4.85 g/m*3 3.1 C 0 km/h
1779 22-10-2011 19:56:01 3.5 C 5.1 g/m*3 3.5 C 0 km/h
1780 22-10-2011 20:08:01 2.9 C 4.96 g/m*3 2.9 C 0 km/h
1781 22-10-2011 20:20:02 2.4 C 4.8 g/m*3 2.4 C 0 km/h
1782 22-10-2011 20:32:01 1.9 C 4.75 g/m*3 1.9 C 0 km/h
1783 22-10-2011 20:44:01 2.1 C 4.81 g/m*3 2.1 C 0 km/h
1784 22-10-2011 20:56:02 2 C 4.83 g/m*3 2 C 0 km/h
1785 22-10-2011 21:08:02 1.6 C 4.76 g/m*3 1.6 C 0 km/h
1786 22-10-2011 21:20:02 1.2 C 4.63 g/m*3 1.2 C 0 km/h
1787 22-10-2011 21:32:02 1 C 4.57 g/m*3 1 C 0 km/h
1788 22-10-2011 21:44:02 0.8 C 4.56 g/m*3 0.8 C 0 km/h
1789 22-10-2011 21:56:01 0.6 C 4.49 g/m*3 0.6 C 0 km/h
1790 22-10-2011 22:08:01 1.1 C 4.65 g/m*3 1.1 C 0 km/h
1791 22-10-2011 22:20:01 0.7 C 4.58 g/m*3 0.7 C 0 km/h
1792 22-10-2011 22:32:01 0.8 C 4.66 g/m*3 0.8 C 0 km/h
1793 22-10-2011 22:44:01 0.8 C 4.66 g/m*3 0.8 C 0 km/h
1794 22-10-2011 22:56:02 0.8 C 4.66 g/m*3 0.8 C 0 km/h
1795 22-10-2011 23:08:01 1.2 C 4.79 g/m*3 1.2 C 0 km/h
1796 22-10-2011 23:20:02 0.7 C 4.63 g/m*3 0.7 C 0 km/h
1797 22-10-2011 23:32:02 0.2 C 4.47 g/m*3 0.2 C 0 km/h
1798 22-10-2011 23:44:02 -0.3 C 4.32 g/m*3 -0.3 C 0 km/h
1799 22-10-2011 23:56:02 -0.1 C 4.38 g/m*3 -0.1 C 0 km/h
1800 23-10-2011 00:08:03 -0.7 C 4.2 g/m*3 -0.7 C 0 km/h
Sensor: Nr:Datum:Temp:Abs-Feuchte:Windchill:Wind:
Aussen-T/F 1801 23-10-2011 00:20:02 -0.7 C 4.2 g/m*3 -0.7 C 0 km/h
1802 23-10-2011 00:32:03 -0.8 C 4.13 g/m*3 -0.8 C 0 km/h
1803 23-10-2011 00:44:03 -1 C 4.11 g/m*3 -1 C 0 km/h
1804 23-10-2011 00:56:02 -1 C 4.07 g/m*3 -1 C 0 km/h
1805 23-10-2011 01:08:02 -1 C 4.11 g/m*3 -1 C 0 km/h
1806 23-10-2011 01:20:02 -0.9 C 4.14 g/m*3 -0.9 C 0 km/h
1807 23-10-2011 01:32:02 -1 C 4.11 g/m*3 -1 C 0 km/h
1808 23-10-2011 01:44:02 -1.4 C 3.96 g/m*3 -1.4 C 0 km/h
1809 23-10-2011 01:56:01 -1.2 C 4.01 g/m*3 -1.2 C 0 km/h
1810 23-10-2011 02:08:02 -1.2 C 4.06 g/m*3 -1.2 C 0 km/h
1811 23-10-2011 02:20:01 -1.3 C 3.98 g/m*3 -1.3 C 0 km/h
1812 23-10-2011 02:32:02 -1.5 C 3.97 g/m*3 -1.5 C 0 km/h
1813 23-10-2011 02:44:02 -1.7 C 3.87 g/m*3 -1.7 C 0 km/h
1814 23-10-2011 02:56:01 -1.5 C 3.97 g/m*3 -1.5 C 0 km/h
1815 23-10-2011 03:08:01 -1 C 4.11 g/m*3 -1 C 0 km/h
1816 23-10-2011 03:20:01 -1.4 C 4 g/m*3 -1.4 C 0 km/h
1817 23-10-2011 03:32:01 -0.8 C 4.17 g/m*3 -0.8 C 0 km/h
1818 23-10-2011 03:44:01 -1.1 C 4.09 g/m*3 -1.1 C 0 km/h
1819 23-10-2011 03:56:01 -1.1 C 4.09 g/m*3 -1.1 C 0 km/h
1820 23-10-2011 04:08:02 -1.1 C 4.13 g/m*3 -1.1 C 0 km/h
1821 23-10-2011 04:20:01 -0.6 C 4.28 g/m*3 -0.6 C 0 km/h
1822 23-10-2011 04:32:01 -0.9 C 4.19 g/m*3 -0.9 C 0 km/h
1823 23-10-2011 04:44:01 -1.4 C 4.04 g/m*3 -1.4 C 0 km/h
1824 23-10-2011 04:56:01 -1.1 C 4.13 g/m*3 -1.1 C 0 km/h
1825 23-10-2011 05:08:01 -1.1 C 4.13 g/m*3 -1.1 C 0 km/h
Sensor: Nr:Datum:Temp:Abs-Feuchte:Windchill:Wind:
Aussen-T/F 1826 23-10-2011 05:20:02 -0.5 C 4.35 g/m*3 -0.5 C 0 km/h
1827 23-10-2011 05:32:01 -1 C 4.2 g/m*3 -1 C 0 km/h
1828 23-10-2011 05:44:01 -1.5 C 4.02 g/m*3 -1.5 C 0 km/h
1829 23-10-2011 05:56:01 -1.8 C 3.93 g/m*3 -1.8 C 0 km/h
1830 23-10-2011 06:08:01 -2 C 3.88 g/m*3 -2 C 0 km/h
1831 23-10-2011 06:20:02 -2.1 C 3.85 g/m*3 -2.1 C 0 km/h
1832 23-10-2011 06:32:01 -1.9 C 3.91 g/m*3 -1.9 C 0 km/h
1833 23-10-2011 06:44:01 -1.1 C 4.13 g/m*3 -1.1 C 0 km/h
1834 23-10-2011 06:56:02 -1.4 C 4.04 g/m*3 -1.4 C 0 km/h
1835 23-10-2011 07:08:01 -1.4 C 4.04 g/m*3 -1.4 C 0 km/h
1836 23-10-2011 07:20:01 -1.7 C 3.96 g/m*3 -1.7 C 0 km/h
1837 23-10-2011 07:32:02 -1.6 C 3.99 g/m*3 -1.6 C 0 km/h
1838 23-10-2011 07:44:02 -1.2 C 4.1 g/m*3 -1.2 C 0 km/h
1839 23-10-2011 07:56:01 -1.3 C 4.07 g/m*3 -1.3 C 0 km/h
1840 23-10-2011 08:08:02 -1.4 C 4.04 g/m*3 -1.4 C 0 km/h
1841 23-10-2011 08:20:01 -1.2 C 4.1 g/m*3 -1.2 C 0 km/h
1842 23-10-2011 08:32:01 -1.2 C 4.1 g/m*3 -1.2 C 0 km/h
1843 23-10-2011 08:44:02 -0.9 C 4.23 g/m*3 -0.9 C 0 km/h
1844 23-10-2011 08:56:01 -1.1 C 4.13 g/m*3 -1.1 C 0 km/h
1845 23-10-2011 09:08:02 -1 C 4.2 g/m*3 -1 C 0 km/h
1846 23-10-2011 09:20:01 -0.7 C 4.29 g/m*3 -0.7 C 0 km/h
1847 23-10-2011 09:32:01 -0.9 C 4.23 g/m*3 -0.9 C 0 km/h
1848 23-10-2011 09:44:01 -0.9 C 4.19 g/m*3 -0.9 C 0 km/h
1849 23-10-2011 09:56:01 -0.9 C 4.19 g/m*3 -0.9 C 0 km/h
1850 23-10-2011 10:08:01 -1 C 4.16 g/m*3 -1 C 0 km/h
Sensor: Nr:Datum:Temp:Abs-Feuchte:Windchill:Wind:
Aussen-T/F 1851 23-10-2011 10:20:02 -1 C 4.16 g/m*3 -1 C 0 km/h
1852 23-10-2011 10:32:01 -0.7 C 4.25 g/m*3 -0.7 C 0 km/h
1853 23-10-2011 10:44:01 -0.7 C 4.25 g/m*3 -0.7 C 0 km/h
1854 23-10-2011 10:56:02 -0.4 C 4.34 g/m*3 -0.4 C 0 km/h
1855 23-10-2011 11:08:01 0.3 C 4.6 g/m*3 0.3 C 0 km/h
1856 23-10-2011 11:20:01 0.6 C 4.7 g/m*3 0.6 C 0 km/h
1857 23-10-2011 11:32:02 1 C 4.78 g/m*3 1 C 0 km/h
1858 23-10-2011 11:44:02 1.9 C 5.08 g/m*3 1.9 C 0 km/h
1859 23-10-2011 11:56:01 2.7 C 5.42 g/m*3 2.7 C 0 km/h
1860 23-10-2011 12:08:02 3.5 C 5.66 g/m*3 3.5 C 0 km/h
1861 23-10-2011 12:20:01 4.1 C 5.89 g/m*3 4.1 C 0 km/h
1862 23-10-2011 12:32:02 4.3 C 5.97 g/m*3 4.3 C 0 km/h
1863 23-10-2011 12:44:02 5.2 C 6.33 g/m*3 5.2 C 0 km/h
1864 23-10-2011 12:56:01 5.1 C 6.29 g/m*3 5.1 C 0 km/h
1865 23-10-2011 13:08:02 5.3 C 6.38 g/m*3 5.3 C 0 km/h
1866 23-10-2011 13:20:01 6.7 C 6.91 g/m*3 6.7 C 0 km/h
1867 23-10-2011 13:32:01 9.6 C 8.15 g/m*3 9.6 C 0 km/h
1868 23-10-2011 13:44:01 8.4 C 7.13 g/m*3 8.4 C 0 km/h
1869 23-10-2011 13:56:01 7.4 C 6.44 g/m*3 7.4 C 0 km/h
1870 23-10-2011 14:08:01 6.9 C 6.31 g/m*3 6.9 C 0 km/h
1871 23-10-2011 14:20:02 8.2 C 6.03 g/m*3 8.2 C 0 km/h
1872 23-10-2011 14:32:01 7.8 C 5.88 g/m*3 7.8 C 0 km/h
1873 23-10-2011 14:44:01 7.4 C 5.96 g/m*3 7.4 C 0 km/h
1874 23-10-2011 14:56:02 7.9 C 6.08 g/m*3 7.9 C 0 km/h
1875 23-10-2011 15:08:01 8.9 C 5.69 g/m*3 8.9 C 0 km/h
Sensor: Nr:Datum:Temp:Abs-Feuchte:Windchill:Wind:
Aussen-T/F 1876 23-10-2011 15:20:02 8.7 C 5.71 g/m*3 8.7 C 0 km/h
1877 23-10-2011 15:32:01 8.3 C 5.9 g/m*3 8.3 C 0 km/h
1878 23-10-2011 15:44:01 7.9 C 6 g/m*3 7.9 C 0 km/h
1879 23-10-2011 15:56:02 8 C 6.12 g/m*3 8 C 0 km/h
1880 23-10-2011 16:08:01 8.3 C 6.15 g/m*3 8.3 C 0 km/h
1881 23-10-2011 16:20:01 8.1 C 6.07 g/m*3 8.1 C 0 km/h
1882 23-10-2011 16:32:02 8.6 C 6.1 g/m*3 8.6 C 0 km/h
1883 23-10-2011 16:44:02 9.8 C 6.12 g/m*3 9.8 C 0 km/h
1884 23-10-2011 16:56:01 13.6 C 6.12 g/m*3 13.6 C 0 km/h
1885 23-10-2011 17:08:02 13.1 C 5.48 g/m*3 13.1 C 0 km/h
1886 23-10-2011 17:20:01 12.9 C 5.3 g/m*3 12.9 C 0 km/h
1887 23-10-2011 17:32:01 12 C 5.33 g/m*3 12 C 0 km/h
1888 23-10-2011 17:44:02 11.2 C 5.27 g/m*3 11.2 C 0 km/h
1889 23-10-2011 17:56:01 8.5 C 5.12 g/m*3 8.5 C 0 km/h
1890 23-10-2011 18:08:02 6.7 C 5.55 g/m*3 6.7 C 0 km/h
1891 23-10-2011 18:20:01 6 C 5.44 g/m*3 6 C 0 km/h
1892 23-10-2011 18:32:01 5.6 C 5.51 g/m*3 5.6 C 0 km/h
1893 23-10-2011 18:44:01 5.1 C 5.34 g/m*3 5.1 C 0 km/h
1894 23-10-2011 18:56:01 4.6 C 5.29 g/m*3 4.6 C 0 km/h
1895 23-10-2011 19:08:01 4.1 C 5.25 g/m*3 4.1 C 0 km/h
1896 23-10-2011 19:20:02 4.3 C 5.38 g/m*3 4.3 C 0 km/h
1897 23-10-2011 19:32:01 4.3 C 5.45 g/m*3 4.3 C 0 km/h
1898 23-10-2011 19:44:01 4.3 C 5.45 g/m*3 4.3 C 0 km/h
1899 23-10-2011 19:56:02 4 C 5.34 g/m*3 4 C 0 km/h
1900 23-10-2011 20:08:01 4.1 C 5.44 g/m*3 4.1 C 0 km/h
Sensor: Nr:Datum:Temp:Abs-Feuchte:Windchill:Wind:
Aussen-T/F 1901 23-10-2011 20:20:01 3.7 C 5.36 g/m*3 3.7 C 0 km/h
1902 23-10-2011 20:32:01 3.5 C 5.35 g/m*3 3.5 C 0 km/h
1903 23-10-2011 20:44:01 3.3 C 5.28 g/m*3 3.3 C 0 km/h
1904 23-10-2011 20:56:01 3.3 C 5.34 g/m*3 3.3 C 0 km/h
1905 23-10-2011 21:08:01 2.9 C 5.26 g/m*3 2.9 C 0 km/h
1906 23-10-2011 21:20:01 3 C 5.23 g/m*3 3 C 0 km/h
1907 23-10-2011 21:32:02 3 C 5.29 g/m*3 3 C 0 km/h
1908 23-10-2011 21:44:02 2.5 C 5.17 g/m*3 2.5 C 0 km/h
1909 23-10-2011 21:56:01 2.5 C 5.17 g/m*3 2.5 C 0 km/h
1910 23-10-2011 22:08:02 2.3 C 5.1 g/m*3 2.3 C 0 km/h
1911 23-10-2011 22:20:01 2.5 C 5.23 g/m*3 2.5 C 0 km/h
1912 23-10-2011 22:32:01 2.3 C 5.16 g/m*3 2.3 C 0 km/h
1913 23-10-2011 22:44:02 2.6 C 5.27 g/m*3 2.6 C 0 km/h
1914 23-10-2011 22:56:01 2.5 C 5.23 g/m*3 2.5 C 0 km/h
1915 23-10-2011 23:08:01 1.9 C 5.08 g/m*3 1.9 C 0 km/h
1916 23-10-2011 23:20:01 2.6 C 5.27 g/m*3 2.6 C 0 km/h
1917 23-10-2011 23:32:01 2.4 C 5.2 g/m*3 2.4 C 0 km/h
1918 23-10-2011 23:44:01 2.3 C 5.22 g/m*3 2.3 C 0 km/h
1919 23-10-2011 23:56:01 2.4 C 5.25 g/m*3 2.4 C 0 km/h
1920 24-10-2011 00:08:01 2.2 C 5.18 g/m*3 2.2 C 0 km/h
1921 24-10-2011 00:20:02 2.3 C 5.22 g/m*3 2.3 C 0 km/h
1922 24-10-2011 00:32:01 1.7 C 5.01 g/m*3 1.7 C 0 km/h
1923 24-10-2011 00:44:01 2.5 C 5.29 g/m*3 2.5 C 0 km/h
1924 24-10-2011 00:56:02 2.4 C 5.25 g/m*3 2.4 C 0 km/h
1925 24-10-2011 01:08:01 2 C 5.11 g/m*3 2 C 0 km/h
Sensor: Nr:Datum:Temp:Abs-Feuchte:Windchill:Wind:
Aussen-T/F 1926 24-10-2011 01:20:02 2.2 C 5.18 g/m*3 2.2 C 0 km/h
1927 24-10-2011 01:32:01 2.1 C 5.15 g/m*3 2.1 C 0 km/h
1928 24-10-2011 01:44:01 2.1 C 5.15 g/m*3 2.1 C 0 km/h
1929 24-10-2011 01:56:02 2.1 C 5.15 g/m*3 2.1 C 0 km/h
1930 24-10-2011 02:08:01 1.9 C 5.13 g/m*3 1.9 C 0 km/h
1931 24-10-2011 02:20:01 2.2 C 5.18 g/m*3 2.2 C 0 km/h
1932 24-10-2011 02:32:02 1.9 C 5.13 g/m*3 1.9 C 0 km/h
1933 24-10-2011 02:44:02 2 C 5.11 g/m*3 2 C 0 km/h
1934 24-10-2011 02:56:01 2 C 5.11 g/m*3 2 C 0 km/h
1935 24-10-2011 03:08:01 1.5 C 4.99 g/m*3 1.5 C 0 km/h
1936 24-10-2011 03:20:01 1.6 C 5.03 g/m*3 1.6 C 0 km/h
1937 24-10-2011 03:32:01 1 C 4.83 g/m*3 1 C 0 km/h
1938 24-10-2011 03:44:02 0.9 C 4.79 g/m*3 0.9 C 0 km/h
1939 24-10-2011 03:56:02 1.3 C 4.93 g/m*3 1.3 C 0 km/h
1940 24-10-2011 04:08:01 1.2 C 4.89 g/m*3 1.2 C 0 km/h
1941 24-10-2011 04:20:01 1.3 C 4.93 g/m*3 1.3 C 0 km/h
1942 24-10-2011 04:32:02 1 C 4.83 g/m*3 1 C 0 km/h
1943 24-10-2011 04:44:02 0.9 C 4.85 g/m*3 0.9 C 0 km/h
1944 24-10-2011 04:56:01 1 C 4.83 g/m*3 1 C 0 km/h
1945 24-10-2011 05:08:02 1.1 C 4.86 g/m*3 1.1 C 0 km/h
1946 24-10-2011 05:20:01 1.2 C 4.89 g/m*3 1.2 C 0 km/h
1947 24-10-2011 05:32:01 0.9 C 4.85 g/m*3 0.9 C 0 km/h
1948 24-10-2011 05:44:01 1 C 4.83 g/m*3 1 C 0 km/h
1949 24-10-2011 05:56:01 0.3 C 4.65 g/m*3 0.3 C 0 km/h
1950 24-10-2011 06:08:01 0.5 C 4.71 g/m*3 0.5 C 0 km/h
Sensor: Nr:Datum:Temp:Abs-Feuchte:Windchill:Wind:
Aussen-T/F 1951 24-10-2011 06:20:01 0.7 C 4.78 g/m*3 0.7 C 0 km/h
1952 24-10-2011 06:32:01 0.4 C 4.68 g/m*3 0.4 C 0 km/h
1953 24-10-2011 06:44:01 0.3 C 4.65 g/m*3 0.3 C 0 km/h
1954 24-10-2011 06:56:01 0.5 C 4.71 g/m*3 0.5 C 0 km/h
1955 24-10-2011 07:08:01 0.9 C 4.85 g/m*3 0.9 C 0 km/h
1956 24-10-2011 07:20:02 0.4 C 4.68 g/m*3 0.4 C 0 km/h
1957 24-10-2011 07:32:01 0.8 C 4.81 g/m*3 0.8 C 0 km/h
1958 24-10-2011 07:44:01 0.8 C 4.81 g/m*3 0.8 C 0 km/h
1959 24-10-2011 07:56:02 1.1 C 4.91 g/m*3 1.1 C 0 km/h
1960 24-10-2011 08:08:01 1.6 C 5.08 g/m*3 1.6 C 0 km/h
1961 24-10-2011 08:20:01 2.4 C 5.37 g/m*3 2.4 C 0 km/h
1962 24-10-2011 08:32:02 2.5 C 5.4 g/m*3 2.5 C 0 km/h
1963 24-10-2011 08:44:02 3 C 5.59 g/m*3 3 C 0 km/h
1964 24-10-2011 08:56:01 3.7 C 5.86 g/m*3 3.7 C 0 km/h
1965 24-10-2011 09:08:02 3.8 C 5.9 g/m*3 3.8 C 0 km/h
1966 24-10-2011 09:20:01 4 C 5.91 g/m*3 4 C 0 km/h
1967 24-10-2011 09:32:02 4.3 C 6.03 g/m*3 4.3 C 0 km/h
1968 24-10-2011 09:44:02 4.9 C 6.21 g/m*3 4.9 C 0 km/h
1969 24-10-2011 09:56:01 5.1 C 6.22 g/m*3 5.1 C 0 km/h
1970 24-10-2011 10:08:02 4.9 C 6.01 g/m*3 4.9 C 0 km/h
1971 24-10-2011 10:20:01 5.1 C 5.95 g/m*3 5.1 C 0 km/h
1972 24-10-2011 10:32:01 5.9 C 6.06 g/m*3 5.9 C 0 km/h
1973 24-10-2011 10:44:01 6.3 C 5.7 g/m*3 6.3 C 0 km/h
1974 24-10-2011 10:56:01 6.8 C 5.97 g/m*3 6.8 C 0 km/h
1975 24-10-2011 11:08:01 6.8 C 5.43 g/m*3 6.8 C 0 km/h
Sensor: Nr:Datum:Temp:Abs-Feuchte:Windchill:Wind:
Aussen-T/F 1976 24-10-2011 11:20:02 6.9 C 5.39 g/m*3 6.9 C 0 km/h
1977 24-10-2011 11:32:01 7.2 C 5.49 g/m*3 7.2 C 0 km/h
1978 24-10-2011 11:44:01 7.1 C 5.15 g/m*3 7.1 C 0 km/h
1979 24-10-2011 11:56:02 7.4 C 5.09 g/m*3 7.4 C 0 km/h
1980 24-10-2011 12:08:01 7.7 C 5.35 g/m*3 7.7 C 0 km/h
1981 24-10-2011 12:20:02 7.8 C 5.22 g/m*3 7.8 C 0 km/h
1982 24-10-2011 12:32:01 8 C 5.13 g/m*3 8 C 0 km/h
1983 24-10-2011 12:44:01 8.1 C 5.08 g/m*3 8.1 C 0 km/h
1984 24-10-2011 12:56:02 8.7 C 5.19 g/m*3 8.7 C 0 km/h
1985 24-10-2011 13:08:01 8.3 C 4.8 g/m*3 8.3 C 0 km/h
1986 24-10-2011 13:20:01 9.3 C 4.94 g/m*3 9.3 C 0 km/h
1987 24-10-2011 13:32:02 8.6 C 4.9 g/m*3 8.6 C 0 km/h
1988 24-10-2011 13:44:02 7.8 C 4.9 g/m*3 7.8 C 0 km/h
1989 24-10-2011 13:56:01 7.4 C 4.85 g/m*3 7.4 C 0 km/h
1990 24-10-2011 14:08:02 7.5 C 4.96 g/m*3 7.5 C 0 km/h
1991 24-10-2011 14:20:01 7.6 C 4.91 g/m*3 7.6 C 0 km/h
1992 24-10-2011 14:32:01 7.6 C 5.08 g/m*3 7.6 C 0 km/h
1993 24-10-2011 14:44:01 8.6 C 5.07 g/m*3 8.6 C 0 km/h
1994 24-10-2011 14:56:01 8.7 C 5.02 g/m*3 8.7 C 0 km/h
1995 24-10-2011 15:08:01 8.4 C 5.17 g/m*3 8.4 C 0 km/h
1996 24-10-2011 15:20:01 9.3 C 5.12 g/m*3 9.3 C 0 km/h
1997 24-10-2011 15:32:01 9.5 C 5.1 g/m*3 9.5 C 0 km/h
1998 24-10-2011 15:44:01 9.7 C 5.16 g/m*3 9.7 C 0 km/h
1999 24-10-2011 15:56:01 10.1 C 5.11 g/m*3 10.1 C 0 km/h
2000 24-10-2011 16:08:01 9.9 C 5.23 g/m*3 9.9 C 0 km/h
Sensor: Nr:Datum:Temp:Abs-Feuchte:Windchill:Wind:
Aussen-T/F 2001 24-10-2011 16:20:02 9.8 C 5.1 g/m*3 9.8 C 0 km/h
2002 24-10-2011 16:32:01 9.5 C 5.37 g/m*3 9.5 C 0 km/h
2003 24-10-2011 16:44:01 9.5 C 5.55 g/m*3 9.5 C 0 km/h
2004 24-10-2011 16:56:02 9.7 C 5.62 g/m*3 9.7 C 0 km/h
2005 24-10-2011 17:08:01 9.8 C 5.57 g/m*3 9.8 C 0 km/h
2006 24-10-2011 17:20:01 9.7 C 5.53 g/m*3 9.7 C 0 km/h
2007 24-10-2011 17:32:02 9.3 C 5.84 g/m*3 9.3 C 0 km/h
2008 24-10-2011 17:44:02 9.7 C 5.72 g/m*3 9.7 C 0 km/h
2009 24-10-2011 17:56:01 9.4 C 5.88 g/m*3 9.4 C 0 km/h
2010 24-10-2011 18:08:02 9.3 C 5.93 g/m*3 9.3 C 0 km/h
2011 24-10-2011 18:20:01 8.8 C 5.83 g/m*3 8.8 C 0 km/h
2012 24-10-2011 18:32:01 8.2 C 5.95 g/m*3 8.2 C 0 km/h
2013 24-10-2011 18:44:02 7.4 C 5.88 g/m*3 7.4 C 0 km/h
2014 24-10-2011 18:56:01 7.3 C 6.08 g/m*3 7.3 C 0 km/h
2015 24-10-2011 19:08:02 7.7 C 6.24 g/m*3 7.7 C 0 km/h
2016 24-10-2011 19:20:01 8.3 C 6.24 g/m*3 8.3 C 0 km/h
2017 24-10-2011 19:32:01 8.7 C 5.97 g/m*3 8.7 C 0 km/h
2018 24-10-2011 19:44:01 8.6 C 5.84 g/m*3 8.6 C 0 km/h
2019 24-10-2011 19:56:01 8.9 C 5.78 g/m*3 8.9 C 0 km/h
2020 24-10-2011 20:08:01 9 C 5.64 g/m*3 9 C 0 km/h
2021 24-10-2011 20:20:02 8.9 C 5.87 g/m*3 8.9 C 0 km/h
2022 24-10-2011 20:32:01 9.8 C 5.66 g/m*3 9.8 C 0 km/h
2023 24-10-2011 20:44:01 10.4 C 5.59 g/m*3 10.4 C 0 km/h
2024 24-10-2011 20:56:02 10.2 C 5.42 g/m*3 10.2 C 0 km/h
2025 24-10-2011 21:08:01 10.2 C 5.33 g/m*3 10.2 C 0 km/h
Sensor: Nr:Datum:Temp:Abs-Feuchte:Windchill:Wind:
Aussen-T/F 2026 24-10-2011 21:20:01 10.4 C 5.3 g/m*3 10.4 C 0 km/h
2027 24-10-2011 21:32:01 10.8 C 5.24 g/m*3 10.8 C 0 km/h
2028 24-10-2011 21:44:01 11.3 C 5.2 g/m*3 11.3 C 0 km/h
2029 24-10-2011 21:56:01 10.4 C 5.3 g/m*3 10.4 C 0 km/h
2030 24-10-2011 22:08:01 11.2 C 5.17 g/m*3 11.2 C 0 km/h
2031 24-10-2011 22:20:01 10 C 5.54 g/m*3 10 C 0 km/h
2032 24-10-2011 22:32:02 10.5 C 5.33 g/m*3 10.5 C 0 km/h
2033 24-10-2011 22:44:02 9.9 C 5.79 g/m*3 9.9 C 0 km/h
2034 24-10-2011 22:56:01 9.7 C 5.81 g/m*3 9.7 C 0 km/h
2035 24-10-2011 23:08:02 9.5 C 5.92 g/m*3 9.5 C 0 km/h
2036 24-10-2011 23:20:01 9.5 C 5.73 g/m*3 9.5 C 0 km/h
2037 24-10-2011 23:32:01 9.6 C 5.77 g/m*3 9.6 C 0 km/h
2038 24-10-2011 23:44:01 9.4 C 5.79 g/m*3 9.4 C 0 km/h
2039 24-10-2011 23:56:01 9.3 C 5.75 g/m*3 9.3 C 0 km/h
2040 25-10-2011 00:08:01 9.1 C 5.86 g/m*3 9.1 C 0 km/h
2041 25-10-2011 00:20:02 8.4 C 6.28 g/m*3 8.4 C 0 km/h
2042 25-10-2011 00:32:01 8.2 C 6.62 g/m*3 8.2 C 0 km/h
2043 25-10-2011 00:44:01 8.1 C 6.74 g/m*3 8.1 C 0 km/h
2044 25-10-2011 00:56:02 8 C 6.86 g/m*3 8 C 0 km/h
2045 25-10-2011 01:08:01 7.9 C 6.9 g/m*3 7.9 C 0 km/h
2046 25-10-2011 01:20:02 7.9 C 6.82 g/m*3 7.9 C 0 km/h
2047 25-10-2011 01:32:01 7.9 C 6.82 g/m*3 7.9 C 0 km/h
2048 25-10-2011 01:44:01 8.4 C 6.62 g/m*3 8.4 C 0 km/h
2049 25-10-2011 01:56:02 8.1 C 6.57 g/m*3 8.1 C 0 km/h
2050 25-10-2011 02:08:01 7.9 C 6.74 g/m*3 7.9 C 0 km/h
Sensor: Nr:Datum:Temp:Abs-Feuchte:Windchill:Wind:
Aussen-T/F 2051 25-10-2011 02:20:01 7.8 C 6.86 g/m*3 7.8 C 0 km/h
2052 25-10-2011 02:32:02 7.8 C 6.94 g/m*3 7.8 C 0 km/h
2053 25-10-2011 02:44:02 7.7 C 6.89 g/m*3 7.7 C 0 km/h
2054 25-10-2011 02:57:06 7.6 C 6.93 g/m*3 7.6 C 0 km/h
2055 25-10-2011 03:09:06 7.6 C 6.93 g/m*3 7.6 C 0 km/h
2056 25-10-2011 03:21:06 7.6 C 6.93 g/m*3 7.6 C 0 km/h
2057 25-10-2011 03:33:02 7.6 C 7.01 g/m*3 7.6 C 0 km/h
2058 25-10-2011 03:45:03 7.5 C 6.96 g/m*3 7.5 C 0 km/h
2059 25-10-2011 03:57:03 7.4 C 6.92 g/m*3 7.4 C 0 km/h
2060 25-10-2011 04:09:01 7.5 C 6.96 g/m*3 7.5 C 0 km/h
2061 25-10-2011 04:21:02 7.6 C 7.01 g/m*3 7.6 C 0 km/h
2062 25-10-2011 04:33:02 8 C 6.86 g/m*3 8 C 0 km/h
2063 25-10-2011 04:45:02 7.7 C 6.81 g/m*3 7.7 C 0 km/h
2064 25-10-2011 04:57:02 8 C 6.7 g/m*3 8 C 0 km/h
2065 25-10-2011 05:09:03 8 C 6.53 g/m*3 8 C 0 km/h
2066 25-10-2011 05:21:02 7.6 C 6.61 g/m*3 7.6 C 0 km/h
2067 25-10-2011 05:33:02 7.4 C 6.68 g/m*3 7.4 C 0 km/h
2068 25-10-2011 05:45:01 7.3 C 6.79 g/m*3 7.3 C 0 km/h
2069 25-10-2011 05:57:01 7.2 C 6.83 g/m*3 7.2 C 0 km/h
2070 25-10-2011 06:09:02 7.1 C 6.86 g/m*3 7.1 C 0 km/h
2071 25-10-2011 06:21:01 7.1 C 6.86 g/m*3 7.1 C 0 km/h
2072 25-10-2011 06:33:01 7.1 C 6.86 g/m*3 7.1 C 0 km/h
2073 25-10-2011 06:45:01 7 C 6.82 g/m*3 7 C 0 km/h
2074 25-10-2011 06:57:01 7 C 6.9 g/m*3 7 C 0 km/h
2075 25-10-2011 07:09:01 7 C 6.9 g/m*3 7 C 0 km/h
Sensor: Nr:Datum:Temp:Abs-Feuchte:Windchill:Wind:
Aussen-T/F 2076 25-10-2011 07:21:02 6.9 C 6.93 g/m*3 6.9 C 0 km/h
2077 25-10-2011 07:33:01 6.8 C 6.88 g/m*3 6.8 C 0 km/h
2078 25-10-2011 07:45:02 6.8 C 6.81 g/m*3 6.8 C 0 km/h
2079 25-10-2011 07:57:02 6.7 C 6.76 g/m*3 6.7 C 0 km/h
2080 25-10-2011 08:09:02 6.6 C 6.72 g/m*3 6.6 C 0 km/h
2081 25-10-2011 08:21:02 6.7 C 6.76 g/m*3 6.7 C 0 km/h
2082 25-10-2011 08:33:02 6.7 C 6.84 g/m*3 6.7 C 0 km/h
2083 25-10-2011 08:45:02 6.8 C 6.88 g/m*3 6.8 C 0 km/h
2084 25-10-2011 08:57:02 6.9 C 6.93 g/m*3 6.9 C 0 km/h
2085 25-10-2011 09:09:01 7.1 C 6.94 g/m*3 7.1 C 0 km/h
2086 25-10-2011 09:21:01 7.5 C 7.04 g/m*3 7.5 C 0 km/h
2087 25-10-2011 09:33:02 7.7 C 7.05 g/m*3 7.7 C 0 km/h
2088 25-10-2011 09:45:02 8.1 C 7.07 g/m*3 8.1 C 0 km/h
2089 25-10-2011 09:57:02 8.4 C 7.21 g/m*3 8.4 C 0 km/h
2090 25-10-2011 10:09:02 8.8 C 6.79 g/m*3 8.8 C 0 km/h
2091 25-10-2011 10:21:01 8.9 C 6.22 g/m*3 8.9 C 0 km/h
2092 25-10-2011 10:33:02 8.8 C 6.53 g/m*3 8.8 C 0 km/h
2093 25-10-2011 10:45:02 9.4 C 6.51 g/m*3 9.4 C 0 km/h
2094 25-10-2011 10:57:02 9.9 C 6.16 g/m*3 9.9 C 0 km/h
2095 25-10-2011 11:09:02 9.6 C 6.14 g/m*3 9.6 C 0 km/h
2096 25-10-2011 11:21:02 9.5 C 6.37 g/m*3 9.5 C 0 km/h
2097 25-10-2011 11:33:02 9.3 C 6.29 g/m*3 9.3 C 0 km/h
2098 25-10-2011 11:45:02 9.6 C 6.96 g/m*3 9.6 C 0 km/h
2099 25-10-2011 11:57:02 9.5 C 6.64 g/m*3 9.5 C 0 km/h
2100 25-10-2011 12:09:02 9.3 C 6.83 g/m*3 9.3 C 0 km/h
Sensor: Nr:Datum:Temp:Abs-Feuchte:Windchill:Wind:
Aussen-T/F 2101 25-10-2011 12:21:02 10.1 C 7.09 g/m*3 10.1 C 0 km/h
2102 25-10-2011 12:33:01 10.1 C 6.81 g/m*3 10.1 C 0 km/h
2103 25-10-2011 12:45:02 10.2 C 6.47 g/m*3 10.2 C 0 km/h
2104 25-10-2011 12:57:02 10.3 C 6.22 g/m*3 10.3 C 0 km/h
2105 25-10-2011 13:09:01 10.8 C 6.23 g/m*3 10.8 C 0 km/h
2106 25-10-2011 13:21:01 11.2 C 6.59 g/m*3 11.2 C 0 km/h
2107 25-10-2011 13:33:02 11.8 C 6.53 g/m*3 11.8 C 0 km/h
2108 25-10-2011 13:45:02 11.9 C 5.82 g/m*3 11.9 C 0 km/h
2109 25-10-2011 13:57:02 12.1 C 5.68 g/m*3 12.1 C 0 km/h
2110 25-10-2011 14:09:02 12.2 C 5.5 g/m*3 12.2 C 0 km/h
2111 25-10-2011 14:21:02 12.2 C 5.61 g/m*3 12.2 C 0 km/h
2112 25-10-2011 14:33:02 12.9 C 5.52 g/m*3 12.9 C 0 km/h
2113 25-10-2011 14:45:02 12.8 C 5.38 g/m*3 12.8 C 0 km/h
2114 25-10-2011 14:57:02 12.9 C 5.52 g/m*3 12.9 C 0 km/h
2115 25-10-2011 15:09:02 13 C 5.44 g/m*3 13 C 0 km/h
2116 25-10-2011 15:21:01 13.4 C 5.35 g/m*3 13.4 C 0 km/h
2117 25-10-2011 15:33:02 13 C 5.22 g/m*3 13 C 0 km/h
2118 25-10-2011 15:45:01 12.9 C 5.3 g/m*3 12.9 C 0 km/h
2119 25-10-2011 15:57:01 13 C 5.22 g/m*3 13 C 0 km/h
2120 25-10-2011 16:09:02 13 C 5.56 g/m*3 13 C 0 km/h
2121 25-10-2011 16:21:02 12.9 C 5.41 g/m*3 12.9 C 0 km/h
2122 25-10-2011 16:33:02 13.5 C 5.26 g/m*3 13.5 C 0 km/h
2123 25-10-2011 16:45:02 13.6 C 5.3 g/m*3 13.6 C 0 km/h
2124 25-10-2011 16:57:02 13.1 C 5.48 g/m*3 13.1 C 0 km/h
2125 25-10-2011 17:09:01 13.1 C 5.14 g/m*3 13.1 C 0 km/h
Sensor: Nr:Datum:Temp:Abs-Feuchte:Windchill:Wind:
Aussen-T/F 2126 25-10-2011 17:21:02 12.5 C 5.61 g/m*3 12.5 C 0 km/h
2127 25-10-2011 17:33:02 12.2 C 5.83 g/m*3 12.2 C 0 km/h
2128 25-10-2011 17:45:02 11.8 C 6.53 g/m*3 11.8 C 0 km/h
2129 25-10-2011 17:57:02 11.2 C 6.49 g/m*3 11.2 C 0 km/h
2130 25-10-2011 18:09:02 10.7 C 6.58 g/m*3 10.7 C 0 km/h
2131 25-10-2011 18:21:02 10.4 C 6.46 g/m*3 10.4 C 0 km/h
2132 25-10-2011 18:33:02 10.1 C 6.43 g/m*3 10.1 C 0 km/h
2133 25-10-2011 18:45:02 9.9 C 6.44 g/m*3 9.9 C 0 km/h
2134 25-10-2011 18:57:02 9.8 C 6.49 g/m*3 9.8 C 0 km/h
2135 25-10-2011 19:09:02 9.9 C 6.44 g/m*3 9.9 C 0 km/h
2136 25-10-2011 19:21:02 9.7 C 6.27 g/m*3 9.7 C 0 km/h
2137 25-10-2011 19:33:02 9.7 C 6.45 g/m*3 9.7 C 0 km/h
2138 25-10-2011 19:45:02 9.6 C 6.32 g/m*3 9.6 C 0 km/h
2139 25-10-2011 19:57:02 9.5 C 6.37 g/m*3 9.5 C 0 km/h
2140 25-10-2011 20:09:03 9.4 C 6.33 g/m*3 9.4 C 0 km/h
2141 25-10-2011 20:21:02 9.3 C 6.29 g/m*3 9.3 C 0 km/h
2142 25-10-2011 20:33:02 9.3 C 6.38 g/m*3 9.3 C 0 km/h
2143 25-10-2011 20:45:01 9.3 C 6.47 g/m*3 9.3 C 0 km/h
2144 25-10-2011 20:57:01 9.3 C 6.47 g/m*3 9.3 C 0 km/h
2145 25-10-2011 21:09:02 9.3 C 6.47 g/m*3 9.3 C 0 km/h
2146 25-10-2011 21:21:01 9.2 C 6.43 g/m*3 9.2 C 0 km/h
2147 25-10-2011 21:33:01 9 C 6.44 g/m*3 9 C 0 km/h
2148 25-10-2011 21:45:01 8.9 C 6.57 g/m*3 8.9 C 0 km/h
2149 25-10-2011 21:57:01 8.6 C 6.44 g/m*3 8.6 C 0 km/h
2150 25-10-2011 22:09:02 8.1 C 6.32 g/m*3 8.1 C 0 km/h
Sensor: Nr:Datum:Temp:Abs-Feuchte:Windchill:Wind:
Aussen-T/F 2151 25-10-2011 22:21:02 8.5 C 6.57 g/m*3 8.5 C 0 km/h
2152 25-10-2011 22:33:01 8.2 C 6.45 g/m*3 8.2 C 0 km/h
2153 25-10-2011 22:45:02 8.4 C 6.53 g/m*3 8.4 C 0 km/h
2154 25-10-2011 22:57:02 7.9 C 6.32 g/m*3 7.9 C 0 km/h
2155 25-10-2011 23:09:01 7.4 C 6.2 g/m*3 7.4 C 0 km/h
2156 25-10-2011 23:21:02 7.2 C 6.28 g/m*3 7.2 C 0 km/h
2157 25-10-2011 23:33:01 6.9 C 6.31 g/m*3 6.9 C 0 km/h
2158 25-10-2011 23:45:02 7 C 6.35 g/m*3 7 C 0 km/h
2159 25-10-2011 23:57:03 7.3 C 6.48 g/m*3 7.3 C 0 km/h
2160 26-10-2011 00:09:02 7.3 C 6.56 g/m*3 7.3 C 0 km/h
2161 26-10-2011 00:21:02 7.5 C 6.64 g/m*3 7.5 C 0 km/h
2162 26-10-2011 00:33:02 7.9 C 6.57 g/m*3 7.9 C 0 km/h
2163 26-10-2011 00:45:02 7.8 C 6.45 g/m*3 7.8 C 0 km/h
2164 26-10-2011 00:57:02 7.6 C 6.44 g/m*3 7.6 C 0 km/h
2165 26-10-2011 01:09:02 7.7 C 6.49 g/m*3 7.7 C 0 km/h
2166 26-10-2011 01:21:02 7.7 C 6.57 g/m*3 7.7 C 0 km/h
2167 26-10-2011 01:33:02 7.8 C 6.69 g/m*3 7.8 C 0 km/h
2168 26-10-2011 01:45:02 7.7 C 6.73 g/m*3 7.7 C 0 km/h
2169 26-10-2011 01:57:02 7.8 C 6.77 g/m*3 7.8 C 0 km/h
2170 26-10-2011 02:09:02 7.9 C 6.74 g/m*3 7.9 C 0 km/h
2171 26-10-2011 02:21:02 7.9 C 6.74 g/m*3 7.9 C 0 km/h
2172 26-10-2011 02:33:02 7.9 C 6.74 g/m*3 7.9 C 0 km/h
2173 26-10-2011 02:45:02 7.8 C 6.69 g/m*3 7.8 C 0 km/h
2174 26-10-2011 02:57:02 7.8 C 6.69 g/m*3 7.8 C 0 km/h
2175 26-10-2011 03:09:02 7.8 C 6.77 g/m*3 7.8 C 0 km/h
Sensor: Nr:Datum:Temp:Abs-Feuchte:Windchill:Wind:
Aussen-T/F 2176 26-10-2011 03:21:01 7.6 C 6.69 g/m*3 7.6 C 0 km/h
2177 26-10-2011 03:33:01 7.4 C 6.68 g/m*3 7.4 C 0 km/h
2178 26-10-2011 03:45:01 7.4 C 6.76 g/m*3 7.4 C 0 km/h
2179 26-10-2011 03:57:01 7.6 C 6.93 g/m*3 7.6 C 0 km/h
2180 26-10-2011 04:09:01 7.4 C 6.84 g/m*3 7.4 C 0 km/h
2181 26-10-2011 04:21:02 7.3 C 6.79 g/m*3 7.3 C 0 km/h
2182 26-10-2011 04:33:01 7.3 C 6.87 g/m*3 7.3 C 0 km/h
2183 26-10-2011 04:45:02 7.6 C 7.01 g/m*3 7.6 C 0 km/h
2184 26-10-2011 04:57:02 7.6 C 7.09 g/m*3 7.6 C 0 km/h
2185 26-10-2011 05:09:01 7.9 C 7.23 g/m*3 7.9 C 0 km/h
2186 26-10-2011 05:21:01 8.2 C 7.29 g/m*3 8.2 C 0 km/h
2187 26-10-2011 05:33:02 8.4 C 7.38 g/m*3 8.4 C 0 km/h
2188 26-10-2011 05:45:01 9 C 7.41 g/m*3 9 C 0 km/h
2189 26-10-2011 05:57:01 9 C 7.23 g/m*3 9 C 0 km/h
2190 26-10-2011 06:09:01 9.5 C 7.19 g/m*3 9.5 C 0 km/h
2191 26-10-2011 06:21:01 9.6 C 6.96 g/m*3 9.6 C 0 km/h
2192 26-10-2011 06:33:02 10 C 6.67 g/m*3 10 C 0 km/h
2193 26-10-2011 06:45:01 10 C 6.58 g/m*3 10 C 0 km/h
2194 26-10-2011 06:57:01 9.8 C 6.49 g/m*3 9.8 C 0 km/h
2195 26-10-2011 07:09:02 10.1 C 6.43 g/m*3 10.1 C 0 km/h
2196 26-10-2011 07:21:01 10.1 C 6.34 g/m*3 10.1 C 0 km/h
2197 26-10-2011 07:33:01 10 C 6.3 g/m*3 10 C 0 km/h
2198 26-10-2011 07:45:01 9.8 C 6.4 g/m*3 9.8 C 0 km/h
2199 26-10-2011 07:57:01 8.8 C 6.35 g/m*3 8.8 C 0 km/h
2200 26-10-2011 08:09:01 7.7 C 6.16 g/m*3 7.7 C 0 km/h
Sensor: Nr:Datum:Temp:Abs-Feuchte:Windchill:Wind:
Aussen-T/F 2201 26-10-2011 08:21:02 7.5 C 6.4 g/m*3 7.5 C 0 km/h
2202 26-10-2011 08:33:01 7.8 C 6.77 g/m*3 7.8 C 0 km/h
2203 26-10-2011 08:45:02 8.2 C 6.87 g/m*3 8.2 C 0 km/h
2204 26-10-2011 08:57:02 8.6 C 7.05 g/m*3 8.6 C 0 km/h
2205 26-10-2011 09:09:01 9 C 7.05 g/m*3 9 C 0 km/h
2206 26-10-2011 09:21:01 9.3 C 7.1 g/m*3 9.3 C 0 km/h
2207 26-10-2011 09:33:01 9.7 C 7.01 g/m*3 9.7 C 0 km/h
2208 26-10-2011 09:45:01 10 C 6.77 g/m*3 10 C 0 km/h
2209 26-10-2011 09:57:01 10.5 C 6.5 g/m*3 10.5 C 0 km/h
2210 26-10-2011 10:09:01 11 C 6.41 g/m*3 11 C 0 km/h
2211 26-10-2011 10:21:02 11.2 C 6.18 g/m*3 11.2 C 0 km/h
2212 26-10-2011 10:33:01 11.6 C 6.34 g/m*3 11.6 C 0 km/h
2213 26-10-2011 10:45:02 11.7 C 6.17 g/m*3 11.7 C 0 km/h
2214 26-10-2011 10:57:02 11.6 C 6.13 g/m*3 11.6 C 0 km/h
2215 26-10-2011 11:09:01 11.9 C 6.04 g/m*3 11.9 C 0 km/h
2216 26-10-2011 11:21:01 12.1 C 5.9 g/m*3 12.1 C 0 km/h
2217 26-10-2011 11:33:02 11.4 C 5.75 g/m*3 11.4 C 0 km/h
2218 26-10-2011 11:45:01 12.1 C 5.9 g/m*3 12.1 C 0 km/h
2219 26-10-2011 11:57:01 12.5 C 5.61 g/m*3 12.5 C 0 km/h
2220 26-10-2011 12:09:02 13 C 5.56 g/m*3 13 C 0 km/h
2221 26-10-2011 12:21:01 12.7 C 5.68 g/m*3 12.7 C 0 km/h
2222 26-10-2011 12:33:02 11.9 C 5.72 g/m*3 11.9 C 0 km/h
2223 26-10-2011 12:45:01 11.7 C 5.75 g/m*3 11.7 C 0 km/h
2224 26-10-2011 12:57:01 11.2 C 5.68 g/m*3 11.2 C 0 km/h
2225 26-10-2011 13:09:02 11.5 C 5.89 g/m*3 11.5 C 0 km/h
Sensor: Nr:Datum:Temp:Abs-Feuchte:Windchill:Wind:
Aussen-T/F 2226 26-10-2011 13:21:01 14 C 5.67 g/m*3 14 C 0 km/h
2227 26-10-2011 13:33:01 15.1 C 5.42 g/m*3 15.1 C 0 km/h
2228 26-10-2011 13:45:01 14.3 C 5.9 g/m*3 14.3 C 0 km/h
2229 26-10-2011 13:57:01 12.6 C 5.86 g/m*3 12.6 C 0 km/h
2230 26-10-2011 14:09:01 12.8 C 5.49 g/m*3 12.8 C 0 km/h
2231 26-10-2011 14:21:02 12.5 C 5.72 g/m*3 12.5 C 0 km/h
2232 26-10-2011 14:33:01 12.3 C 5.75 g/m*3 12.3 C 0 km/h
2233 26-10-2011 14:45:01 13 C 5.44 g/m*3 13 C 0 km/h
2234 26-10-2011 14:57:01 12.5 C 5.61 g/m*3 12.5 C 0 km/h
2235 26-10-2011 15:09:01 12 C 5.86 g/m*3 12 C 0 km/h
2236 26-10-2011 15:21:01 12.7 C 5.68 g/m*3 12.7 C 0 km/h
2237 26-10-2011 15:33:01 11.7 C 6.28 g/m*3 11.7 C 0 km/h
2238 26-10-2011 15:45:02 12.1 C 6.11 g/m*3 12.1 C 0 km/h
2239 26-10-2011 15:57:02 11.7 C 6.28 g/m*3 11.7 C 0 km/h
2240 26-10-2011 16:09:01 11.6 C 6.44 g/m*3 11.6 C 0 km/h
2241 26-10-2011 16:21:02 11.4 C 6.47 g/m*3 11.4 C 0 km/h
2242 26-10-2011 16:33:01 14 C 6.51 g/m*3 14 C 0 km/h
2243 26-10-2011 16:45:02 15.6 C 6.25 g/m*3 15.6 C 0 km/h
2244 26-10-2011 16:57:02 16.6 C 5.93 g/m*3 16.6 C 0 km/h
2245 26-10-2011 17:09:01 16.2 C 5.79 g/m*3 16.2 C 0 km/h
2246 26-10-2011 17:21:01 15.8 C 6.06 g/m*3 15.8 C 0 km/h
2247 26-10-2011 17:33:02 15.2 C 5.84 g/m*3 15.2 C 0 km/h
2248 26-10-2011 17:45:01 14.8 C 5.95 g/m*3 14.8 C 0 km/h
2249 26-10-2011 17:57:01 11.2 C 5.98 g/m*3 11.2 C 0 km/h
2250 26-10-2011 18:09:02 10 C 6.01 g/m*3 10 C 0 km/h
Sensor: Nr:Datum:Temp:Abs-Feuchte:Windchill:Wind:
Aussen-T/F 2251 26-10-2011 18:21:01 9.6 C 6.14 g/m*3 9.6 C 0 km/h
2252 26-10-2011 18:33:02 9 C 6.08 g/m*3 9 C 0 km/h
2253 26-10-2011 18:45:01 8.5 C 6.15 g/m*3 8.5 C 0 km/h
2254 26-10-2011 18:57:01 8.6 C 6.27 g/m*3 8.6 C 0 km/h
2255 26-10-2011 19:09:02 8.4 C 6.11 g/m*3 8.4 C 0 km/h
2256 26-10-2011 19:21:01 8.5 C 6.23 g/m*3 8.5 C 0 km/h
2257 26-10-2011 19:33:01 8.2 C 6.11 g/m*3 8.2 C 0 km/h
2258 26-10-2011 19:45:01 7.9 C 6.24 g/m*3 7.9 C 0 km/h
2259 26-10-2011 19:57:01 7.8 C 6.28 g/m*3 7.8 C 0 km/h
2260 26-10-2011 20:09:01 7.5 C 6.16 g/m*3 7.5 C 0 km/h
2261 26-10-2011 20:21:02 7.2 C 6.12 g/m*3 7.2 C 0 km/h
2262 26-10-2011 20:33:01 7.1 C 6.16 g/m*3 7.1 C 0 km/h
2263 26-10-2011 20:45:02 7.1 C 6.32 g/m*3 7.1 C 0 km/h
2264 26-10-2011 20:57:02 6.7 C 6.23 g/m*3 6.7 C 0 km/h
2265 26-10-2011 21:09:01 5.6 C 5.8 g/m*3 5.6 C 0 km/h
2266 26-10-2011 21:21:01 5 C 5.57 g/m*3 5 C 0 km/h
2267 26-10-2011 21:33:01 5.6 C 5.94 g/m*3 5.6 C 0 km/h
2268 26-10-2011 21:45:01 5 C 5.78 g/m*3 5 C 0 km/h
2269 26-10-2011 21:57:02 4.6 C 5.76 g/m*3 4.6 C 0 km/h
2270 26-10-2011 22:09:01 4.6 C 5.76 g/m*3 4.6 C 0 km/h
2271 26-10-2011 22:21:01 4.4 C 5.68 g/m*3 4.4 C 0 km/h
2272 26-10-2011 22:33:02 4.5 C 5.78 g/m*3 4.5 C 0 km/h
2273 26-10-2011 22:45:01 4 C 5.53 g/m*3 4 C 0 km/h
2274 26-10-2011 22:57:01 3.7 C 5.48 g/m*3 3.7 C 0 km/h
2275 26-10-2011 23:09:02 3.6 C 5.51 g/m*3 3.6 C 0 km/h
Sensor: Nr:Datum:Temp:Abs-Feuchte:Windchill:Wind:
Aussen-T/F 2276 26-10-2011 23:21:01 3.5 C 5.47 g/m*3 3.5 C 0 km/h
2277 26-10-2011 23:33:01 3.6 C 5.51 g/m*3 3.6 C 0 km/h
2278 26-10-2011 23:45:01 3.4 C 5.44 g/m*3 3.4 C 0 km/h
2279 26-10-2011 23:57:01 3 C 5.29 g/m*3 3 C 0 km/h
2280 27-10-2011 00:09:01 2.7 C 5.24 g/m*3 2.7 C 0 km/h
2281 27-10-2011 00:21:02 2.6 C 5.21 g/m*3 2.6 C 0 km/h
2282 27-10-2011 00:33:01 2.6 C 5.21 g/m*3 2.6 C 0 km/h
2283 27-10-2011 00:45:02 2.4 C 5.14 g/m*3 2.4 C 0 km/h
2284 27-10-2011 00:57:02 2.3 C 5.1 g/m*3 2.3 C 0 km/h
2285 27-10-2011 01:09:01 2.1 C 5.04 g/m*3 2.1 C 0 km/h
2286 27-10-2011 01:21:02 2 C 5 g/m*3 2 C 0 km/h
2287 27-10-2011 01:33:01 2.1 C 5.04 g/m*3 2.1 C 0 km/h
2288 27-10-2011 01:45:02 1.7 C 4.95 g/m*3 1.7 C 0 km/h
2289 27-10-2011 01:57:02 1.7 C 4.95 g/m*3 1.7 C 0 km/h
2290 27-10-2011 02:09:01 1.5 C 4.83 g/m*3 1.5 C 0 km/h
2291 27-10-2011 02:21:01 1.5 C 4.83 g/m*3 1.5 C 0 km/h
2292 27-10-2011 02:33:02 1.4 C 4.8 g/m*3 1.4 C 0 km/h
2293 27-10-2011 02:46:05 1.3 C 4.77 g/m*3 1.3 C 0 km/h
2294 27-10-2011 02:58:05 1.2 C 4.74 g/m*3 1.2 C 0 km/h
2295 27-10-2011 03:10:05 1 C 4.67 g/m*3 1 C 0 km/h
2296 27-10-2011 03:22:05 1 C 4.67 g/m*3 1 C 0 km/h
2297 27-10-2011 03:34:02 1.2 C 4.79 g/m*3 1.2 C 0 km/h
2298 27-10-2011 03:46:03 0.9 C 4.74 g/m*3 0.9 C 0 km/h
2299 27-10-2011 03:58:03 0.7 C 4.63 g/m*3 0.7 C 0 km/h
2300 27-10-2011 04:10:01 0.5 C 4.56 g/m*3 0.5 C 0 km/h
Sensor: Nr:Datum:Temp:Abs-Feuchte:Windchill:Wind:
Aussen-T/F 2301 27-10-2011 04:22:01 0.5 C 4.56 g/m*3 0.5 C 0 km/h
2302 27-10-2011 04:34:02 1 C 4.72 g/m*3 1 C 0 km/h
2303 27-10-2011 04:46:02 0.5 C 4.56 g/m*3 0.5 C 0 km/h
2304 27-10-2011 04:58:02 0.5 C 4.56 g/m*3 0.5 C 0 km/h
2305 27-10-2011 05:10:02 0.2 C 4.52 g/m*3 0.2 C 0 km/h
2306 27-10-2011 05:22:02 0.4 C 4.58 g/m*3 0.4 C 0 km/h
2307 27-10-2011 05:34:02 0.4 C 4.58 g/m*3 0.4 C 0 km/h
2308 27-10-2011 05:46:02 0.6 C 4.65 g/m*3 0.6 C 0 km/h
2309 27-10-2011 05:58:02 0.7 C 4.68 g/m*3 0.7 C 0 km/h
2310 27-10-2011 06:10:02 0.6 C 4.65 g/m*3 0.6 C 0 km/h
2311 27-10-2011 06:22:02 0.5 C 4.61 g/m*3 0.5 C 0 km/h
2312 27-10-2011 06:34:02 0.8 C 4.76 g/m*3 0.8 C 0 km/h
2313 27-10-2011 06:46:02 1 C 4.78 g/m*3 1 C 0 km/h
2314 27-10-2011 06:58:02 1.1 C 4.86 g/m*3 1.1 C 0 km/h
2315 27-10-2011 07:10:02 0.9 C 4.79 g/m*3 0.9 C 0 km/h
2316 27-10-2011 07:22:02 0.9 C 4.79 g/m*3 0.9 C 0 km/h
2317 27-10-2011 07:34:02 1 C 4.83 g/m*3 1 C 0 km/h
2318 27-10-2011 07:46:02 0.7 C 4.73 g/m*3 0.7 C 0 km/h
2319 27-10-2011 07:58:02 0.6 C 4.7 g/m*3 0.6 C 0 km/h
2320 27-10-2011 08:10:02 0.7 C 4.73 g/m*3 0.7 C 0 km/h
2321 27-10-2011 08:22:02 0.6 C 4.7 g/m*3 0.6 C 0 km/h
2322 27-10-2011 08:34:01 0.7 C 4.73 g/m*3 0.7 C 0 km/h
2323 27-10-2011 08:46:02 1.4 C 4.96 g/m*3 1.4 C 0 km/h
2324 27-10-2011 08:58:03 1.9 C 5.13 g/m*3 1.9 C 0 km/h
2325 27-10-2011 09:10:01 1.8 C 5.1 g/m*3 1.8 C 0 km/h
Sensor: Nr:Datum:Temp:Abs-Feuchte:Windchill:Wind:
Aussen-T/F 2326 27-10-2011 09:22:01 1.8 C 5.1 g/m*3 1.8 C 0 km/h
2327 27-10-2011 09:34:02 2.1 C 5.2 g/m*3 2.1 C 0 km/h
2328 27-10-2011 09:46:02 2.3 C 5.27 g/m*3 2.3 C 0 km/h
2329 27-10-2011 09:58:02 2.6 C 5.38 g/m*3 2.6 C 0 km/h
2330 27-10-2011 10:10:02 3.6 C 5.76 g/m*3 3.6 C 0 km/h
2331 27-10-2011 10:22:02 3.3 C 5.64 g/m*3 3.3 C 0 km/h
2332 27-10-2011 10:34:02 3.3 C 5.64 g/m*3 3.3 C 0 km/h
2333 27-10-2011 10:46:02 3.8 C 5.83 g/m*3 3.8 C 0 km/h
2334 27-10-2011 10:58:02 4.2 C 5.99 g/m*3 4.2 C 0 km/h
2335 27-10-2011 11:10:02 5.7 C 6.55 g/m*3 5.7 C 0 km/h
2336 27-10-2011 11:22:01 7.6 C 7.41 g/m*3 7.6 C 0 km/h
2337 27-10-2011 11:34:02 7.9 C 7.56 g/m*3 7.9 C 0 km/h
2338 27-10-2011 11:46:01 8.6 C 7.82 g/m*3 8.6 C 0 km/h
2339 27-10-2011 11:58:01 8.6 C 7.82 g/m*3 8.6 C 0 km/h
2340 27-10-2011 12:10:02 9.2 C 7.95 g/m*3 9.2 C 0 km/h
2341 27-10-2011 12:22:02 9.3 C 8 g/m*3 9.3 C 0 km/h
2342 27-10-2011 12:34:02 9.4 C 7.96 g/m*3 9.4 C 0 km/h
2343 27-10-2011 12:46:02 10.1 C 8.13 g/m*3 10.1 C 0 km/h
2344 27-10-2011 12:58:02 10.4 C 8 g/m*3 10.4 C 0 km/h
2345 27-10-2011 13:10:02 10.9 C 8.16 g/m*3 10.9 C 0 km/h
2346 27-10-2011 13:22:02 11.1 C 7.45 g/m*3 11.1 C 0 km/h
2347 27-10-2011 13:34:01 11.4 C 7.49 g/m*3 11.4 C 0 km/h
2348 27-10-2011 13:46:02 11.5 C 7.23 g/m*3 11.5 C 0 km/h
2349 27-10-2011 13:58:02 12.1 C 7.18 g/m*3 12.1 C 0 km/h
2350 27-10-2011 14:10:01 12.2 C 7.12 g/m*3 12.2 C 0 km/h
Sensor: Nr:Datum:Temp:Abs-Feuchte:Windchill:Wind:
Aussen-T/F 2351 27-10-2011 14:22:01 11.7 C 7.01 g/m*3 11.7 C 0 km/h
2352 27-10-2011 14:34:02 11.8 C 7.05 g/m*3 11.8 C 0 km/h
2353 27-10-2011 14:46:02 12.3 C 7.06 g/m*3 12.3 C 0 km/h
2354 27-10-2011 14:58:02 11.8 C 6.95 g/m*3 11.8 C 0 km/h
2355 27-10-2011 15:10:02 11.7 C 6.9 g/m*3 11.7 C 0 km/h
2356 27-10-2011 15:22:02 12 C 6.93 g/m*3 12 C 0 km/h
2357 27-10-2011 15:34:02 12.1 C 6.97 g/m*3 12.1 C 0 km/h
2358 27-10-2011 15:46:02 12.1 C 6.97 g/m*3 12.1 C 0 km/h
2359 27-10-2011 15:58:02 11.6 C 6.86 g/m*3 11.6 C 0 km/h
2360 27-10-2011 16:10:02 11.5 C 6.92 g/m*3 11.5 C 0 km/h
2361 27-10-2011 16:22:02 11.4 C 6.98 g/m*3 11.4 C 0 km/h
2362 27-10-2011 16:34:02 11.3 C 6.94 g/m*3 11.3 C 0 km/h
2363 27-10-2011 16:46:02 11.5 C 7.02 g/m*3 11.5 C 0 km/h
2364 27-10-2011 16:58:02 11.5 C 6.92 g/m*3 11.5 C 0 km/h
2365 27-10-2011 17:10:02 11.4 C 6.98 g/m*3 11.4 C 0 km/h
2366 27-10-2011 17:22:03 11.3 C 7.04 g/m*3 11.3 C 0 km/h
2367 27-10-2011 17:34:02 11.4 C 7.19 g/m*3 11.4 C 0 km/h
2368 27-10-2011 17:46:03 11.2 C 7.1 g/m*3 11.2 C 0 km/h
2369 27-10-2011 17:58:03 10.7 C 7.07 g/m*3 10.7 C 0 km/h
2370 27-10-2011 18:10:02 10.1 C 7 g/m*3 10.1 C 0 km/h
2371 27-10-2011 18:22:02 9.4 C 6.96 g/m*3 9.4 C 0 km/h
2372 27-10-2011 18:34:02 9.1 C 7.1 g/m*3 9.1 C 0 km/h
2373 27-10-2011 18:46:02 8.9 C 7.18 g/m*3 8.9 C 0 km/h
2374 27-10-2011 18:58:02 9 C 7.23 g/m*3 9 C 0 km/h
2375 27-10-2011 19:10:02 8.7 C 7.26 g/m*3 8.7 C 0 km/h
Sensor: Nr:Datum:Temp:Abs-Feuchte:Windchill:Wind:
Aussen-T/F 2376 27-10-2011 19:22:02 8.4 C 7.13 g/m*3 8.4 C 0 km/h
2377 27-10-2011 19:34:02 8.4 C 7.21 g/m*3 8.4 C 0 km/h
2378 27-10-2011 19:46:01 8.3 C 7.25 g/m*3 8.3 C 0 km/h
2379 27-10-2011 19:58:01 8 C 7.11 g/m*3 8 C 0 km/h
2380 27-10-2011 20:10:02 7.9 C 7.15 g/m*3 7.9 C 0 km/h
2381 27-10-2011 20:22:01 7.8 C 7.18 g/m*3 7.8 C 0 km/h
2382 27-10-2011 20:34:02 7.4 C 7 g/m*3 7.4 C 0 km/h
2383 27-10-2011 20:46:02 7.5 C 7.04 g/m*3 7.5 C 0 km/h
2384 27-10-2011 20:58:02 7.1 C 6.86 g/m*3 7.1 C 0 km/h
2385 27-10-2011 21:10:02 7.2 C 6.99 g/m*3 7.2 C 0 km/h
2386 27-10-2011 21:22:01 7 C 6.9 g/m*3 7 C 0 km/h
2387 27-10-2011 21:34:02 7.1 C 6.94 g/m*3 7.1 C 0 km/h
2388 27-10-2011 21:46:01 7 C 6.9 g/m*3 7 C 0 km/h
2389 27-10-2011 21:58:01 7.6 C 7.25 g/m*3 7.6 C 0 km/h
2390 27-10-2011 22:10:02 7.3 C 7.11 g/m*3 7.3 C 0 km/h
2391 27-10-2011 22:22:02 7.3 C 7.11 g/m*3 7.3 C 0 km/h
2392 27-10-2011 22:34:02 7 C 6.97 g/m*3 7 C 0 km/h
2393 27-10-2011 22:46:02 6.9 C 7.01 g/m*3 6.9 C 0 km/h
2394 27-10-2011 22:58:02 6.7 C 6.91 g/m*3 6.7 C 0 km/h
2395 27-10-2011 23:10:02 6.1 C 6.65 g/m*3 6.1 C 0 km/h
2396 27-10-2011 23:22:02 6 C 6.6 g/m*3 6 C 0 km/h
2397 27-10-2011 23:34:01 5.5 C 6.39 g/m*3 5.5 C 0 km/h
2398 27-10-2011 23:46:02 5.4 C 6.35 g/m*3 5.4 C 0 km/h
2399 27-10-2011 23:58:02 5.4 C 6.35 g/m*3 5.4 C 0 km/h
2400 28-10-2011 00:10:01 5.1 C 6.22 g/m*3 5.1 C 0 km/h
Sensor: Nr:Datum:Temp:Abs-Feuchte:Windchill:Wind:
Aussen-T/F 2401 28-10-2011 00:22:01 5.4 C 6.35 g/m*3 5.4 C 0 km/h
2402 28-10-2011 00:34:01 4.9 C 6.21 g/m*3 4.9 C 0 km/h
2403 28-10-2011 00:46:01 4.8 C 6.17 g/m*3 4.8 C 0 km/h
2404 28-10-2011 00:58:01 4.9 C 6.21 g/m*3 4.9 C 0 km/h
2405 28-10-2011 01:10:01 4.7 C 6.13 g/m*3 4.7 C 0 km/h
2406 28-10-2011 01:22:02 4.4 C 6.01 g/m*3 4.4 C 0 km/h
2407 28-10-2011 01:34:01 4.3 C 5.97 g/m*3 4.3 C 0 km/h
2408 28-10-2011 01:46:03 4.2 C 5.93 g/m*3 4.2 C 0 km/h
2409 28-10-2011 01:58:03 4.1 C 5.89 g/m*3 4.1 C 0 km/h
2410 28-10-2011 02:10:02 4.1 C 5.89 g/m*3 4.1 C 0 km/h
2411 28-10-2011 02:22:02 4.1 C 5.89 g/m*3 4.1 C 0 km/h
2412 28-10-2011 02:34:03 4.1 C 5.89 g/m*3 4.1 C 0 km/h
2413 28-10-2011 02:47:04 3.8 C 5.83 g/m*3 3.8 C 0 km/h
2414 28-10-2011 02:59:05 3.9 C 5.87 g/m*3 3.9 C 0 km/h
2415 28-10-2011 03:11:03 3.8 C 5.83 g/m*3 3.8 C 0 km/h
2416 28-10-2011 03:23:03 4.1 C 5.89 g/m*3 4.1 C 0 km/h
2417 28-10-2011 03:35:02 3.8 C 5.83 g/m*3 3.8 C 0 km/h
2418 28-10-2011 03:47:02 3.8 C 5.83 g/m*3 3.8 C 0 km/h
2419 28-10-2011 03:59:02 3.8 C 5.83 g/m*3 3.8 C 0 km/h
2420 28-10-2011 04:11:02 3.9 C 5.87 g/m*3 3.9 C 0 km/h
2421 28-10-2011 04:23:02 4 C 5.85 g/m*3 4 C 0 km/h
2422 28-10-2011 04:35:02 3.8 C 5.83 g/m*3 3.8 C 0 km/h
2423 28-10-2011 04:47:02 3.9 C 5.87 g/m*3 3.9 C 0 km/h
2424 28-10-2011 04:59:02 3.9 C 5.87 g/m*3 3.9 C 0 km/h
2425 28-10-2011 05:11:01 3.8 C 5.83 g/m*3 3.8 C 0 km/h
Sensor: Nr:Datum:Temp:Abs-Feuchte:Windchill:Wind:
Aussen-T/F 2426 28-10-2011 05:23:02 3.9 C 5.87 g/m*3 3.9 C 0 km/h
2427 28-10-2011 05:35:02 3.8 C 5.83 g/m*3 3.8 C 0 km/h
2428 28-10-2011 05:47:02 4 C 5.91 g/m*3 4 C 0 km/h
2429 28-10-2011 05:59:02 3.9 C 5.87 g/m*3 3.9 C 0 km/h
2430 28-10-2011 06:11:02 3.5 C 5.72 g/m*3 3.5 C 0 km/h
2431 28-10-2011 06:23:02 3.5 C 5.72 g/m*3 3.5 C 0 km/h
2432 28-10-2011 06:35:02 3.4 C 5.68 g/m*3 3.4 C 0 km/h
2433 28-10-2011 06:47:02 3.2 C 5.6 g/m*3 3.2 C 0 km/h
2434 28-10-2011 06:59:02 3.3 C 5.64 g/m*3 3.3 C 0 km/h
2435 28-10-2011 07:11:02 3 C 5.53 g/m*3 3 C 0 km/h
2436 28-10-2011 07:23:03 3.4 C 5.68 g/m*3 3.4 C 0 km/h
2437 28-10-2011 07:35:02 4 C 5.91 g/m*3 4 C 0 km/h
2438 28-10-2011 07:47:02 4.1 C 5.95 g/m*3 4.1 C 0 km/h
2439 28-10-2011 07:59:02 3.6 C 5.82 g/m*3 3.6 C 0 km/h
2440 28-10-2011 08:11:02 3.8 C 5.9 g/m*3 3.8 C 0 km/h
2441 28-10-2011 08:23:02 3.9 C 5.94 g/m*3 3.9 C 0 km/h
2442 28-10-2011 08:35:02 3.8 C 5.9 g/m*3 3.8 C 0 km/h
2443 28-10-2011 08:47:02 3.9 C 5.94 g/m*3 3.9 C 0 km/h
2444 28-10-2011 08:59:02 4.2 C 5.99 g/m*3 4.2 C 0 km/h
2445 28-10-2011 09:11:01 4.3 C 6.1 g/m*3 4.3 C 0 km/h
2446 28-10-2011 09:23:02 4.4 C 6.14 g/m*3 4.4 C 0 km/h
2447 28-10-2011 09:35:02 4.4 C 6.14 g/m*3 4.4 C 0 km/h
2448 28-10-2011 09:47:02 4.6 C 6.22 g/m*3 4.6 C 0 km/h
2449 28-10-2011 09:59:02 4.5 C 6.18 g/m*3 4.5 C 0 km/h
2450 28-10-2011 10:11:02 4.8 C 6.3 g/m*3 4.8 C 0 km/h
Sensor: Nr:Datum:Temp:Abs-Feuchte:Windchill:Wind:
Aussen-T/F 2451 28-10-2011 10:23:02 5.6 C 6.57 g/m*3 5.6 C 0 km/h
2452 28-10-2011 10:35:02 6.3 C 6.88 g/m*3 6.3 C 0 km/h
2453 28-10-2011 10:47:02 6.3 C 6.88 g/m*3 6.3 C 0 km/h
2454 28-10-2011 10:59:02 6 C 6.75 g/m*3 6 C 0 km/h
2455 28-10-2011 11:11:03 5.9 C 6.71 g/m*3 5.9 C 0 km/h
2456 28-10-2011 11:23:02 5.9 C 6.71 g/m*3 5.9 C 0 km/h
2457 28-10-2011 11:35:02 6.7 C 6.99 g/m*3 6.7 C 0 km/h
2458 28-10-2011 11:47:01 7 C 7.13 g/m*3 7 C 0 km/h
2459 28-10-2011 11:59:01 7.3 C 7.27 g/m*3 7.3 C 0 km/h
2460 28-10-2011 12:11:01 7.9 C 7.56 g/m*3 7.9 C 0 km/h
2461 28-10-2011 12:23:02 8.2 C 7.62 g/m*3 8.2 C 0 km/h
2462 28-10-2011 12:35:01 8.8 C 8.01 g/m*3 8.8 C 0 km/h
2463 28-10-2011 12:47:03 9 C 8.02 g/m*3 9 C 0 km/h
2464 28-10-2011 12:59:03 9.7 C 8.39 g/m*3 9.7 C 0 km/h
2465 28-10-2011 13:11:02 10 C 8.46 g/m*3 10 C 0 km/h
2466 28-10-2011 13:23:02 11 C 8.91 g/m*3 11 C 0 km/h
2467 28-10-2011 13:35:02 12 C 9.38 g/m*3 12 C 0 km/h
2468 28-10-2011 13:47:02 11.5 C 8.88 g/m*3 11.5 C 0 km/h
2469 28-10-2011 13:59:02 11.3 C 8.77 g/m*3 11.3 C 0 km/h
2470 28-10-2011 14:11:02 11.5 C 8.88 g/m*3 11.5 C 0 km/h
2471 28-10-2011 14:23:02 11.9 C 9.11 g/m*3 11.9 C 0 km/h
2472 28-10-2011 14:35:01 12.4 C 9.18 g/m*3 12.4 C 0 km/h
2473 28-10-2011 14:47:01 12.5 C 9.13 g/m*3 12.5 C 0 km/h
2474 28-10-2011 14:59:02 12.5 C 9.02 g/m*3 12.5 C 0 km/h
2475 28-10-2011 15:11:01 12.8 C 9.07 g/m*3 12.8 C 0 km/h
Sensor: Nr:Datum:Temp:Abs-Feuchte:Windchill:Wind:
Aussen-T/F 2476 28-10-2011 15:23:01 13.3 C 9.24 g/m*3 13.3 C 0 km/h
2477 28-10-2011 15:35:02 13.6 C 9.18 g/m*3 13.6 C 0 km/h
2478 28-10-2011 15:47:02 14.2 C 9.52 g/m*3 14.2 C 0 km/h
2479 28-10-2011 15:59:02 14.9 C 9.56 g/m*3 14.9 C 0 km/h
2480 28-10-2011 16:11:02 15.2 C 9.35 g/m*3 15.2 C 0 km/h
2481 28-10-2011 16:23:01 15.4 C 9.46 g/m*3 15.4 C 0 km/h
2482 28-10-2011 16:35:02 15.2 C 9.35 g/m*3 15.2 C 0 km/h
2483 28-10-2011 16:47:02 15 C 9.23 g/m*3 15 C 0 km/h
2484 28-10-2011 16:59:02 14.8 C 9.25 g/m*3 14.8 C 0 km/h
2485 28-10-2011 17:11:02 14.5 C 8.95 g/m*3 14.5 C 0 km/h
2486 28-10-2011 17:23:01 14.3 C 8.85 g/m*3 14.3 C 0 km/h
2487 28-10-2011 17:35:02 14.1 C 8.74 g/m*3 14.1 C 0 km/h
2488 28-10-2011 17:47:01 14 C 8.81 g/m*3 14 C 0 km/h
2489 28-10-2011 17:59:01 13.8 C 8.82 g/m*3 13.8 C 0 km/h
2490 28-10-2011 18:11:02 13.7 C 8.76 g/m*3 13.7 C 0 km/h
2491 28-10-2011 18:23:02 13.6 C 8.71 g/m*3 13.6 C 0 km/h
2492 28-10-2011 18:35:02 13.5 C 8.66 g/m*3 13.5 C 0 km/h
2493 28-10-2011 18:47:02 13.4 C 8.6 g/m*3 13.4 C 0 km/h
2494 28-10-2011 18:59:02 13.3 C 8.55 g/m*3 13.3 C 0 km/h
2495 28-10-2011 19:11:02 13 C 8.51 g/m*3 13 C 0 km/h
2496 28-10-2011 19:23:02 12.9 C 8.68 g/m*3 12.9 C 0 km/h
2497 28-10-2011 19:35:01 12.9 C 8.68 g/m*3 12.9 C 0 km/h
2498 28-10-2011 19:47:02 12.8 C 8.62 g/m*3 12.8 C 0 km/h
2499 28-10-2011 19:59:02 12.8 C 8.74 g/m*3 12.8 C 0 km/h
2500 28-10-2011 20:11:01 12.7 C 8.68 g/m*3 12.7 C 0 km/h
Sensor: Nr:Datum:Temp:Abs-Feuchte:Windchill:Wind:
Aussen-T/F 2501 28-10-2011 20:23:01 12.6 C 8.74 g/m*3 12.6 C 0 km/h
2502 28-10-2011 20:35:02 12.4 C 8.63 g/m*3 12.4 C 0 km/h
2503 28-10-2011 20:47:02 12.4 C 8.74 g/m*3 12.4 C 0 km/h
2504 28-10-2011 20:59:02 12.4 C 8.85 g/m*3 12.4 C 0 km/h
2505 28-10-2011 21:11:02 12.3 C 8.8 g/m*3 12.3 C 0 km/h
2506 28-10-2011 21:23:02 11.9 C 8.68 g/m*3 11.9 C 0 km/h
2507 28-10-2011 21:35:02 11.4 C 8.42 g/m*3 11.4 C 0 km/h
2508 28-10-2011 21:47:01 11.1 C 8.26 g/m*3 11.1 C 0 km/h
2509 28-10-2011 21:59:01 11.1 C 8.26 g/m*3 11.1 C 0 km/h
2510 28-10-2011 22:11:02 11.3 C 8.57 g/m*3 11.3 C 0 km/h
2511 28-10-2011 22:24:02 11.3 C 8.57 g/m*3 11.3 C 0 km/h
2512 28-10-2011 22:36:02 11.3 C 8.57 g/m*3 11.3 C 0 km/h
2513 28-10-2011 22:48:02 11.3 C 8.57 g/m*3 11.3 C 0 km/h
2514 28-10-2011 23:00:02 11.1 C 8.56 g/m*3 11.1 C 0 km/h
2515 28-10-2011 23:12:02 11.3 C 8.67 g/m*3 11.3 C 0 km/h
2516 28-10-2011 23:24:02 10.9 C 8.45 g/m*3 10.9 C 0 km/h
2517 28-10-2011 23:36:02 10.8 C 8.4 g/m*3 10.8 C 0 km/h
2518 28-10-2011 23:48:02 10.7 C 8.45 g/m*3 10.7 C 0 km/h

Legende:
   Min
   Max


Maximal/Minimal-Werte vom 08.10.2011 - 28.10.2011

Sensor Min Max Avg
Temp
(Aussen-T/F)
-2.1 °C
23-10-2011  06:20:02
22.4 °C
10-10-2011  16:57:02
8.03 °C
Abs-Feuchte
(Aussen-T/F)
3.85 g/m*3
23-10-2011  06:20:02
11.51 g/m*3
10-10-2011  09:45:02
6.37 g/m*3
Windchill
(Aussen-T/F)
-2.1 C
23-10-2011  06:20:02
22.4 C
10-10-2011  16:57:02
8.02 C

Die Daten stammen von einer Davis Vantage Pro 2 Wetter-Station und werden unter Linux mit der Software wview2wettercgi und aufbereitet. Alle Angaben erfolgen ohne Gewähr für ihre Vollständigkeit oder Richtigkeit.
Kontakt: Rainer Krienke krienke@uni-koblenz.de . Meine Webseiten an der Uni Koblenz oder privat.
Version: $Revision: 0.78 $